Time,TemperatureF,DewpointF,PressureIn,WindDirection,WindDirectionDegrees,WindSpeedMPH,WindSpeedGustMPH,Humidity,HourlyPrecipIn,Conditions,Clouds,dailyrainin,SolarRadiationWatts/m^2,SoftwareType,DateUTC
2013-03-11 00:00:00,50.2,31.8,29.94,NE,48,0.0,0.0,49,0.00,,,0.00,0.00,VWS V14.01,2013-03-11 04:00:00,
2013-03-11 00:01:00,50.1,32.2,29.94,NE,49,0.0,0.0,50,0.00,,,0.00,0.00,VWS V14.01,2013-03-11 04:01:00,
2013-03-11 00:02:00,50.1,32.2,29.94,NE,47,0.0,0.0,50,0.00,,,0.00,0.00,VWS V14.01,2013-03-11 04:02:00,
2013-03-11 00:03:00,49.9,32.0,29.94,ENE,62,0.0,0.0,50,0.00,,,0.00,0.00,VWS V14.01,2013-03-11 04:03:00,
2013-03-11 00:04:00,49.8,31.9,29.94,ENE,62,0.0,0.0,50,0.00,,,0.00,0.00,VWS V14.01,2013-03-11 04:04:00,
2013-03-11 00:05:00,49.8,31.9,29.94,ENE,62,0.0,0.0,50,0.00,,,0.00,0.00,VWS V14.01,2013-03-11 04:05:00,
2013-03-11 00:06:00,49.8,31.9,29.94,ENE,62,0.0,0.0,50,0.00,,,0.00,0.00,VWS V14.01,2013-03-11 04:06:00,
2013-03-11 00:07:00,49.9,32.0,29.94,ENE,62,0.0,0.0,50,0.00,,,0.00,0.00,VWS V14.01,2013-03-11 04:07:00,
2013-03-11 00:08:00,49.9,32.0,29.94,ENE,62,0.0,0.0,50,0.00,,,0.00,0.00,VWS V14.01,2013-03-11 04:08:00,
2013-03-11 00:09:00,49.8,31.9,29.94,ENE,66,0.0,0.0,50,0.00,,,0.00,0.00,VWS V14.01,2013-03-11 04:09:00,
2013-03-11 00:10:00,49.6,31.7,29.94,East,97,0.0,0.0,50,0.00,,,0.00,0.00,VWS V14.01,2013-03-11 04:10:00,
2013-03-11 00:11:00,49.6,31.7,29.94,East,97,0.0,0.0,50,0.00,,,0.00,0.00,VWS V14.01,2013-03-11 04:11:00,
2013-03-11 00:12:00,49.6,31.7,29.94,East,97,0.0,0.0,50,0.00,,,0.00,0.00,VWS V14.01,2013-03-11 04:12:00,
2013-03-11 00:13:00,49.8,31.9,29.94,ENE,66,0.0,0.0,50,0.00,,,0.00,0.00,VWS V14.01,2013-03-11 04:13:00,
2013-03-11 00:14:00,49.6,31.7,29.94,ESE,112,0.0,0.0,50,0.00,,,0.00,0.00,VWS V14.01,2013-03-11 04:14:00,
2013-03-11 00:15:00,49.6,31.7,29.93,ESE,106,0.0,0.0,50,0.00,,,0.00,0.00,VWS V14.01,2013-03-11 04:15:00,
2013-03-11 00:16:00,49.6,31.7,29.93,ESE,107,0.0,0.0,50,0.00,,,0.00,0.00,VWS V14.01,2013-03-11 04:16:00,
2013-03-11 00:17:00,49.6,31.7,29.93,ESE,106,0.0,0.0,50,0.00,,,0.00,0.00,VWS V14.01,2013-03-11 04:17:00,
2013-03-11 00:18:00,49.6,31.7,29.94,ESE,112,0.0,0.0,50,0.00,,,0.00,0.00,VWS V14.01,2013-03-11 04:18:00,
2013-03-11 00:19:00,49.8,31.9,29.93,ESE,106,0.0,0.0,50,0.00,,,0.00,0.00,VWS V14.01,2013-03-11 04:19:00,
2013-03-11 00:20:00,49.8,31.9,29.93,ESE,106,0.0,0.0,50,0.00,,,0.00,0.00,VWS V14.01,2013-03-11 04:20:00,
2013-03-11 00:21:00,49.8,31.9,29.93,ESE,106,0.0,0.0,50,0.00,,,0.00,0.00,VWS V14.01,2013-03-11 04:21:00,
2013-03-11 00:22:00,49.8,31.9,29.93,ESE,106,0.0,0.0,50,0.00,,,0.00,0.00,VWS V14.01,2013-03-11 04:22:00,
2013-03-11 00:23:00,49.6,31.7,29.93,ESE,104,0.0,0.0,50,0.00,,,0.00,0.00,VWS V14.01,2013-03-11 04:23:00,
2013-03-11 00:24:00,49.8,31.9,29.93,ESE,106,0.0,0.0,50,0.00,,,0.00,0.00,VWS V14.01,2013-03-11 04:24:00,
2013-03-11 00:25:00,49.6,31.7,29.93,ESE,107,0.0,0.0,50,0.00,,,0.00,0.00,VWS V14.01,2013-03-11 04:25:00,
2013-03-11 00:26:00,49.6,31.7,29.93,ESE,107,0.0,0.0,50,0.00,,,0.00,0.00,VWS V14.01,2013-03-11 04:26:00,
2013-03-11 00:27:00,49.6,31.7,29.93,ESE,107,0.0,0.0,50,0.00,,,0.00,0.00,VWS V14.01,2013-03-11 04:27:00,
2013-03-11 00:28:00,49.6,31.7,29.93,ESE,107,0.0,0.0,50,0.00,,,0.00,0.00,VWS V14.01,2013-03-11 04:28:00,
2013-03-11 00:29:00,49.6,31.7,29.93,ESE,107,0.0,0.0,50,0.00,,,0.00,0.00,VWS V14.01,2013-03-11 04:29:00,
2013-03-11 00:30:00,49.6,31.7,29.93,ESE,107,0.0,0.0,50,0.00,,,0.00,0.00,VWS V14.01,2013-03-11 04:30:00,
2013-03-11 00:31:00,49.6,31.7,29.93,ESE,109,0.0,0.0,50,0.00,,,0.00,0.00,VWS V14.01,2013-03-11 04:31:00,
2013-03-11 00:32:00,49.6,31.7,29.93,ESE,109,0.0,0.0,50,0.00,,,0.00,0.00,VWS V14.01,2013-03-11 04:32:00,
2013-03-11 00:33:00,49.6,31.7,29.93,ESE,109,0.0,0.0,50,0.00,,,0.00,0.00,VWS V14.01,2013-03-11 04:33:00,
2013-03-11 00:34:00,49.6,31.7,29.93,ESE,109,0.0,0.0,50,0.00,,,0.00,0.00,VWS V14.01,2013-03-11 04:34:00,
2013-03-11 00:35:00,49.6,31.7,29.93,ESE,103,0.0,0.0,50,0.00,,,0.00,0.00,VWS V14.01,2013-03-11 04:35:00,
2013-03-11 00:36:00,49.6,31.7,29.93,ESE,109,0.0,0.0,50,0.00,,,0.00,0.00,VWS V14.01,2013-03-11 04:36:00,
2013-03-11 00:37:00,49.6,31.7,29.93,ESE,109,0.0,0.0,50,0.00,,,0.00,0.00,VWS V14.01,2013-03-11 04:37:00,
2013-03-11 00:38:00,49.5,31.6,29.93,ESE,106,0.0,0.0,50,0.00,,,0.00,0.00,VWS V14.01,2013-03-11 04:38:00,
2013-03-11 00:39:00,49.5,31.6,29.93,ESE,106,0.0,0.0,50,0.00,,,0.00,0.00,VWS V14.01,2013-03-11 04:39:00,
2013-03-11 00:40:00,49.6,31.7,29.93,ESE,109,0.0,0.0,50,0.00,,,0.00,0.00,VWS V14.01,2013-03-11 04:40:00,
2013-03-11 00:41:00,49.5,31.6,29.93,ESE,113,0.0,0.0,50,0.00,,,0.00,0.00,VWS V14.01,2013-03-11 04:41:00,
2013-03-11 00:42:00,49.5,31.6,29.93,ESE,113,0.0,0.0,50,0.00,,,0.00,0.00,VWS V14.01,2013-03-11 04:42:00,
2013-03-11 00:43:00,49.5,31.6,29.93,ESE,114,0.0,0.0,50,0.00,,,0.00,0.00,VWS V14.01,2013-03-11 04:43:00,
2013-03-11 00:44:00,49.5,31.6,29.93,ESE,114,0.0,0.0,50,0.00,,,0.00,0.00,VWS V14.01,2013-03-11 04:44:00,
2013-03-11 00:45:00,49.5,31.6,29.93,ESE,114,0.0,0.0,50,0.00,,,0.00,0.00,VWS V14.01,2013-03-11 04:45:00,
2013-03-11 00:46:00,49.5,31.6,29.92,ESE,114,0.0,0.0,50,0.00,,,0.00,0.00,VWS V14.01,2013-03-11 04:46:00,
2013-03-11 00:47:00,49.5,31.6,29.92,ESE,114,0.0,0.0,50,0.00,,,0.00,0.00,VWS V14.01,2013-03-11 04:47:00,
2013-03-11 00:48:00,49.5,31.6,29.92,ESE,110,0.0,0.0,50,0.00,,,0.00,0.00,VWS V14.01,2013-03-11 04:48:00,
2013-03-11 00:49:00,49.5,31.6,29.92,ESE,110,0.0,0.0,50,0.00,,,0.00,0.00,VWS V14.01,2013-03-11 04:49:00,
2013-03-11 00:50:00,49.5,31.6,29.92,ESE,110,0.0,0.0,50,0.00,,,0.00,0.00,VWS V14.01,2013-03-11 04:50:00,
2013-03-11 00:51:00,49.5,31.6,29.92,ESE,114,0.0,0.0,50,0.00,,,0.00,0.00,VWS V14.01,2013-03-11 04:51:00,
2013-03-11 00:52:00,49.5,31.6,29.92,ESE,110,0.0,0.0,50,0.00,,,0.00,0.00,VWS V14.01,2013-03-11 04:52:00,
2013-03-11 00:53:00,49.5,31.6,29.92,ESE,110,0.0,0.0,50,0.00,,,0.00,0.00,VWS V14.01,2013-03-11 04:53:00,
2013-03-11 00:54:00,49.5,31.6,29.92,NE,34,0.0,0.0,50,0.00,,,0.00,0.00,VWS V14.01,2013-03-11 04:54:00,
2013-03-11 00:55:00,49.5,31.6,29.92,East,99,0.0,0.0,50,0.00,,,0.00,0.00,VWS V14.01,2013-03-11 04:55:00,
2013-03-11 00:56:00,49.4,31.6,29.92,East,99,0.0,0.0,50,0.00,,,0.00,0.00,VWS V14.01,2013-03-11 04:56:00,
2013-03-11 00:57:00,49.5,31.6,29.92,ESE,110,0.0,0.0,50,0.00,,,0.00,0.00,VWS V14.01,2013-03-11 04:57:00,
2013-03-11 00:58:00,49.4,31.6,29.92,East,99,0.0,0.0,50,0.00,,,0.00,0.00,VWS V14.01,2013-03-11 04:58:00,
2013-03-11 00:59:00,49.4,31.6,29.92,East,96,0.0,0.0,50,0.00,,,0.00,0.00,VWS V14.01,2013-03-11 04:59:00,
2013-03-11 01:00:00,49.4,31.6,29.92,ESE,119,0.0,0.0,50,0.00,,,0.00,0.00,VWS V14.01,2013-03-11 05:00:00,
2013-03-11 01:01:00,49.4,31.6,29.92,ESE,112,0.0,0.0,50,0.00,,,0.00,0.00,VWS V14.01,2013-03-11 05:01:00,
2013-03-11 01:02:00,49.4,31.6,29.92,East,99,0.0,0.0,50,0.00,,,0.00,0.00,VWS V14.01,2013-03-11 05:02:00,
2013-03-11 01:03:00,49.4,31.6,29.92,ESE,112,0.0,0.0,50,0.00,,,0.00,0.00,VWS V14.01,2013-03-11 05:03:00,
2013-03-11 01:04:00,49.4,31.6,29.92,East,97,0.0,0.0,50,0.00,,,0.00,0.00,VWS V14.01,2013-03-11 05:04:00,
2013-03-11 01:05:00,49.2,31.4,29.92,East,97,0.0,0.0,50,0.00,,,0.00,0.00,VWS V14.01,2013-03-11 05:05:00,
2013-03-11 01:06:00,49.2,31.4,29.92,East,97,0.0,0.0,50,0.00,,,0.00,0.00,VWS V14.01,2013-03-11 05:06:00,
2013-03-11 01:07:00,49.2,31.4,29.92,East,97,0.0,0.0,50,0.00,,,0.00,0.00,VWS V14.01,2013-03-11 05:07:00,
2013-03-11 01:08:00,49.4,31.6,29.92,ESE,112,0.0,0.0,50,0.00,,,0.00,0.00,VWS V14.01,2013-03-11 05:08:00,
2013-03-11 01:09:00,49.2,31.4,29.92,East,97,0.0,0.0,50,0.00,,,0.00,0.00,VWS V14.01,2013-03-11 05:09:00,
2013-03-11 01:10:00,49.2,31.4,29.92,East,97,0.0,0.0,50,0.00,,,0.00,0.00,VWS V14.01,2013-03-11 05:10:00,
2013-03-11 01:11:00,49.2,31.4,29.92,East,97,0.0,0.0,50,0.00,,,0.00,0.00,VWS V14.01,2013-03-11 05:11:00,
2013-03-11 01:12:00,49.1,31.3,29.92,East,96,0.0,0.0,50,0.00,,,0.00,0.00,VWS V14.01,2013-03-11 05:12:00,
2013-03-11 01:13:00,49.1,31.3,29.92,East,96,0.0,0.0,50,0.00,,,0.00,0.00,VWS V14.01,2013-03-11 05:13:00,
2013-03-11 01:14:00,49.2,31.4,29.92,East,97,0.0,0.0,50,0.00,,,0.00,0.00,VWS V14.01,2013-03-11 05:14:00,
2013-03-11 01:15:00,49.1,31.3,29.91,East,95,0.0,0.0,50,0.00,,,0.00,0.00,VWS V14.01,2013-03-11 05:15:00,
2013-03-11 01:16:00,49.1,31.3,29.91,East,95,0.0,0.0,50,0.00,,,0.00,0.00,VWS V14.01,2013-03-11 05:16:00,
2013-03-11 01:17:00,49.1,31.3,29.91,East,95,0.0,0.0,50,0.00,,,0.00,0.00,VWS V14.01,2013-03-11 05:17:00,
2013-03-11 01:18:00,48.9,31.1,29.91,East,95,0.0,0.0,50,0.00,,,0.00,0.00,VWS V14.01,2013-03-11 05:18:00,
2013-03-11 01:19:00,49.1,31.3,29.92,East,95,0.0,0.0,50,0.00,,,0.00,0.00,VWS V14.01,2013-03-11 05:19:00,
2013-03-11 01:20:00,48.9,31.1,29.91,East,95,0.0,0.0,50,0.00,,,0.00,0.00,VWS V14.01,2013-03-11 05:20:00,
2013-03-11 01:21:00,48.9,31.1,29.91,East,95,0.0,0.0,50,0.00,,,0.00,0.00,VWS V14.01,2013-03-11 05:21:00,
2013-03-11 01:22:00,48.9,31.1,29.91,East,95,0.0,0.0,50,0.00,,,0.00,0.00,VWS V14.01,2013-03-11 05:22:00,
2013-03-11 01:23:00,48.8,31.0,29.91,East,92,0.0,0.0,50,0.00,,,0.00,0.00,VWS V14.01,2013-03-11 05:23:00,
2013-03-11 01:24:00,48.8,31.0,29.91,East,93,0.0,0.0,50,0.00,,,0.00,0.00,VWS V14.01,2013-03-11 05:24:00,
2013-03-11 01:25:00,48.9,31.1,29.91,East,95,0.0,0.0,50,0.00,,,0.00,0.00,VWS V14.01,2013-03-11 05:25:00,
2013-03-11 01:26:00,48.8,31.0,29.91,East,93,0.0,0.0,50,0.00,,,0.00,0.00,VWS V14.01,2013-03-11 05:26:00,
2013-03-11 01:27:00,48.8,31.0,29.91,East,93,0.0,0.0,50,0.00,,,0.00,0.00,VWS V14.01,2013-03-11 05:27:00,
2013-03-11 01:28:00,48.6,30.8,29.91,East,93,0.0,0.0,50,0.00,,,0.00,0.00,VWS V14.01,2013-03-11 05:28:00,
2013-03-11 01:29:00,48.6,30.8,29.91,East,93,0.0,0.0,50,0.00,,,0.00,0.00,VWS V14.01,2013-03-11 05:29:00,
2013-03-11 01:30:00,48.6,30.8,29.91,East,93,0.0,0.0,50,0.00,,,0.00,0.00,VWS V14.01,2013-03-11 05:30:00,
2013-03-11 01:31:00,48.8,31.0,29.91,East,93,0.0,0.0,50,0.00,,,0.00,0.00,VWS V14.01,2013-03-11 05:31:00,
2013-03-11 01:32:00,48.6,30.8,29.91,East,93,0.0,0.0,50,0.00,,,0.00,0.00,VWS V14.01,2013-03-11 05:32:00,
2013-03-11 01:33:00,48.5,31.2,29.91,East,93,0.0,0.0,51,0.00,,,0.00,0.00,VWS V14.01,2013-03-11 05:33:00,
2013-03-11 01:34:00,48.5,31.2,29.91,East,92,0.0,0.0,51,0.00,,,0.00,0.00,VWS V14.01,2013-03-11 05:34:00,
2013-03-11 01:35:00,48.5,31.2,29.91,East,93,0.0,0.0,51,0.00,,,0.00,0.00,VWS V14.01,2013-03-11 05:35:00,
2013-03-11 01:36:00,48.5,31.2,29.91,East,93,0.0,0.0,51,0.00,,,0.00,0.00,VWS V14.01,2013-03-11 05:36:00,
2013-03-11 01:37:00,48.6,30.8,29.91,East,93,0.0,0.0,50,0.00,,,0.00,0.00,VWS V14.01,2013-03-11 05:37:00,
2013-03-11 01:38:00,48.5,31.2,29.91,East,92,0.0,0.0,51,0.00,,,0.00,0.00,VWS V14.01,2013-03-11 05:38:00,
2013-03-11 01:39:00,48.5,31.2,29.91,East,92,0.0,0.0,51,0.00,,,0.00,0.00,VWS V14.01,2013-03-11 05:39:00,
2013-03-11 01:40:00,48.5,31.2,29.91,East,92,0.0,0.0,51,0.00,,,0.00,0.00,VWS V14.01,2013-03-11 05:40:00,
2013-03-11 01:41:00,48.5,31.2,29.91,East,92,0.0,0.0,51,0.00,,,0.00,0.00,VWS V14.01,2013-03-11 05:41:00,
2013-03-11 01:42:00,48.5,31.2,29.91,East,93,0.0,0.0,51,0.00,,,0.00,0.00,VWS V14.01,2013-03-11 05:42:00,
2013-03-11 01:43:00,48.3,30.5,29.91,East,92,0.0,0.0,50,0.00,,,0.00,0.00,VWS V14.01,2013-03-11 05:43:00,
2013-03-11 01:44:00,48.3,31.0,29.91,East,92,0.0,0.0,51,0.00,,,0.00,0.00,VWS V14.01,2013-03-11 05:44:00,
2013-03-11 01:45:00,48.3,31.0,29.91,East,92,0.0,0.0,51,0.00,,,0.00,0.00,VWS V14.01,2013-03-11 05:45:00,
2013-03-11 01:46:00,48.3,31.0,29.91,East,92,0.0,0.0,51,0.00,,,0.00,0.00,VWS V14.01,2013-03-11 05:46:00,
2013-03-11 01:47:00,48.3,31.0,29.91,East,92,0.0,0.0,51,0.00,,,0.00,0.00,VWS V14.01,2013-03-11 05:47:00,
2013-03-11 01:48:00,48.3,31.0,29.91,East,89,0.0,0.0,51,0.00,,,0.00,0.00,VWS V14.01,2013-03-11 05:48:00,
2013-03-11 01:49:00,48.3,31.0,29.91,ENE,73,0.0,0.0,51,0.00,,,0.00,0.00,VWS V14.01,2013-03-11 05:49:00,
2013-03-11 01:50:00,48.3,31.0,29.91,ENE,72,0.0,0.0,51,0.00,,,0.00,0.00,VWS V14.01,2013-03-11 05:50:00,
2013-03-11 01:51:00,48.3,31.0,29.91,ENE,73,0.0,0.0,51,0.00,,,0.00,0.00,VWS V14.01,2013-03-11 05:51:00,
2013-03-11 01:52:00,48.3,31.0,29.91,ENE,73,0.0,0.0,51,0.00,,,0.00,0.00,VWS V14.01,2013-03-11 05:52:00,
2013-03-11 01:53:00,48.3,31.0,29.91,East,89,0.0,0.0,51,0.00,,,0.00,0.00,VWS V14.01,2013-03-11 05:53:00,
2013-03-11 01:54:00,48.2,30.9,29.91,ENE,72,0.0,0.0,51,0.00,,,0.00,0.00,VWS V14.01,2013-03-11 05:54:00,
2013-03-11 01:55:00,48.2,30.9,29.91,ENE,68,0.0,0.0,51,0.00,,,0.00,0.00,VWS V14.01,2013-03-11 05:55:00,
2013-03-11 01:56:00,48.2,30.9,29.91,ENE,65,0.0,0.0,51,0.00,,,0.00,0.00,VWS V14.01,2013-03-11 05:56:00,
2013-03-11 01:57:00,48.2,30.9,29.91,ENE,65,0.0,0.0,51,0.00,,,0.00,0.00,VWS V14.01,2013-03-11 05:57:00,
2013-03-11 01:58:00,48.2,30.9,29.91,ENE,73,0.0,0.0,51,0.00,,,0.00,0.00,VWS V14.01,2013-03-11 05:58:00,
2013-03-11 01:59:00,48.2,30.9,29.91,ENE,65,0.0,0.0,51,0.00,,,0.00,0.00,VWS V14.01,2013-03-11 05:59:00,
2013-03-11 02:00:00,48.2,30.9,29.91,ENE,65,0.0,0.0,51,0.00,,,0.00,0.00,VWS V14.01,2013-03-11 06:00:00,
2013-03-11 02:01:00,48.2,30.9,29.91,ENE,65,0.0,0.0,51,0.00,,,0.00,0.00,VWS V14.01,2013-03-11 06:01:00,
2013-03-11 02:02:00,48.2,30.9,29.91,NNE,30,0.0,0.0,51,0.00,,,0.00,0.00,VWS V14.01,2013-03-11 06:02:00,
2013-03-11 02:03:00,48.2,30.9,29.91,ENE,68,0.0,0.0,51,0.00,,,0.00,0.00,VWS V14.01,2013-03-11 06:03:00,
2013-03-11 02:04:00,48.2,30.9,29.91,ENE,65,0.0,0.0,51,0.00,,,0.00,0.00,VWS V14.01,2013-03-11 06:04:00,
2013-03-11 02:05:00,48.2,30.9,29.91,ENE,72,0.0,0.0,51,0.00,,,0.00,0.00,VWS V14.01,2013-03-11 06:05:00,
2013-03-11 02:06:00,48.2,30.9,29.91,ENE,72,0.0,0.0,51,0.00,,,0.00,0.00,VWS V14.01,2013-03-11 06:06:00,
2013-03-11 02:07:00,48.2,30.9,29.91,ENE,72,0.0,0.0,51,0.00,,,0.00,0.00,VWS V14.01,2013-03-11 06:07:00,
2013-03-11 02:08:00,48.2,30.9,29.91,ENE,72,0.0,0.0,51,0.00,,,0.00,0.00,VWS V14.01,2013-03-11 06:08:00,
2013-03-11 02:09:00,48.2,30.9,29.91,ENE,72,0.0,0.0,51,0.00,,,0.00,0.00,VWS V14.01,2013-03-11 06:09:00,
2013-03-11 02:10:00,48.0,30.8,29.91,East,89,0.0,0.0,51,0.00,,,0.00,0.00,VWS V14.01,2013-03-11 06:10:00,
2013-03-11 02:11:00,48.0,30.8,29.91,East,89,0.0,0.0,51,0.00,,,0.00,0.00,VWS V14.01,2013-03-11 06:11:00,
2013-03-11 02:12:00,48.0,30.8,29.91,East,89,0.0,0.0,51,0.00,,,0.00,0.00,VWS V14.01,2013-03-11 06:12:00,
2013-03-11 02:13:00,48.0,30.8,29.91,East,89,0.0,0.0,51,0.00,,,0.00,0.00,VWS V14.01,2013-03-11 06:13:00,
2013-03-11 02:14:00,48.0,30.8,29.91,ENE,72,0.0,0.0,51,0.00,,,0.00,0.00,VWS V14.01,2013-03-11 06:14:00,
2013-03-11 02:15:00,48.2,30.9,29.90,ESE,104,0.0,0.0,51,0.00,,,0.00,0.00,VWS V14.01,2013-03-11 06:15:00,
2013-03-11 02:16:00,48.2,30.9,29.90,ESE,103,0.0,0.0,51,0.00,,,0.00,0.00,VWS V14.01,2013-03-11 06:16:00,
2013-03-11 02:17:00,48.2,30.9,29.90,ESE,103,0.0,0.0,51,0.00,,,0.00,0.00,VWS V14.01,2013-03-11 06:17:00,
2013-03-11 02:18:00,48.2,30.9,29.90,ESE,103,0.0,0.0,51,0.00,,,0.00,0.00,VWS V14.01,2013-03-11 06:18:00,
2013-03-11 02:19:00,48.0,30.8,29.91,East,89,0.0,0.0,51,0.00,,,0.00,0.00,VWS V14.01,2013-03-11 06:19:00,
2013-03-11 02:20:00,48.0,30.8,29.90,ESE,103,0.0,0.0,51,0.00,,,0.00,0.00,VWS V14.01,2013-03-11 06:20:00,
2013-03-11 02:21:00,48.0,30.8,29.90,ESE,103,0.0,0.0,51,0.00,,,0.00,0.00,VWS V14.01,2013-03-11 06:21:00,
2013-03-11 02:22:00,48.0,31.2,29.90,ESE,103,0.0,0.0,52,0.00,,,0.00,0.00,VWS V14.01,2013-03-11 06:22:00,
2013-03-11 02:23:00,48.0,31.2,29.90,ESE,103,0.0,0.0,52,0.00,,,0.00,0.00,VWS V14.01,2013-03-11 06:23:00,
2013-03-11 02:24:00,48.0,31.2,29.90,ENE,71,0.0,0.0,52,0.00,,,0.00,0.00,VWS V14.01,2013-03-11 06:24:00,
2013-03-11 02:25:00,48.0,30.8,29.90,ESE,103,0.0,0.0,51,0.00,,,0.00,0.00,VWS V14.01,2013-03-11 06:25:00,
2013-03-11 02:26:00,47.9,31.1,29.90,ENE,78,0.0,0.0,52,0.00,,,0.00,0.00,VWS V14.01,2013-03-11 06:26:00,
2013-03-11 02:27:00,47.9,31.1,29.90,ENE,78,0.0,0.0,52,0.00,,,0.00,0.00,VWS V14.01,2013-03-11 06:27:00,
2013-03-11 02:28:00,47.9,31.1,29.90,ENE,78,0.0,0.0,52,0.00,,,0.00,0.00,VWS V14.01,2013-03-11 06:28:00,
2013-03-11 02:29:00,47.9,31.1,29.90,ENE,78,0.0,0.0,52,0.00,,,0.00,0.00,VWS V14.01,2013-03-11 06:29:00,
2013-03-11 02:30:00,47.9,31.1,29.89,ENE,78,0.0,0.0,52,0.00,,,0.00,0.00,VWS V14.01,2013-03-11 06:30:00,
2013-03-11 02:31:00,47.9,31.1,29.90,ENE,78,0.0,0.0,52,0.00,,,0.00,0.00,VWS V14.01,2013-03-11 06:31:00,
2013-03-11 02:32:00,47.7,31.0,29.89,ENE,62,0.0,0.0,52,0.00,,,0.00,0.00,VWS V14.01,2013-03-11 06:32:00,
2013-03-11 02:33:00,47.7,31.0,29.89,ENE,62,0.0,0.0,52,0.00,,,0.00,0.00,VWS V14.01,2013-03-11 06:33:00,
2013-03-11 02:34:00,47.7,31.0,29.89,ENE,62,0.0,0.0,52,0.00,,,0.00,0.00,VWS V14.01,2013-03-11 06:34:00,
2013-03-11 02:35:00,47.7,31.0,29.89,ENE,62,0.0,0.0,52,0.00,,,0.00,0.00,VWS V14.01,2013-03-11 06:35:00,
2013-03-11 02:36:00,47.9,31.1,29.89,ENE,78,0.0,0.0,52,0.00,,,0.00,0.00,VWS V14.01,2013-03-11 06:36:00,
2013-03-11 02:37:00,47.7,31.0,29.89,ENE,62,0.0,0.0,52,0.00,,,0.00,0.00,VWS V14.01,2013-03-11 06:37:00,
2013-03-11 02:38:00,47.7,31.0,29.89,ENE,62,0.0,0.0,52,0.00,,,0.00,0.00,VWS V14.01,2013-03-11 06:38:00,
2013-03-11 02:39:00,47.7,31.0,29.89,ENE,62,0.0,0.0,52,0.00,,,0.00,0.00,VWS V14.01,2013-03-11 06:39:00,
2013-03-11 02:40:00,47.7,31.0,29.89,ENE,62,0.0,0.0,52,0.00,,,0.00,0.00,VWS V14.01,2013-03-11 06:40:00,
2013-03-11 02:41:00,47.6,30.9,29.89,ENE,62,0.0,0.0,52,0.00,,,0.00,0.00,VWS V14.01,2013-03-11 06:41:00,
2013-03-11 02:42:00,47.7,31.0,29.89,ENE,62,0.0,0.0,52,0.00,,,0.00,0.00,VWS V14.01,2013-03-11 06:42:00,
2013-03-11 02:43:00,47.6,31.3,29.89,ENE,62,0.0,0.0,53,0.00,,,0.00,0.00,VWS V14.01,2013-03-11 06:43:00,
2013-03-11 02:44:00,47.6,31.3,29.89,ENE,62,0.0,0.0,53,0.00,,,0.00,0.00,VWS V14.01,2013-03-11 06:44:00,
2013-03-11 02:45:00,47.6,30.9,29.90,ENE,62,0.0,0.0,52,0.00,,,0.00,0.00,VWS V14.01,2013-03-11 06:45:00,
2013-03-11 02:46:00,47.6,30.9,29.90,ENE,62,0.0,0.0,52,0.00,,,0.00,0.00,VWS V14.01,2013-03-11 06:46:00,
2013-03-11 02:47:00,47.6,30.9,29.89,ENE,62,0.0,0.0,52,0.00,,,0.00,0.00,VWS V14.01,2013-03-11 06:47:00,
2013-03-11 02:48:00,47.6,30.9,29.90,ENE,62,0.0,0.0,52,0.00,,,0.00,0.00,VWS V14.01,2013-03-11 06:48:00,
2013-03-11 02:49:00,47.6,31.3,29.90,ENE,62,0.0,0.0,53,0.00,,,0.00,0.00,VWS V14.01,2013-03-11 06:49:00,
2013-03-11 02:50:00,47.6,30.9,29.90,ENE,62,0.0,0.0,52,0.00,,,0.00,0.00,VWS V14.01,2013-03-11 06:50:00,
2013-03-11 02:51:00,47.6,30.9,29.90,ENE,62,0.0,0.0,52,0.00,,,0.00,0.00,VWS V14.01,2013-03-11 06:51:00,
2013-03-11 02:52:00,47.6,30.9,29.90,ENE,62,0.0,0.0,52,0.00,,,0.00,0.00,VWS V14.01,2013-03-11 06:52:00,
2013-03-11 02:53:00,47.6,31.3,29.90,ENE,62,0.0,0.0,53,0.00,,,0.00,0.00,VWS V14.01,2013-03-11 06:53:00,
2013-03-11 02:54:00,47.6,31.3,29.90,ENE,62,0.0,0.0,53,0.00,,,0.00,0.00,VWS V14.01,2013-03-11 06:54:00,
2013-03-11 02:55:00,47.6,31.3,29.90,ENE,62,0.0,0.0,53,0.00,,,0.00,0.00,VWS V14.01,2013-03-11 06:55:00,
2013-03-11 02:56:00,47.6,31.3,29.90,ENE,62,0.0,0.0,53,0.00,,,0.00,0.00,VWS V14.01,2013-03-11 06:56:00,
2013-03-11 02:57:00,47.6,31.3,29.90,ENE,62,0.0,0.0,53,0.00,,,0.00,0.00,VWS V14.01,2013-03-11 06:57:00,
2013-03-11 02:58:00,47.6,31.3,29.90,ENE,62,0.0,0.0,53,0.00,,,0.00,0.00,VWS V14.01,2013-03-11 06:58:00,
2013-03-11 02:59:00,47.4,31.1,29.90,ENE,62,0.0,0.0,53,0.00,,,0.00,0.00,VWS V14.01,2013-03-11 06:59:00,
2013-03-11 03:00:00,47.4,31.1,29.89,ENE,62,0.0,0.0,53,0.00,,,0.00,0.00,VWS V14.01,2013-03-11 07:00:00,
2013-03-11 03:01:00,47.4,31.1,29.89,ENE,62,0.0,0.0,53,0.00,,,0.00,0.00,VWS V14.01,2013-03-11 07:01:00,
2013-03-11 03:02:00,47.6,31.3,29.90,ENE,62,0.0,0.0,53,0.00,,,0.00,0.00,VWS V14.01,2013-03-11 07:02:00,
2013-03-11 03:03:00,47.4,31.1,29.89,ENE,62,0.0,0.0,53,0.00,,,0.00,0.00,VWS V14.01,2013-03-11 07:03:00,
2013-03-11 03:04:00,47.4,31.1,29.89,ENE,62,0.0,0.0,53,0.00,,,0.00,0.00,VWS V14.01,2013-03-11 07:04:00,
2013-03-11 03:05:00,47.4,31.1,29.89,ENE,62,0.0,0.0,53,0.00,,,0.00,0.00,VWS V14.01,2013-03-11 07:05:00,
2013-03-11 03:06:00,47.3,31.0,29.89,ENE,62,0.0,0.0,53,0.00,,,0.00,0.00,VWS V14.01,2013-03-11 07:06:00,
2013-03-11 03:07:00,47.3,31.0,29.89,ENE,62,0.0,0.0,53,0.00,,,0.00,0.00,VWS V14.01,2013-03-11 07:07:00,
2013-03-11 03:08:00,47.4,31.1,29.89,ENE,62,0.0,0.0,53,0.00,,,0.00,0.00,VWS V14.01,2013-03-11 07:08:00,
2013-03-11 03:09:00,47.3,31.0,29.89,ENE,62,0.0,0.0,53,0.00,,,0.00,0.00,VWS V14.01,2013-03-11 07:09:00,
2013-03-11 03:10:00,47.3,31.0,29.89,ENE,62,0.0,0.0,53,0.00,,,0.00,0.00,VWS V14.01,2013-03-11 07:10:00,
2013-03-11 03:11:00,47.3,31.0,29.89,ENE,62,0.0,0.0,53,0.00,,,0.00,0.00,VWS V14.01,2013-03-11 07:11:00,
2013-03-11 03:12:00,47.3,31.0,29.89,ENE,62,0.0,0.0,53,0.00,,,0.00,0.00,VWS V14.01,2013-03-11 07:12:00,
2013-03-11 03:13:00,47.3,31.0,29.89,ENE,62,0.0,0.0,53,0.00,,,0.00,0.00,VWS V14.01,2013-03-11 07:13:00,
2013-03-11 03:14:00,47.1,30.9,29.89,ENE,62,0.0,0.0,53,0.00,,,0.00,0.00,VWS V14.01,2013-03-11 07:14:00,
2013-03-11 03:15:00,47.1,30.9,29.88,ENE,62,0.0,0.0,53,0.00,,,0.00,0.00,VWS V14.01,2013-03-11 07:15:00,
2013-03-11 03:16:00,47.1,30.9,29.88,ENE,62,0.0,0.0,53,0.00,,,0.00,0.00,VWS V14.01,2013-03-11 07:16:00,
2013-03-11 03:17:00,47.1,30.9,29.88,ENE,62,0.0,0.0,53,0.00,,,0.00,0.00,VWS V14.01,2013-03-11 07:17:00,
2013-03-11 03:18:00,47.1,30.9,29.88,ENE,62,0.0,0.0,53,0.00,,,0.00,0.00,VWS V14.01,2013-03-11 07:18:00,
2013-03-11 03:19:00,47.1,30.9,29.89,ENE,62,0.0,0.0,53,0.00,,,0.00,0.00,VWS V14.01,2013-03-11 07:19:00,
2013-03-11 03:20:00,47.1,30.9,29.88,ENE,62,0.0,0.0,53,0.00,,,0.00,0.00,VWS V14.01,2013-03-11 07:20:00,
2013-03-11 03:21:00,47.1,31.3,29.88,ENE,62,0.0,0.0,54,0.00,,,0.00,0.00,VWS V14.01,2013-03-11 07:21:00,
2013-03-11 03:22:00,47.1,31.3,29.88,ENE,62,0.0,0.0,54,0.00,,,0.00,0.00,VWS V14.01,2013-03-11 07:22:00,
2013-03-11 03:23:00,47.1,31.3,29.88,ENE,62,0.0,0.0,54,0.00,,,0.00,0.00,VWS V14.01,2013-03-11 07:23:00,
2013-03-11 03:24:00,47.1,30.9,29.88,ENE,62,0.0,0.0,53,0.00,,,0.00,0.00,VWS V14.01,2013-03-11 07:24:00,
2013-03-11 03:25:00,47.0,31.2,29.88,ENE,62,0.0,0.0,54,0.00,,,0.00,0.00,VWS V14.01,2013-03-11 07:25:00,
2013-03-11 03:26:00,47.0,31.2,29.88,ENE,62,0.0,0.0,54,0.00,,,0.00,0.00,VWS V14.01,2013-03-11 07:26:00,
2013-03-11 03:27:00,47.0,31.2,29.88,ENE,62,0.0,0.0,54,0.00,,,0.00,0.00,VWS V14.01,2013-03-11 07:27:00,
2013-03-11 03:28:00,47.0,31.2,29.88,ENE,62,0.0,0.0,54,0.00,,,0.00,0.00,VWS V14.01,2013-03-11 07:28:00,
2013-03-11 03:29:00,47.0,31.2,29.88,ENE,62,0.0,0.0,54,0.00,,,0.00,0.00,VWS V14.01,2013-03-11 07:29:00,
2013-03-11 03:30:00,47.0,31.2,29.88,ENE,62,0.0,0.0,54,0.00,,,0.00,0.00,VWS V14.01,2013-03-11 07:30:00,
2013-03-11 03:31:00,47.0,31.2,29.87,ENE,62,0.0,0.0,54,0.00,,,0.00,0.00,VWS V14.01,2013-03-11 07:31:00,
2013-03-11 03:32:00,47.0,31.2,29.87,ENE,62,0.0,0.0,54,0.00,,,0.00,0.00,VWS V14.01,2013-03-11 07:32:00,
2013-03-11 03:33:00,47.0,31.2,29.87,ENE,62,0.0,0.0,54,0.00,,,0.00,0.00,VWS V14.01,2013-03-11 07:33:00,
2013-03-11 03:34:00,47.0,31.2,29.87,ENE,62,0.0,0.0,54,0.00,,,0.00,0.00,VWS V14.01,2013-03-11 07:34:00,
2013-03-11 03:35:00,47.0,31.2,29.87,ENE,62,0.0,0.0,54,0.00,,,0.00,0.00,VWS V14.01,2013-03-11 07:35:00,
2013-03-11 03:36:00,47.0,31.2,29.87,ENE,62,0.0,0.0,54,0.00,,,0.00,0.00,VWS V14.01,2013-03-11 07:36:00,
2013-03-11 03:37:00,47.0,31.2,29.87,ENE,62,0.0,0.0,54,0.00,,,0.00,0.00,VWS V14.01,2013-03-11 07:37:00,
2013-03-11 03:38:00,47.0,31.2,29.87,ENE,62,0.0,0.0,54,0.00,,,0.00,0.00,VWS V14.01,2013-03-11 07:38:00,
2013-03-11 03:39:00,46.8,31.0,29.87,ENE,62,0.0,0.0,54,0.00,,,0.00,0.00,VWS V14.01,2013-03-11 07:39:00,
2013-03-11 03:40:00,47.0,31.2,29.87,ENE,62,0.0,0.0,54,0.00,,,0.00,0.00,VWS V14.01,2013-03-11 07:40:00,
2013-03-11 03:41:00,46.8,31.0,29.87,ENE,62,0.0,0.0,54,0.00,,,0.00,0.00,VWS V14.01,2013-03-11 07:41:00,
2013-03-11 03:42:00,46.8,31.0,29.87,ENE,62,0.0,0.0,54,0.00,,,0.00,0.00,VWS V14.01,2013-03-11 07:42:00,
2013-03-11 03:43:00,46.7,31.0,29.87,ENE,62,0.0,0.0,54,0.00,,,0.00,0.00,VWS V14.01,2013-03-11 07:43:00,
2013-03-11 03:44:00,46.7,31.0,29.87,ENE,62,0.0,0.0,54,0.00,,,0.00,0.00,VWS V14.01,2013-03-11 07:44:00,
2013-03-11 03:45:00,46.7,31.0,29.87,ENE,62,0.0,0.0,54,0.00,,,0.00,0.00,VWS V14.01,2013-03-11 07:45:00,
2013-03-11 03:46:00,46.8,31.0,29.87,ENE,62,0.0,0.0,54,0.00,,,0.00,0.00,VWS V14.01,2013-03-11 07:46:00,
2013-03-11 03:47:00,46.7,31.0,29.87,ENE,62,0.0,0.0,54,0.00,,,0.00,0.00,VWS V14.01,2013-03-11 07:47:00,
2013-03-11 03:48:00,46.7,31.0,29.87,ENE,62,0.0,0.0,54,0.00,,,0.00,0.00,VWS V14.01,2013-03-11 07:48:00,
2013-03-11 03:49:00,46.7,31.0,29.87,ENE,62,0.0,0.0,54,0.00,,,0.00,0.00,VWS V14.01,2013-03-11 07:49:00,
2013-03-11 03:50:00,46.7,31.0,29.87,ENE,62,0.0,0.0,54,0.00,,,0.00,0.00,VWS V14.01,2013-03-11 07:50:00,
2013-03-11 03:51:00,46.7,31.0,29.87,ENE,62,0.0,0.0,54,0.00,,,0.00,0.00,VWS V14.01,2013-03-11 07:51:00,
2013-03-11 03:52:00,46.7,31.0,29.87,ENE,62,0.0,0.0,54,0.00,,,0.00,0.00,VWS V14.01,2013-03-11 07:52:00,
2013-03-11 03:53:00,46.5,30.8,29.87,ENE,62,0.0,0.0,54,0.00,,,0.00,0.00,VWS V14.01,2013-03-11 07:53:00,
2013-03-11 03:54:00,46.5,30.8,29.87,ENE,62,0.0,0.0,54,0.00,,,0.00,0.00,VWS V14.01,2013-03-11 07:54:00,
2013-03-11 03:55:00,46.5,30.8,29.87,ENE,62,0.0,0.0,54,0.00,,,0.00,0.00,VWS V14.01,2013-03-11 07:55:00,
2013-03-11 03:56:00,46.5,30.8,29.87,ENE,62,0.0,0.0,54,0.00,,,0.00,0.00,VWS V14.01,2013-03-11 07:56:00,
2013-03-11 03:57:00,46.5,30.8,29.87,ENE,62,0.0,0.0,54,0.00,,,0.00,0.00,VWS V14.01,2013-03-11 07:57:00,
2013-03-11 03:58:00,46.5,30.8,29.87,ENE,64,0.0,0.0,54,0.00,,,0.00,0.00,VWS V14.01,2013-03-11 07:58:00,
2013-03-11 03:59:00,46.5,30.8,29.87,ENE,62,0.0,0.0,54,0.00,,,0.00,0.00,VWS V14.01,2013-03-11 07:59:00,
2013-03-11 04:00:00,46.5,30.8,29.86,ENE,62,0.0,0.0,54,0.00,,,0.00,0.00,VWS V14.01,2013-03-11 08:00:00,
2013-03-11 04:01:00,46.5,30.8,29.86,ENE,62,0.0,0.0,54,0.00,,,0.00,0.00,VWS V14.01,2013-03-11 08:01:00,
2013-03-11 04:02:00,46.5,30.8,29.86,ENE,62,0.0,0.0,54,0.00,,,0.00,0.00,VWS V14.01,2013-03-11 08:02:00,
2013-03-11 04:03:00,46.5,30.8,29.87,ENE,64,0.0,0.0,54,0.00,,,0.00,0.00,VWS V14.01,2013-03-11 08:03:00,
2013-03-11 04:04:00,46.5,30.8,29.86,ENE,62,0.0,0.0,54,0.00,,,0.00,0.00,VWS V14.01,2013-03-11 08:04:00,
2013-03-11 04:05:00,46.5,30.8,29.86,ENE,62,0.0,0.0,54,0.00,,,0.00,0.00,VWS V14.01,2013-03-11 08:05:00,
2013-03-11 04:06:00,46.5,30.8,29.86,ENE,62,0.0,0.0,54,0.00,,,0.00,0.00,VWS V14.01,2013-03-11 08:06:00,
2013-03-11 04:07:00,46.5,30.8,29.86,ENE,62,0.0,0.0,54,0.00,,,0.00,0.00,VWS V14.01,2013-03-11 08:07:00,
2013-03-11 04:08:00,46.5,30.8,29.86,ENE,62,0.0,0.0,54,0.00,,,0.00,0.00,VWS V14.01,2013-03-11 08:08:00,
2013-03-11 04:09:00,46.5,30.8,29.86,ENE,62,0.0,0.0,54,0.00,,,0.00,0.00,VWS V14.01,2013-03-11 08:09:00,
2013-03-11 04:10:00,46.5,30.8,29.86,ENE,62,0.0,0.0,54,0.00,,,0.00,0.00,VWS V14.01,2013-03-11 08:10:00,
2013-03-11 04:11:00,46.5,30.8,29.86,ENE,62,0.0,0.0,54,0.00,,,0.00,0.00,VWS V14.01,2013-03-11 08:11:00,
2013-03-11 04:12:00,46.5,30.8,29.86,ENE,62,0.0,0.0,54,0.00,,,0.00,0.00,VWS V14.01,2013-03-11 08:12:00,
2013-03-11 04:13:00,46.4,30.7,29.86,ENE,62,0.0,0.0,54,0.00,,,0.00,0.00,VWS V14.01,2013-03-11 08:13:00,
2013-03-11 04:14:00,46.5,30.8,29.86,ENE,62,0.0,0.0,54,0.00,,,0.00,0.00,VWS V14.01,2013-03-11 08:14:00,
2013-03-11 04:15:00,46.4,30.7,29.85,ENE,62,0.0,0.0,54,0.00,,,0.00,0.00,VWS V14.01,2013-03-11 08:15:00,
2013-03-11 04:16:00,46.4,30.7,29.85,NE,44,0.0,0.0,54,0.00,,,0.00,0.00,VWS V14.01,2013-03-11 08:16:00,
2013-03-11 04:17:00,46.4,30.7,29.85,East,99,0.0,0.0,54,0.00,,,0.00,0.00,VWS V14.01,2013-03-11 08:17:00,
2013-03-11 04:18:00,46.4,30.7,29.85,ENE,75,0.0,0.0,54,0.00,,,0.00,0.00,VWS V14.01,2013-03-11 08:18:00,
2013-03-11 04:19:00,46.4,30.2,29.85,SE,131,0.0,0.0,53,0.00,,,0.00,0.00,VWS V14.01,2013-03-11 08:19:00,
2013-03-11 04:20:00,46.4,30.7,29.85,ENE,62,0.0,0.0,54,0.00,,,0.00,0.00,VWS V14.01,2013-03-11 08:20:00,
2013-03-11 04:21:00,46.4,30.2,29.85,SE,133,0.0,0.0,53,0.00,,,0.00,0.00,VWS V14.01,2013-03-11 08:21:00,
2013-03-11 04:22:00,46.4,30.2,29.85,SE,138,0.0,0.0,53,0.00,,,0.00,0.00,VWS V14.01,2013-03-11 08:22:00,
2013-03-11 04:23:00,46.4,30.2,29.85,SE,144,0.0,0.0,53,0.00,,,0.00,0.00,VWS V14.01,2013-03-11 08:23:00,
2013-03-11 04:24:00,46.4,29.8,29.85,ESE,123,0.0,0.0,52,0.00,,,0.00,0.00,VWS V14.01,2013-03-11 08:24:00,
2013-03-11 04:25:00,46.4,30.2,29.85,ESE,120,0.0,0.0,53,0.00,,,0.00,0.00,VWS V14.01,2013-03-11 08:25:00,
2013-03-11 04:26:00,46.5,29.8,29.85,SE,126,0.0,0.0,52,0.00,,,0.00,0.00,VWS V14.01,2013-03-11 08:26:00,
2013-03-11 04:27:00,46.4,29.8,29.85,SE,144,0.0,0.0,52,0.00,,,0.00,0.00,VWS V14.01,2013-03-11 08:27:00,
2013-03-11 04:28:00,46.5,29.8,29.85,SE,133,0.0,0.0,52,0.00,,,0.00,0.00,VWS V14.01,2013-03-11 08:28:00,
2013-03-11 04:29:00,46.4,29.8,29.85,SE,137,0.0,0.0,52,0.00,,,0.00,0.00,VWS V14.01,2013-03-11 08:29:00,
2013-03-11 04:30:00,46.4,29.8,29.85,SE,131,0.0,0.0,52,0.00,,,0.00,0.00,VWS V14.01,2013-03-11 08:30:00,
2013-03-11 04:31:00,46.4,29.8,29.85,SE,143,0.0,0.0,52,0.00,,,0.00,0.00,VWS V14.01,2013-03-11 08:31:00,
2013-03-11 04:32:00,46.4,29.8,29.85,SSE,155,0.0,0.0,52,0.00,,,0.00,0.00,VWS V14.01,2013-03-11 08:32:00,
2013-03-11 04:33:00,46.4,29.8,29.85,SE,133,0.0,0.0,52,0.00,,,0.00,0.00,VWS V14.01,2013-03-11 08:33:00,
2013-03-11 04:34:00,46.4,29.8,29.85,SE,131,0.0,0.0,52,0.00,,,0.00,0.00,VWS V14.01,2013-03-11 08:34:00,
2013-03-11 04:35:00,46.4,29.8,29.85,SE,130,0.0,0.0,52,0.00,,,0.00,0.00,VWS V14.01,2013-03-11 08:35:00,
2013-03-11 04:36:00,46.4,29.8,29.85,SE,143,0.0,0.0,52,0.00,,,0.00,0.00,VWS V14.01,2013-03-11 08:36:00,
2013-03-11 04:37:00,46.2,29.6,29.85,SE,136,0.0,0.0,52,0.00,,,0.00,0.00,VWS V14.01,2013-03-11 08:37:00,
2013-03-11 04:38:00,46.2,29.6,29.85,SE,137,0.0,0.0,52,0.00,,,0.00,0.00,VWS V14.01,2013-03-11 08:38:00,
2013-03-11 04:39:00,46.2,29.6,29.85,SE,137,0.0,0.0,52,0.00,,,0.00,0.00,VWS V14.01,2013-03-11 08:39:00,
2013-03-11 04:40:00,46.2,29.6,29.85,SE,137,0.0,0.0,52,0.00,,,0.00,0.00,VWS V14.01,2013-03-11 08:40:00,
2013-03-11 04:41:00,46.1,29.5,29.85,SE,137,0.0,0.0,52,0.00,,,0.00,0.00,VWS V14.01,2013-03-11 08:41:00,
2013-03-11 04:42:00,46.2,29.6,29.85,SE,136,0.0,0.0,52,0.00,,,0.00,0.00,VWS V14.01,2013-03-11 08:42:00,
2013-03-11 04:43:00,46.1,29.5,29.85,SE,137,0.0,0.0,52,0.00,,,0.00,0.00,VWS V14.01,2013-03-11 08:43:00,
2013-03-11 04:44:00,46.0,29.4,29.85,SE,137,0.0,0.0,52,0.00,,,0.00,0.00,VWS V14.01,2013-03-11 08:44:00,
2013-03-11 04:45:00,46.0,29.4,29.85,SE,140,0.0,0.0,52,0.00,,,0.00,0.00,VWS V14.01,2013-03-11 08:45:00,
2013-03-11 04:46:00,46.0,29.4,29.85,SE,138,0.0,0.0,52,0.00,,,0.00,0.00,VWS V14.01,2013-03-11 08:46:00,
2013-03-11 04:47:00,46.1,29.5,29.85,SE,137,0.0,0.0,52,0.00,,,0.00,0.00,VWS V14.01,2013-03-11 08:47:00,
2013-03-11 04:48:00,45.8,28.7,29.85,SE,138,0.0,0.0,51,0.00,,,0.00,0.00,VWS V14.01,2013-03-11 08:48:00,
2013-03-11 04:49:00,45.8,28.7,29.85,SE,136,0.0,0.0,51,0.00,,,0.00,0.00,VWS V14.01,2013-03-11 08:49:00,
2013-03-11 04:50:00,45.8,28.7,29.85,SE,134,0.0,0.0,51,0.00,,,0.00,0.00,VWS V14.01,2013-03-11 08:50:00,
2013-03-11 04:51:00,45.8,28.7,29.85,SE,134,0.0,0.0,51,0.00,,,0.00,0.00,VWS V14.01,2013-03-11 08:51:00,
2013-03-11 04:52:00,46.0,29.4,29.85,SE,138,0.0,0.0,52,0.00,,,0.00,0.00,VWS V14.01,2013-03-11 08:52:00,
2013-03-11 04:53:00,45.8,28.7,29.85,SE,134,0.0,0.0,51,0.00,,,0.00,0.00,VWS V14.01,2013-03-11 08:53:00,
2013-03-11 04:54:00,45.7,29.1,29.85,SE,134,0.0,0.0,52,0.00,,,0.00,0.00,VWS V14.01,2013-03-11 08:54:00,
2013-03-11 04:55:00,45.7,29.1,29.85,ESE,121,0.0,0.0,52,0.00,,,0.00,0.00,VWS V14.01,2013-03-11 08:55:00,
2013-03-11 04:56:00,45.7,29.1,29.85,ESE,121,0.0,0.0,52,0.00,,,0.00,0.00,VWS V14.01,2013-03-11 08:56:00,
2013-03-11 04:57:00,45.7,29.1,29.85,ESE,121,0.0,0.0,52,0.00,,,0.00,0.00,VWS V14.01,2013-03-11 08:57:00,
2013-03-11 04:58:00,45.8,28.7,29.85,SE,134,0.0,0.0,51,0.00,,,0.00,0.00,VWS V14.01,2013-03-11 08:58:00,
2013-03-11 04:59:00,45.7,29.6,29.85,ESE,121,0.0,0.0,53,0.00,,,0.00,0.00,VWS V14.01,2013-03-11 08:59:00,
2013-03-11 05:00:00,45.7,29.6,29.83,ESE,121,0.0,0.0,53,0.00,,,0.00,0.00,VWS V14.01,2013-03-11 09:00:00,
2013-03-11 05:01:00,45.5,29.4,29.83,ESE,121,0.0,0.0,53,0.00,,,0.00,0.00,VWS V14.01,2013-03-11 09:01:00,
2013-03-11 05:02:00,45.5,29.4,29.83,ESE,121,0.0,0.0,53,0.00,,,0.00,0.00,VWS V14.01,2013-03-11 09:02:00,
2013-03-11 05:03:00,45.7,29.6,29.85,ESE,121,0.0,0.0,53,0.00,,,0.00,0.00,VWS V14.01,2013-03-11 09:03:00,
2013-03-11 05:04:00,45.5,28.9,29.83,ESE,121,0.0,0.0,52,0.00,,,0.00,0.00,VWS V14.01,2013-03-11 09:04:00,
2013-03-11 05:05:00,45.5,28.4,29.83,ESE,121,0.0,0.0,51,0.00,,,0.00,0.00,VWS V14.01,2013-03-11 09:05:00,
2013-03-11 05:06:00,45.5,28.9,29.83,ESE,121,0.0,0.0,52,0.00,,,0.00,0.00,VWS V14.01,2013-03-11 09:06:00,
2013-03-11 05:07:00,45.5,28.4,29.83,ESE,121,0.0,0.0,51,0.00,,,0.00,0.00,VWS V14.01,2013-03-11 09:07:00,
2013-03-11 05:08:00,45.5,28.9,29.83,ESE,121,0.0,0.0,52,0.00,,,0.00,0.00,VWS V14.01,2013-03-11 09:08:00,
2013-03-11 05:09:00,45.5,28.4,29.83,ESE,121,0.0,0.0,51,0.00,,,0.00,0.00,VWS V14.01,2013-03-11 09:09:00,
2013-03-11 05:10:00,45.5,28.4,29.83,ESE,121,0.0,0.0,51,0.00,,,0.00,0.00,VWS V14.01,2013-03-11 09:10:00,
2013-03-11 05:11:00,45.5,28.4,29.83,ESE,121,0.0,0.0,51,0.00,,,0.00,0.00,VWS V14.01,2013-03-11 09:11:00,
2013-03-11 05:12:00,45.5,28.4,29.83,ESE,121,0.0,0.0,51,0.00,,,0.00,0.00,VWS V14.01,2013-03-11 09:12:00,
2013-03-11 05:13:00,45.5,28.4,29.83,ESE,121,0.0,0.0,51,0.00,,,0.00,0.00,VWS V14.01,2013-03-11 09:13:00,
2013-03-11 05:14:00,45.5,28.4,29.83,ESE,121,0.0,0.0,51,0.00,,,0.00,0.00,VWS V14.01,2013-03-11 09:14:00,
2013-03-11 05:15:00,45.5,28.4,29.84,ESE,121,0.0,0.0,51,0.00,,,0.00,0.00,VWS V14.01,2013-03-11 09:15:00,
2013-03-11 05:16:00,45.5,28.4,29.84,ESE,114,0.0,0.0,51,0.00,,,0.00,0.00,VWS V14.01,2013-03-11 09:16:00,
2013-03-11 05:17:00,45.5,28.4,29.84,ESE,121,0.0,0.0,51,0.00,,,0.00,0.00,VWS V14.01,2013-03-11 09:17:00,
2013-03-11 05:18:00,45.5,28.4,29.84,ESE,121,0.0,0.0,51,0.00,,,0.00,0.00,VWS V14.01,2013-03-11 09:18:00,
2013-03-11 05:19:00,45.5,28.4,29.83,ESE,121,0.0,0.0,51,0.00,,,0.00,0.00,VWS V14.01,2013-03-11 09:19:00,
2013-03-11 05:20:00,45.5,28.4,29.84,ESE,121,0.0,0.0,51,0.00,,,0.00,0.00,VWS V14.01,2013-03-11 09:20:00,
2013-03-11 05:21:00,45.5,28.0,29.84,ESE,121,0.0,0.0,50,0.00,,,0.00,0.00,VWS V14.01,2013-03-11 09:21:00,
2013-03-11 05:22:00,45.5,28.0,29.84,ESE,121,0.0,0.0,50,0.00,,,0.00,0.00,VWS V14.01,2013-03-11 09:22:00,
2013-03-11 05:23:00,45.5,28.0,29.84,ESE,121,0.0,0.0,50,0.00,,,0.00,0.00,VWS V14.01,2013-03-11 09:23:00,
2013-03-11 05:24:00,45.5,28.4,29.84,ESE,121,0.0,0.0,51,0.00,,,0.00,0.00,VWS V14.01,2013-03-11 09:24:00,
2013-03-11 05:25:00,45.5,28.0,29.84,ESE,121,0.0,0.0,50,0.00,,,0.00,0.00,VWS V14.01,2013-03-11 09:25:00,
2013-03-11 05:26:00,45.5,28.0,29.84,ESE,121,0.0,0.0,50,0.00,,,0.00,0.00,VWS V14.01,2013-03-11 09:26:00,
2013-03-11 05:27:00,45.5,28.0,29.84,ESE,121,0.0,0.0,50,0.00,,,0.00,0.00,VWS V14.01,2013-03-11 09:27:00,
2013-03-11 05:28:00,45.5,28.0,29.84,ESE,121,0.0,0.0,50,0.00,,,0.00,0.00,VWS V14.01,2013-03-11 09:28:00,
2013-03-11 05:30:00,45.5,28.0,29.84,ESE,121,0.0,0.0,50,0.00,,,0.00,0.00,VWS V14.01,2013-03-11 09:30:00,
2013-03-11 05:34:00,45.5,28.0,29.84,ESE,121,0.0,0.0,50,0.00,,,0.00,0.00,VWS V14.01,2013-03-11 09:34:00,
2013-03-11 05:35:00,45.5,27.5,29.84,ESE,121,0.0,0.0,49,0.00,,,0.00,0.00,VWS V14.01,2013-03-11 09:35:00,
2013-03-11 05:36:00,45.5,27.0,29.84,ESE,121,0.0,0.0,48,0.00,,,0.00,0.00,VWS V14.01,2013-03-11 09:36:00,
2013-03-11 05:37:00,45.5,27.0,29.84,ESE,121,0.0,0.0,48,0.00,,,0.00,0.00,VWS V14.01,2013-03-11 09:37:00,
2013-03-11 05:38:00,45.5,27.0,29.84,ESE,121,0.0,0.0,48,0.00,,,0.00,0.00,VWS V14.01,2013-03-11 09:38:00,
2013-03-11 05:39:00,45.5,28.0,29.84,ESE,121,0.0,0.0,50,0.00,,,0.00,0.00,VWS V14.01,2013-03-11 09:39:00,
2013-03-11 05:40:00,45.5,27.0,29.84,ESE,121,0.0,0.0,48,0.00,,,0.00,0.00,VWS V14.01,2013-03-11 09:40:00,
2013-03-11 05:41:00,45.5,27.0,29.84,ESE,121,0.0,0.0,48,0.00,,,0.00,0.00,VWS V14.01,2013-03-11 09:41:00,
2013-03-11 05:42:00,45.5,27.0,29.84,ESE,121,0.0,0.0,48,0.00,,,0.00,0.00,VWS V14.01,2013-03-11 09:42:00,
2013-03-11 05:43:00,45.5,27.0,29.84,ESE,121,0.0,0.0,48,0.00,,,0.00,0.00,VWS V14.01,2013-03-11 09:43:00,
2013-03-11 05:44:00,45.4,26.9,29.84,ESE,121,0.0,0.0,48,0.00,,,0.00,0.00,VWS V14.01,2013-03-11 09:44:00,
2013-03-11 05:45:00,45.5,27.0,29.84,ESE,121,0.0,0.0,48,0.00,,,0.00,0.00,VWS V14.01,2013-03-11 09:45:00,
2013-03-11 05:46:00,45.4,26.9,29.85,ESE,121,0.0,0.0,48,0.00,,,0.00,0.00,VWS V14.01,2013-03-11 09:46:00,
2013-03-11 05:47:00,45.4,26.9,29.85,ESE,121,0.0,0.0,48,0.00,,,0.00,0.00,VWS V14.01,2013-03-11 09:47:00,
2013-03-11 05:48:00,45.4,26.9,29.85,ESE,121,0.0,0.0,48,0.00,,,0.00,0.00,VWS V14.01,2013-03-11 09:48:00,
2013-03-11 05:49:00,45.4,26.9,29.85,ESE,121,0.0,0.0,48,0.00,,,0.00,0.00,VWS V14.01,2013-03-11 09:49:00,
2013-03-11 05:50:00,45.4,26.9,29.85,ESE,121,0.0,0.0,48,0.00,,,0.00,0.00,VWS V14.01,2013-03-11 09:50:00,
2013-03-11 05:51:00,45.4,26.9,29.85,ESE,121,0.0,0.0,48,0.00,,,0.00,0.00,VWS V14.01,2013-03-11 09:51:00,
2013-03-11 05:52:00,45.4,26.9,29.85,ESE,121,0.0,0.0,48,0.00,,,0.00,0.00,VWS V14.01,2013-03-11 09:52:00,
2013-03-11 05:53:00,45.4,26.9,29.85,ESE,121,0.0,0.0,48,0.00,,,0.00,0.00,VWS V14.01,2013-03-11 09:53:00,
2013-03-11 05:54:00,45.4,26.9,29.85,ESE,123,0.0,0.0,48,0.00,,,0.00,0.00,VWS V14.01,2013-03-11 09:54:00,
2013-03-11 05:55:00,45.4,26.9,29.85,ESE,121,0.0,0.0,48,0.00,,,0.00,0.00,VWS V14.01,2013-03-11 09:55:00,
2013-03-11 05:56:00,45.4,26.9,29.85,ESE,121,0.0,0.0,48,0.00,,,0.00,0.00,VWS V14.01,2013-03-11 09:56:00,
2013-03-11 05:57:00,45.4,26.9,29.85,ESE,121,0.0,0.0,48,0.00,,,0.00,0.00,VWS V14.01,2013-03-11 09:57:00,
2013-03-11 05:58:00,45.4,26.9,29.85,ESE,121,0.0,0.0,48,0.00,,,0.00,0.00,VWS V14.01,2013-03-11 09:58:00,
2013-03-11 05:59:00,45.4,26.9,29.85,ESE,121,0.0,0.0,48,0.00,,,0.00,0.00,VWS V14.01,2013-03-11 09:59:00,
2013-03-11 06:00:00,45.4,26.9,29.86,ESE,121,0.0,0.0,48,0.00,,,0.00,0.00,VWS V14.01,2013-03-11 10:00:00,
2013-03-11 06:01:00,45.4,26.9,29.86,ESE,121,0.0,0.0,48,0.00,,,0.00,0.00,VWS V14.01,2013-03-11 10:01:00,
2013-03-11 06:02:00,45.4,26.9,29.85,ESE,121,0.0,0.0,48,0.00,,,0.00,0.00,VWS V14.01,2013-03-11 10:02:00,
2013-03-11 06:03:00,45.4,26.9,29.86,SE,130,0.0,0.0,48,0.00,,,0.00,0.00,VWS V14.01,2013-03-11 10:03:00,
2013-03-11 06:04:00,45.4,26.9,29.86,SE,130,0.0,0.0,48,0.00,,,0.00,0.00,VWS V14.01,2013-03-11 10:04:00,
2013-03-11 06:05:00,45.4,26.9,29.86,SE,133,0.0,0.0,48,0.00,,,0.00,0.00,VWS V14.01,2013-03-11 10:05:00,
2013-03-11 06:06:00,45.4,27.4,29.86,SE,136,0.0,0.0,49,0.00,,,0.00,0.00,VWS V14.01,2013-03-11 10:06:00,
2013-03-11 06:07:00,45.4,27.4,29.86,SE,136,0.0,0.0,49,0.00,,,0.00,0.00,VWS V14.01,2013-03-11 10:07:00,
2013-03-11 06:08:00,45.4,26.9,29.86,SE,130,0.0,0.0,48,0.00,,,0.00,0.00,VWS V14.01,2013-03-11 10:08:00,
2013-03-11 06:09:00,45.2,27.2,29.86,SSE,147,0.0,0.0,49,0.00,,,0.00,0.00,VWS V14.01,2013-03-11 10:09:00,
2013-03-11 06:10:00,45.4,27.4,29.86,SSE,147,0.0,0.0,49,0.00,,,0.00,0.00,VWS V14.01,2013-03-11 10:10:00,
2013-03-11 06:11:00,45.4,27.4,29.86,SSE,147,0.0,0.0,49,0.00,,,0.00,0.00,VWS V14.01,2013-03-11 10:11:00,
2013-03-11 06:12:00,45.4,27.4,29.86,SSE,147,0.0,0.0,49,0.00,,,0.00,0.00,VWS V14.01,2013-03-11 10:12:00,
2013-03-11 06:13:00,45.4,27.4,29.86,SSE,147,0.0,0.0,49,0.00,,,0.00,0.00,VWS V14.01,2013-03-11 10:13:00,
2013-03-11 06:14:00,45.4,27.4,29.86,SSE,147,0.0,0.0,49,0.00,,,0.00,0.00,VWS V14.01,2013-03-11 10:14:00,
2013-03-11 06:15:00,45.4,27.4,29.85,SSE,147,0.0,0.0,49,0.00,,,0.00,0.00,VWS V14.01,2013-03-11 10:15:00,
2013-03-11 06:16:00,45.4,27.4,29.85,SSE,147,0.0,0.0,49,0.00,,,0.00,0.00,VWS V14.01,2013-03-11 10:16:00,
2013-03-11 06:17:00,45.4,27.4,29.85,SSE,147,0.0,0.0,49,0.00,,,0.00,0.00,VWS V14.01,2013-03-11 10:17:00,
2013-03-11 06:18:00,45.4,27.4,29.86,SSE,147,0.0,0.0,49,0.00,,,0.00,0.00,VWS V14.01,2013-03-11 10:18:00,
2013-03-11 06:19:00,45.4,27.4,29.85,SSE,147,0.0,0.0,49,0.00,,,0.00,0.00,VWS V14.01,2013-03-11 10:19:00,
2013-03-11 06:20:00,45.4,27.4,29.85,SSE,147,0.0,0.0,49,0.00,,,0.00,0.00,VWS V14.01,2013-03-11 10:20:00,
2013-03-11 06:21:00,45.5,27.5,29.85,SSE,147,0.0,0.0,49,0.00,,,0.00,0.00,VWS V14.01,2013-03-11 10:21:00,
2013-03-11 06:22:00,45.5,27.5,29.85,SSE,147,0.0,0.0,49,0.00,,,0.00,0.00,VWS V14.01,2013-03-11 10:22:00,
2013-03-11 06:23:00,45.4,27.4,29.85,SSE,147,0.0,0.0,49,0.00,,,0.00,0.00,VWS V14.01,2013-03-11 10:23:00,
2013-03-11 06:24:00,45.5,27.5,29.85,ESE,104,0.0,0.0,49,0.00,,,0.00,0.00,VWS V14.01,2013-03-11 10:24:00,
2013-03-11 06:25:00,45.5,28.0,29.85,ESE,109,0.0,0.0,50,0.00,,,0.00,0.00,VWS V14.01,2013-03-11 10:25:00,
2013-03-11 06:26:00,45.5,28.0,29.85,ESE,112,0.0,0.0,50,0.00,,,0.00,0.00,VWS V14.01,2013-03-11 10:26:00,
2013-03-11 06:27:00,45.5,28.0,29.85,ESE,112,0.0,0.0,50,0.00,,,0.00,0.00,VWS V14.01,2013-03-11 10:27:00,
2013-03-11 06:28:00,45.5,28.4,29.85,ESE,112,0.0,0.0,51,0.00,,,0.00,0.00,VWS V14.01,2013-03-11 10:28:00,
2013-03-11 06:29:00,45.5,27.5,29.85,ESE,104,0.0,0.0,49,0.00,,,0.00,0.00,VWS V14.01,2013-03-11 10:29:00,
2013-03-11 06:30:00,45.5,28.9,29.84,ESE,112,0.0,0.0,52,0.00,,,0.00,0.00,VWS V14.01,2013-03-11 10:30:00,
2013-03-11 06:31:00,45.5,28.4,29.84,ESE,112,0.0,0.0,51,0.00,,,0.00,0.00,VWS V14.01,2013-03-11 10:31:00,
2013-03-11 06:32:00,45.5,28.9,29.84,ESE,112,0.0,0.0,52,0.00,,,0.00,0.00,VWS V14.01,2013-03-11 10:32:00,
2013-03-11 06:33:00,45.5,28.9,29.84,ESE,112,0.0,0.0,52,0.00,,,0.00,0.00,VWS V14.01,2013-03-11 10:33:00,
2013-03-11 06:34:00,45.5,28.9,29.84,ESE,112,0.0,0.0,52,0.00,,,0.00,0.00,VWS V14.01,2013-03-11 10:34:00,
2013-03-11 06:35:00,45.5,28.9,29.84,ESE,112,0.0,0.0,52,0.00,,,0.00,0.00,VWS V14.01,2013-03-11 10:35:00,
2013-03-11 06:36:00,45.5,28.9,29.84,ESE,112,0.0,0.0,52,0.00,,,0.00,0.00,VWS V14.01,2013-03-11 10:36:00,
2013-03-11 06:37:00,45.4,28.8,29.84,ESE,112,0.0,0.0,52,0.00,,,0.00,0.00,VWS V14.01,2013-03-11 10:37:00,
2013-03-11 06:38:00,45.4,28.8,29.84,ESE,112,0.0,0.0,52,0.00,,,0.00,0.00,VWS V14.01,2013-03-11 10:38:00,
2013-03-11 06:39:00,45.5,28.9,29.84,ESE,121,0.0,0.0,52,0.00,,,0.00,0.00,VWS V14.01,2013-03-11 10:39:00,
2013-03-11 06:40:00,45.5,28.9,29.84,ESE,112,0.0,0.0,52,0.00,,,0.00,0.00,VWS V14.01,2013-03-11 10:40:00,
2013-03-11 06:41:00,45.7,30.5,29.84,SSE,157,0.0,0.0,55,0.00,,,0.00,0.00,VWS V14.01,2013-03-11 10:41:00,
2013-03-11 06:42:00,45.7,30.0,29.84,SSE,157,0.0,0.0,54,0.00,,,0.00,0.00,VWS V14.01,2013-03-11 10:42:00,
2013-03-11 06:43:00,45.7,29.6,29.84,SSE,157,0.0,0.0,53,0.00,,,0.00,0.00,VWS V14.01,2013-03-11 10:43:00,
2013-03-11 06:44:00,45.7,29.6,29.84,SSE,157,0.0,0.0,53,0.00,,,0.00,0.00,VWS V14.01,2013-03-11 10:44:00,
2013-03-11 06:45:00,45.7,29.1,29.84,SSE,157,0.0,0.0,52,0.00,,,0.00,0.00,VWS V14.01,2013-03-11 10:45:00,
2013-03-11 06:46:00,45.7,30.5,29.84,SSE,157,0.0,0.0,55,0.00,,,0.00,0.00,VWS V14.01,2013-03-11 10:46:00,
2013-03-11 06:47:00,45.7,29.6,29.84,SSE,157,0.0,0.0,53,0.00,,,0.00,0.00,VWS V14.01,2013-03-11 10:47:00,
2013-03-11 06:48:00,45.7,29.6,29.84,SSE,157,0.0,0.0,53,0.00,,,0.00,0.00,VWS V14.01,2013-03-11 10:48:00,
2013-03-11 06:49:00,45.7,29.6,29.84,SSE,157,0.0,0.0,53,0.00,,,0.00,0.00,VWS V14.01,2013-03-11 10:49:00,
2013-03-11 06:50:00,45.7,29.6,29.84,SSE,157,0.0,0.0,53,0.00,,,0.00,0.00,VWS V14.01,2013-03-11 10:50:00,
2013-03-11 06:51:00,45.7,29.6,29.84,SSE,157,0.0,0.0,53,0.00,,,0.00,0.00,VWS V14.01,2013-03-11 10:51:00,
2013-03-11 06:52:00,45.7,29.6,29.84,SSE,157,0.0,0.0,53,0.00,,,0.00,0.00,VWS V14.01,2013-03-11 10:52:00,
2013-03-11 06:53:00,45.7,29.6,29.84,SSE,157,0.0,0.0,53,0.00,,,0.00,0.00,VWS V14.01,2013-03-11 10:53:00,
2013-03-11 06:54:00,45.7,29.1,29.84,SSE,157,0.0,0.0,52,0.00,,,0.00,0.00,VWS V14.01,2013-03-11 10:54:00,
2013-03-11 06:55:00,45.5,28.9,29.84,SSE,157,0.0,0.0,52,0.00,,,0.00,0.00,VWS V14.01,2013-03-11 10:55:00,
2013-03-11 06:56:00,45.5,29.4,29.84,SSE,157,0.0,0.0,53,0.00,,,0.00,0.00,VWS V14.01,2013-03-11 10:56:00,
2013-03-11 06:57:00,45.7,29.6,29.84,SSE,157,0.0,0.0,53,0.00,,,0.00,0.00,VWS V14.01,2013-03-11 10:57:00,
2013-03-11 06:58:00,45.5,29.4,29.84,SSE,157,0.0,0.0,53,0.00,,,0.00,0.00,VWS V14.01,2013-03-11 10:58:00,
2013-03-11 06:59:00,45.5,29.4,29.84,SSE,157,0.0,0.0,53,0.00,,,0.00,0.00,VWS V14.01,2013-03-11 10:59:00,
2013-03-11 07:00:00,45.5,28.9,29.84,SSE,157,0.0,0.0,52,0.00,,,0.00,0.00,VWS V14.01,2013-03-11 11:00:00,
2013-03-11 07:01:00,45.5,28.9,29.84,SSE,157,0.0,0.0,52,0.00,,,0.00,0.00,VWS V14.01,2013-03-11 11:01:00,
2013-03-11 07:02:00,45.5,28.9,29.84,SSE,157,0.0,0.0,52,0.00,,,0.00,0.00,VWS V14.01,2013-03-11 11:02:00,
2013-03-11 07:03:00,45.5,29.4,29.84,SSE,157,0.0,0.0,53,0.00,,,0.00,0.00,VWS V14.01,2013-03-11 11:03:00,
2013-03-11 07:04:00,45.5,29.4,29.84,SSE,157,0.0,0.0,53,0.00,,,0.00,0.00,VWS V14.01,2013-03-11 11:04:00,
2013-03-11 07:05:00,45.5,29.4,29.84,SSE,157,0.0,0.0,53,0.00,,,0.00,0.00,VWS V14.01,2013-03-11 11:05:00,
2013-03-11 07:06:00,45.5,29.4,29.84,SSE,157,0.0,0.0,53,0.00,,,0.00,0.00,VWS V14.01,2013-03-11 11:06:00,
2013-03-11 07:07:00,45.5,29.4,29.84,SSE,157,0.0,0.0,53,0.00,,,0.00,0.00,VWS V14.01,2013-03-11 11:07:00,
2013-03-11 07:08:00,45.5,29.4,29.84,SSE,155,0.0,0.0,53,0.00,,,0.00,0.00,VWS V14.01,2013-03-11 11:08:00,
2013-03-11 07:09:00,45.5,29.4,29.84,SSE,157,0.0,0.0,53,0.00,,,0.00,0.00,VWS V14.01,2013-03-11 11:09:00,
2013-03-11 07:10:00,45.5,29.4,29.84,SSE,157,0.0,0.0,53,0.00,,,0.00,0.00,VWS V14.01,2013-03-11 11:10:00,
2013-03-11 07:11:00,45.5,29.8,29.84,SSE,157,0.0,0.0,54,0.00,,,0.00,0.00,VWS V14.01,2013-03-11 11:11:00,
2013-03-11 07:12:00,45.5,29.4,29.84,SSE,157,0.0,0.0,53,0.00,,,0.00,0.00,VWS V14.01,2013-03-11 11:12:00,
2013-03-11 07:13:00,45.5,29.8,29.84,SSE,157,0.0,0.0,54,0.00,,,0.00,0.00,VWS V14.01,2013-03-11 11:13:00,
2013-03-11 07:14:00,45.5,29.4,29.84,SSE,157,0.0,0.0,53,0.00,,,0.00,0.00,VWS V14.01,2013-03-11 11:14:00,
2013-03-11 07:15:00,45.5,31.2,29.85,SSE,161,0.0,0.0,57,0.00,,,0.00,0.00,VWS V14.01,2013-03-11 11:15:00,
2013-03-11 07:16:00,45.7,31.4,29.85,SSE,162,0.0,0.0,57,0.00,,,0.00,0.00,VWS V14.01,2013-03-11 11:16:00,
2013-03-11 07:17:00,45.7,31.8,29.85,SSE,162,0.0,0.0,58,0.00,,,0.00,0.00,VWS V14.01,2013-03-11 11:17:00,
2013-03-11 07:18:00,45.7,31.8,29.85,SSE,164,0.0,0.0,58,0.00,,,0.00,0.00,VWS V14.01,2013-03-11 11:18:00,
2013-03-11 07:19:00,45.7,31.8,29.85,SSE,164,0.0,0.0,58,0.00,,,0.00,0.00,VWS V14.01,2013-03-11 11:19:00,
2013-03-11 07:20:00,45.5,31.2,29.85,SSE,161,0.0,0.0,57,0.00,,,0.00,0.00,VWS V14.01,2013-03-11 11:20:00,
2013-03-11 07:21:00,45.7,31.8,29.85,SSE,164,0.0,0.0,58,0.00,,,0.00,0.00,VWS V14.01,2013-03-11 11:21:00,
2013-03-11 07:22:00,45.5,31.6,29.85,SSE,164,0.0,0.0,58,0.00,,,0.00,0.00,VWS V14.01,2013-03-11 11:22:00,
2013-03-11 07:23:00,45.5,31.6,29.85,SSE,164,0.0,0.0,58,0.00,,,0.00,0.00,VWS V14.01,2013-03-11 11:23:00,
2013-03-11 07:24:00,45.5,31.6,29.85,SSE,164,0.0,0.0,58,0.00,,,0.00,0.00,VWS V14.01,2013-03-11 11:24:00,
2013-03-11 07:25:00,45.5,30.7,29.85,SSE,164,0.0,0.0,56,0.00,,,0.00,0.00,VWS V14.01,2013-03-11 11:25:00,
2013-03-11 07:26:00,45.7,31.8,29.85,SSE,164,0.0,0.0,58,0.00,,,0.00,0.00,VWS V14.01,2013-03-11 11:26:00,
2013-03-11 07:27:00,45.5,30.7,29.85,SSE,162,0.0,0.0,56,0.00,,,0.00,0.00,VWS V14.01,2013-03-11 11:27:00,
2013-03-11 07:28:00,45.5,30.3,29.85,SSE,162,0.0,0.0,55,0.00,,,0.00,0.00,VWS V14.01,2013-03-11 11:28:00,
2013-03-11 07:29:00,45.5,30.3,29.85,SSE,162,0.0,0.0,55,0.00,,,0.00,0.00,VWS V14.01,2013-03-11 11:29:00,
2013-03-11 07:30:00,45.5,30.3,29.85,SSE,162,0.0,0.0,55,0.00,,,0.00,0.00,VWS V14.01,2013-03-11 11:30:00,
2013-03-11 07:31:00,45.5,31.2,29.85,SSE,162,0.0,0.0,57,0.00,,,0.00,0.00,VWS V14.01,2013-03-11 11:31:00,
2013-03-11 07:32:00,45.5,30.3,29.85,NNE,31,0.0,0.0,55,0.00,,,0.00,0.00,VWS V14.01,2013-03-11 11:32:00,
2013-03-11 07:33:00,45.5,30.3,29.85,NNE,31,0.0,0.0,55,0.00,,,0.00,0.00,VWS V14.01,2013-03-11 11:33:00,
2013-03-11 07:34:00,45.5,29.8,29.85,NNE,31,0.0,0.0,54,0.00,,,0.00,0.00,VWS V14.01,2013-03-11 11:34:00,
2013-03-11 07:35:00,45.5,29.8,29.85,NNE,31,0.0,0.0,54,0.00,,,0.00,0.00,VWS V14.01,2013-03-11 11:35:00,
2013-03-11 07:36:00,45.5,29.4,29.85,NNE,31,0.0,0.0,53,0.00,,,0.00,0.00,VWS V14.01,2013-03-11 11:36:00,
2013-03-11 07:37:00,45.5,30.3,29.85,NNE,31,0.0,0.0,55,0.00,,,0.00,0.00,VWS V14.01,2013-03-11 11:37:00,
2013-03-11 07:38:00,45.5,29.4,29.85,NNE,31,0.0,0.0,53,0.00,,,0.00,0.00,VWS V14.01,2013-03-11 11:38:00,
2013-03-11 07:39:00,45.5,28.9,29.85,NNE,31,0.0,0.0,52,0.00,,,0.00,0.00,VWS V14.01,2013-03-11 11:39:00,
2013-03-11 07:40:00,45.5,28.9,29.85,NNE,31,0.0,0.0,52,0.00,,,0.00,0.00,VWS V14.01,2013-03-11 11:40:00,
2013-03-11 07:41:00,45.5,28.9,29.85,NNE,31,0.0,0.0,52,0.00,,,0.00,0.00,VWS V14.01,2013-03-11 11:41:00,
2013-03-11 07:42:00,45.5,28.9,29.85,NNE,31,0.0,0.0,52,0.00,,,0.00,0.00,VWS V14.01,2013-03-11 11:42:00,
2013-03-11 07:43:00,45.5,29.4,29.85,NNE,31,0.0,0.0,53,0.00,,,0.00,0.00,VWS V14.01,2013-03-11 11:43:00,
2013-03-11 07:44:00,45.5,28.4,29.85,NNE,31,0.0,0.0,51,0.00,,,0.00,0.00,VWS V14.01,2013-03-11 11:44:00,
2013-03-11 07:45:00,45.5,28.4,29.84,NNE,31,0.0,0.0,51,0.00,,,0.00,0.00,VWS V14.01,2013-03-11 11:45:00,
2013-03-11 07:46:00,45.7,28.6,29.84,NNE,28,0.0,0.0,51,0.00,,,0.00,0.00,VWS V14.01,2013-03-11 11:46:00,
2013-03-11 07:47:00,45.7,28.6,29.84,NNE,31,0.0,0.0,51,0.00,,,0.00,0.00,VWS V14.01,2013-03-11 11:47:00,
2013-03-11 07:48:00,45.5,28.4,29.85,NNE,31,0.0,0.0,51,0.00,,,0.00,0.00,VWS V14.01,2013-03-11 11:48:00,
2013-03-11 07:49:00,45.7,28.6,29.84,NNE,31,0.0,0.0,51,0.00,,,0.00,0.00,VWS V14.01,2013-03-11 11:49:00,
2013-03-11 07:50:00,45.5,27.5,29.84,NNE,31,0.0,0.0,49,0.00,,,0.00,0.00,VWS V14.01,2013-03-11 11:50:00,
2013-03-11 07:51:00,45.5,27.0,29.84,NNE,31,0.0,0.0,48,0.00,,,0.00,0.00,VWS V14.01,2013-03-11 11:51:00,
2013-03-11 07:52:00,45.5,27.0,29.84,NNE,31,0.0,0.0,48,0.00,,,0.00,0.00,VWS V14.01,2013-03-11 11:52:00,
2013-03-11 07:53:00,45.7,28.6,29.84,NNE,31,0.0,0.0,51,0.00,,,0.00,0.00,VWS V14.01,2013-03-11 11:53:00,
2013-03-11 07:54:00,45.5,26.5,29.84,NNE,31,0.0,0.0,47,0.00,,,0.00,0.00,VWS V14.01,2013-03-11 11:54:00,
2013-03-11 07:55:00,45.5,25.9,29.84,NNE,31,0.0,0.0,46,0.00,,,0.00,0.00,VWS V14.01,2013-03-11 11:55:00,
2013-03-11 07:56:00,45.5,26.5,29.84,NNE,31,0.0,0.0,47,0.00,,,0.00,0.00,VWS V14.01,2013-03-11 11:56:00,
2013-03-11 07:57:00,45.5,26.5,29.84,NNE,31,0.0,0.0,47,0.00,,,0.00,0.00,VWS V14.01,2013-03-11 11:57:00,
2013-03-11 07:58:00,45.5,26.5,29.84,NNE,31,0.0,0.0,47,0.00,,,0.00,0.00,VWS V14.01,2013-03-11 11:58:00,
2013-03-11 07:59:00,45.5,26.5,29.84,NNE,31,0.0,0.0,47,0.00,,,0.00,5.00,VWS V14.01,2013-03-11 11:59:00,
2013-03-11 08:00:00,45.5,26.5,29.84,NNE,31,0.0,0.0,47,0.00,,,0.00,5.00,VWS V14.01,2013-03-11 12:00:00,
2013-03-11 08:01:00,45.5,25.9,29.84,NE,42,0.0,0.0,46,0.00,,,0.00,5.00,VWS V14.01,2013-03-11 12:01:00,
2013-03-11 08:02:00,45.5,25.9,29.84,NE,42,0.0,0.0,46,0.00,,,0.00,5.00,VWS V14.01,2013-03-11 12:02:00,
2013-03-11 08:03:00,45.5,25.9,29.84,NE,41,0.0,0.0,46,0.00,,,0.00,5.00,VWS V14.01,2013-03-11 12:03:00,
2013-03-11 08:04:00,45.5,26.5,29.84,NNE,31,0.0,0.0,47,0.00,,,0.00,5.00,VWS V14.01,2013-03-11 12:04:00,
2013-03-11 08:05:00,45.5,25.9,29.84,NNE,30,0.0,0.0,46,0.00,,,0.00,5.00,VWS V14.01,2013-03-11 12:05:00,
2013-03-11 08:06:00,45.5,26.5,29.84,NNE,30,0.0,0.0,47,0.00,,,0.00,5.00,VWS V14.01,2013-03-11 12:06:00,
2013-03-11 08:07:00,45.5,26.5,29.84,NNE,30,0.0,0.0,47,0.00,,,0.00,11.00,VWS V14.01,2013-03-11 12:07:00,
2013-03-11 08:08:00,45.5,26.5,29.84,NNE,27,0.0,0.0,47,0.00,,,0.00,11.00,VWS V14.01,2013-03-11 12:08:00,
2013-03-11 08:09:00,45.5,25.9,29.84,NE,40,0.0,0.0,46,0.00,,,0.00,5.00,VWS V14.01,2013-03-11 12:09:00,
2013-03-11 08:10:00,45.5,26.5,29.84,NNE,28,0.0,0.0,47,0.00,,,0.00,11.00,VWS V14.01,2013-03-11 12:10:00,
2013-03-11 08:11:00,45.5,26.5,29.84,NNE,28,0.0,0.0,47,0.00,,,0.00,12.00,VWS V14.01,2013-03-11 12:11:00,
2013-03-11 08:12:00,45.5,27.0,29.84,NNE,28,0.0,0.0,48,0.00,,,0.00,12.00,VWS V14.01,2013-03-11 12:12:00,
2013-03-11 08:13:00,45.5,27.0,29.84,NNE,28,0.0,0.0,48,0.00,,,0.00,12.00,VWS V14.01,2013-03-11 12:13:00,
2013-03-11 08:14:00,45.5,27.0,29.84,NNE,28,0.0,0.0,48,0.00,,,0.00,12.00,VWS V14.01,2013-03-11 12:14:00,
2013-03-11 08:15:00,45.5,26.5,29.84,NNE,28,0.0,0.0,47,0.00,,,0.00,11.00,VWS V14.01,2013-03-11 12:15:00,
2013-03-11 08:16:00,45.5,27.5,29.84,NNE,28,0.0,0.0,49,0.00,,,0.00,14.00,VWS V14.01,2013-03-11 12:16:00,
2013-03-11 08:17:00,45.7,28.1,29.84,NNE,28,0.0,0.0,50,0.00,,,0.00,14.00,VWS V14.01,2013-03-11 12:17:00,
2013-03-11 08:18:00,45.7,28.1,29.84,NNE,28,0.0,0.0,50,0.00,,,0.00,14.00,VWS V14.01,2013-03-11 12:18:00,
2013-03-11 08:19:00,45.7,28.1,29.84,NNE,28,0.0,0.0,50,0.00,,,0.00,14.00,VWS V14.01,2013-03-11 12:19:00,
2013-03-11 08:20:00,45.5,27.5,29.84,NNE,28,0.0,0.0,49,0.00,,,0.00,12.00,VWS V14.01,2013-03-11 12:20:00,
2013-03-11 08:21:00,45.7,28.6,29.84,NNE,31,0.0,0.0,51,0.00,,,0.00,21.00,VWS V14.01,2013-03-11 12:21:00,
2013-03-11 08:22:00,45.7,29.1,29.84,NNE,32,0.0,0.0,52,0.00,,,0.00,21.00,VWS V14.01,2013-03-11 12:22:00,
2013-03-11 08:23:00,45.7,29.1,29.84,NNE,32,0.0,0.0,52,0.00,,,0.00,21.00,VWS V14.01,2013-03-11 12:23:00,
2013-03-11 08:24:00,45.7,29.6,29.84,NNE,32,0.0,0.0,53,0.00,,,0.00,28.00,VWS V14.01,2013-03-11 12:24:00,
2013-03-11 08:25:00,45.7,30.0,29.84,NNE,32,0.0,0.0,54,0.00,,,0.00,28.00,VWS V14.01,2013-03-11 12:25:00,
2013-03-11 08:26:00,45.7,30.0,29.84,NNE,32,0.0,0.0,54,0.00,,,0.00,28.00,VWS V14.01,2013-03-11 12:26:00,
2013-03-11 08:27:00,45.7,29.1,29.84,NNE,32,0.0,0.0,52,0.00,,,0.00,21.00,VWS V14.01,2013-03-11 12:27:00,
2013-03-11 08:28:00,45.7,30.5,29.84,ENE,62,0.0,0.0,55,0.00,,,0.00,28.00,VWS V14.01,2013-03-11 12:28:00,
2013-03-11 08:29:00,45.7,30.9,29.84,NE,38,0.0,0.0,56,0.00,,,0.00,33.00,VWS V14.01,2013-03-11 12:29:00,
2013-03-11 08:30:00,45.7,30.9,29.84,NE,49,0.0,0.0,56,0.00,,,0.00,33.00,VWS V14.01,2013-03-11 12:30:00,
2013-03-11 08:31:00,45.7,30.9,29.84,NE,48,0.0,0.0,56,0.00,,,0.00,33.00,VWS V14.01,2013-03-11 12:31:00,
2013-03-11 08:32:00,45.7,30.5,29.84,ENE,62,0.0,0.0,55,0.00,,,0.00,28.00,VWS V14.01,2013-03-11 12:32:00,
2013-03-11 08:33:00,45.8,31.5,29.84,NNE,31,0.0,0.0,57,0.00,,,0.00,37.00,VWS V14.01,2013-03-11 12:33:00,
2013-03-11 08:34:00,45.8,31.5,29.84,NNE,31,0.0,0.0,57,0.00,,,0.00,37.00,VWS V14.01,2013-03-11 12:34:00,
2013-03-11 08:35:00,45.8,31.5,29.84,NNE,31,0.0,0.0,57,0.00,,,0.00,37.00,VWS V14.01,2013-03-11 12:35:00,
2013-03-11 08:36:00,45.8,31.5,29.84,NE,56,0.0,0.0,57,0.00,,,0.00,37.00,VWS V14.01,2013-03-11 12:36:00,
2013-03-11 08:37:00,45.8,31.5,29.84,ENE,58,0.0,0.0,57,0.00,,,0.00,37.00,VWS V14.01,2013-03-11 12:37:00,
2013-03-11 08:38:00,45.8,31.5,29.84,NNE,31,0.0,0.0,57,0.00,,,0.00,37.00,VWS V14.01,2013-03-11 12:38:00,
2013-03-11 08:39:00,45.8,31.5,29.84,NE,56,0.0,0.0,57,0.00,,,0.00,37.00,VWS V14.01,2013-03-11 12:39:00,
2013-03-11 08:40:00,46.0,31.6,29.84,ENE,58,0.0,0.0,57,0.00,,,0.00,37.00,VWS V14.01,2013-03-11 12:40:00,
2013-03-11 08:41:00,46.0,31.6,29.84,ENE,58,0.0,0.0,57,0.00,,,0.00,42.00,VWS V14.01,2013-03-11 12:41:00,
2013-03-11 08:42:00,46.0,31.6,29.84,NE,56,0.0,0.0,57,0.00,,,0.00,42.00,VWS V14.01,2013-03-11 12:42:00,
2013-03-11 08:43:00,46.0,31.6,29.84,ENE,58,0.0,0.0,57,0.00,,,0.00,42.00,VWS V14.01,2013-03-11 12:43:00,
2013-03-11 08:44:00,45.8,31.5,29.84,NE,56,0.0,0.0,57,0.00,,,0.00,37.00,VWS V14.01,2013-03-11 12:44:00,
2013-03-11 08:45:00,46.0,31.6,29.85,ENE,58,0.0,0.0,57,0.00,,,0.00,42.00,VWS V14.01,2013-03-11 12:45:00,
2013-03-11 08:46:00,46.0,31.6,29.85,ENE,58,0.0,0.0,57,0.00,,,0.00,53.00,VWS V14.01,2013-03-11 12:46:00,
2013-03-11 08:47:00,46.0,31.6,29.85,ENE,58,0.0,0.0,57,0.00,,,0.00,53.00,VWS V14.01,2013-03-11 12:47:00,
2013-03-11 08:48:00,46.0,31.6,29.85,NE,48,0.0,0.0,57,0.00,,,0.00,53.00,VWS V14.01,2013-03-11 12:48:00,
2013-03-11 08:49:00,46.0,31.6,29.85,NE,49,0.0,0.0,57,0.00,,,0.00,56.00,VWS V14.01,2013-03-11 12:49:00,
2013-03-11 08:50:00,46.0,31.6,29.85,ENE,58,0.0,0.0,57,0.00,,,0.00,42.00,VWS V14.01,2013-03-11 12:50:00,
2013-03-11 08:51:00,46.0,31.2,29.85,NE,51,0.0,0.0,56,0.00,,,0.00,62.00,VWS V14.01,2013-03-11 12:51:00,
2013-03-11 08:52:00,46.0,31.2,29.85,ENE,64,0.0,0.0,56,0.00,,,0.00,60.00,VWS V14.01,2013-03-11 12:52:00,
2013-03-11 08:53:00,46.0,31.2,29.85,ENE,64,0.0,0.0,56,0.00,,,0.00,60.00,VWS V14.01,2013-03-11 12:53:00,
2013-03-11 08:54:00,46.0,31.2,29.85,ENE,64,0.0,0.0,56,0.00,,,0.00,60.00,VWS V14.01,2013-03-11 12:54:00,
2013-03-11 08:55:00,46.0,31.2,29.85,NE,49,0.0,0.0,56,0.00,,,0.00,60.00,VWS V14.01,2013-03-11 12:55:00,
2013-03-11 08:56:00,46.0,31.2,29.85,ENE,64,0.0,0.0,56,0.00,,,0.00,60.00,VWS V14.01,2013-03-11 12:56:00,
2013-03-11 08:57:00,46.1,31.3,29.85,ENE,65,0.0,0.0,56,0.00,,,0.00,56.00,VWS V14.01,2013-03-11 12:57:00,
2013-03-11 08:58:00,46.1,31.3,29.85,ENE,65,0.0,0.0,56,0.00,,,0.00,58.00,VWS V14.01,2013-03-11 12:58:00,
2013-03-11 08:59:00,46.1,31.3,29.85,ENE,65,0.0,0.0,56,0.00,,,0.00,58.00,VWS V14.01,2013-03-11 12:59:00,
2013-03-11 09:00:00,46.0,31.2,29.85,ENE,64,0.0,0.0,56,0.00,,,0.00,62.00,VWS V14.01,2013-03-11 13:00:00,
2013-03-11 09:01:00,46.1,31.7,29.85,ENE,65,0.0,0.0,57,0.00,,,0.00,58.00,VWS V14.01,2013-03-11 13:01:00,
2013-03-11 09:02:00,46.1,31.7,29.85,ENE,65,0.0,0.0,57,0.00,,,0.00,56.00,VWS V14.01,2013-03-11 13:02:00,
2013-03-11 09:03:00,46.1,31.7,29.85,ENE,65,0.0,0.0,57,0.00,,,0.00,55.00,VWS V14.01,2013-03-11 13:03:00,
2013-03-11 09:04:00,46.1,31.7,29.85,ENE,65,0.0,0.0,57,0.00,,,0.00,53.00,VWS V14.01,2013-03-11 13:04:00,
2013-03-11 09:05:00,46.1,31.3,29.85,ENE,65,0.0,0.0,56,0.00,,,0.00,60.00,VWS V14.01,2013-03-11 13:05:00,
2013-03-11 09:06:00,46.1,32.2,29.85,ESE,121,0.0,0.0,58,0.00,,,0.00,62.00,VWS V14.01,2013-03-11 13:06:00,
2013-03-11 09:07:00,46.1,32.2,29.85,ESE,121,0.0,0.0,58,0.00,,,0.00,69.00,VWS V14.01,2013-03-11 13:07:00,
2013-03-11 09:08:00,46.1,32.2,29.85,ESE,121,0.0,0.0,58,0.00,,,0.00,72.00,VWS V14.01,2013-03-11 13:08:00,
2013-03-11 09:09:00,46.1,32.2,29.85,ESE,121,0.0,0.0,58,0.00,,,0.00,77.00,VWS V14.01,2013-03-11 13:09:00,
2013-03-11 09:10:00,46.1,32.2,29.85,ENE,65,0.0,0.0,58,0.00,,,0.00,55.00,VWS V14.01,2013-03-11 13:10:00,
2013-03-11 09:11:00,46.1,32.2,29.85,ESE,121,0.0,0.0,58,0.00,,,0.00,79.00,VWS V14.01,2013-03-11 13:11:00,
2013-03-11 09:12:00,46.1,32.2,29.85,ESE,121,0.0,0.0,58,0.00,,,0.00,77.00,VWS V14.01,2013-03-11 13:12:00,
2013-03-11 09:13:00,46.1,32.2,29.85,ESE,121,0.0,0.0,58,0.00,,,0.00,74.00,VWS V14.01,2013-03-11 13:13:00,
2013-03-11 09:14:00,46.1,32.2,29.85,ESE,121,0.0,0.0,58,0.00,,,0.00,79.00,VWS V14.01,2013-03-11 13:14:00,
2013-03-11 09:15:00,46.1,32.2,29.86,ESE,121,0.0,0.0,58,0.00,,,0.00,84.00,VWS V14.01,2013-03-11 13:15:00,
2013-03-11 09:16:00,46.1,32.2,29.85,ESE,121,0.0,0.0,58,0.00,,,0.00,79.00,VWS V14.01,2013-03-11 13:16:00,
2013-03-11 09:17:00,46.1,32.6,29.86,ESE,121,0.0,0.0,59,0.00,,,0.00,83.00,VWS V14.01,2013-03-11 13:17:00,
2013-03-11 09:18:00,46.1,32.6,29.86,ESE,121,0.0,0.0,59,0.00,,,0.00,81.00,VWS V14.01,2013-03-11 13:18:00,
2013-03-11 09:19:00,46.2,32.7,29.86,ESE,121,0.0,0.0,59,0.00,,,0.00,81.00,VWS V14.01,2013-03-11 13:19:00,
2013-03-11 09:20:00,46.2,32.7,29.86,ESE,121,0.0,0.0,59,0.00,,,0.00,84.00,VWS V14.01,2013-03-11 13:20:00,
2013-03-11 09:21:00,46.2,32.7,29.86,ESE,121,0.0,0.0,59,0.00,,,0.00,88.00,VWS V14.01,2013-03-11 13:21:00,
2013-03-11 09:22:00,46.1,32.6,29.86,ESE,121,0.0,0.0,59,0.00,,,0.00,83.00,VWS V14.01,2013-03-11 13:22:00,
2013-03-11 09:23:00,46.2,33.1,29.86,ESE,110,0.0,0.0,60,0.00,,,0.00,99.00,VWS V14.01,2013-03-11 13:23:00,
2013-03-11 09:24:00,46.2,32.7,29.86,ESE,110,0.0,0.0,59,0.00,,,0.00,99.00,VWS V14.01,2013-03-11 13:24:00,
2013-03-11 09:25:00,46.2,32.7,29.86,ESE,113,0.0,0.0,59,0.00,,,0.00,93.00,VWS V14.01,2013-03-11 13:25:00,
2013-03-11 09:26:00,46.2,32.7,29.86,ESE,113,0.0,0.0,59,0.00,,,0.00,93.00,VWS V14.01,2013-03-11 13:26:00,
2013-03-11 09:27:00,46.2,32.7,29.86,ESE,110,0.0,0.0,59,0.00,,,0.00,99.00,VWS V14.01,2013-03-11 13:27:00,
2013-03-11 09:28:00,46.4,32.9,29.86,ESE,114,0.0,0.0,59,0.00,,,0.00,99.00,VWS V14.01,2013-03-11 13:28:00,
2013-03-11 09:29:00,46.4,33.3,29.86,SW,219,0.0,0.0,60,0.00,,,0.00,99.00,VWS V14.01,2013-03-11 13:29:00,
2013-03-11 09:30:00,46.4,32.9,29.85,SW,219,0.0,0.0,59,0.00,,,0.00,116.00,VWS V14.01,2013-03-11 13:30:00,
2013-03-11 09:31:00,46.4,32.9,29.85,SW,219,0.0,0.0,59,0.00,,,0.00,113.00,VWS V14.01,2013-03-11 13:31:00,
2013-03-11 09:32:00,46.4,33.3,29.85,ESE,113,0.0,0.0,60,0.00,,,0.00,116.00,VWS V14.01,2013-03-11 13:32:00,
2013-03-11 09:33:00,46.4,32.9,29.86,ESE,114,0.0,0.0,59,0.00,,,0.00,99.00,VWS V14.01,2013-03-11 13:33:00,
2013-03-11 09:34:00,46.5,33.4,29.85,ESE,109,0.0,0.0,60,0.00,,,0.00,130.00,VWS V14.01,2013-03-11 13:34:00,
2013-03-11 09:35:00,46.5,33.4,29.85,East,95,0.0,0.0,60,0.00,,,0.00,127.00,VWS V14.01,2013-03-11 13:35:00,
2013-03-11 09:36:00,46.5,33.4,29.85,East,95,0.0,0.0,60,0.00,,,0.00,139.00,VWS V14.01,2013-03-11 13:36:00,
2013-03-11 09:37:00,46.5,33.4,29.85,East,95,0.0,0.0,60,0.00,,,0.00,151.00,VWS V14.01,2013-03-11 13:37:00,
2013-03-11 09:38:00,46.5,33.4,29.85,ESE,109,0.0,0.0,60,0.00,,,0.00,118.00,VWS V14.01,2013-03-11 13:38:00,
2013-03-11 09:39:00,46.7,34.0,29.85,East,95,0.0,0.0,61,0.00,,,0.00,162.00,VWS V14.01,2013-03-11 13:39:00,
2013-03-11 09:40:00,46.8,34.1,29.85,East,95,0.0,0.0,61,0.00,,,0.00,169.00,VWS V14.01,2013-03-11 13:40:00,
2013-03-11 09:41:00,46.8,34.1,29.85,NE,42,0.0,0.0,61,0.00,,,0.00,172.00,VWS V14.01,2013-03-11 13:41:00,
2013-03-11 09:42:00,46.8,34.5,29.85,NE,42,0.0,0.0,62,0.00,,,0.00,157.00,VWS V14.01,2013-03-11 13:42:00,
2013-03-11 09:43:00,46.7,34.0,29.85,East,95,0.0,0.0,61,0.00,,,0.00,151.00,VWS V14.01,2013-03-11 13:43:00,
2013-03-11 09:44:00,47.0,34.7,29.85,ENE,76,0.0,0.0,62,0.00,,,0.00,155.00,VWS V14.01,2013-03-11 13:44:00,
2013-03-11 09:45:00,47.0,34.3,29.85,East,86,0.0,0.0,61,0.00,,,0.00,160.00,VWS V14.01,2013-03-11 13:45:00,
2013-03-11 09:46:00,47.1,34.8,29.85,East,86,0.0,0.0,62,0.00,,,0.00,158.00,VWS V14.01,2013-03-11 13:46:00,
2013-03-11 09:47:00,47.1,34.8,29.85,East,85,0.0,0.0,62,0.00,,,0.00,151.00,VWS V14.01,2013-03-11 13:47:00,
2013-03-11 09:48:00,47.3,35.0,29.85,ESE,102,0.0,0.0,62,0.00,,,0.00,151.00,VWS V14.01,2013-03-11 13:48:00,
2013-03-11 09:49:00,47.0,34.7,29.85,ENE,76,0.0,0.0,62,0.00,,,0.00,155.00,VWS V14.01,2013-03-11 13:49:00,
2013-03-11 09:50:00,47.3,34.5,29.85,ESE,102,0.0,0.0,61,0.00,,,0.00,144.00,VWS V14.01,2013-03-11 13:50:00,
2013-03-11 09:51:00,47.4,34.6,29.85,ESE,102,0.0,0.0,61,0.00,,,0.00,155.00,VWS V14.01,2013-03-11 13:51:00,
2013-03-11 09:52:00,47.4,34.6,29.85,ESE,123,0.0,0.0,61,0.00,,,0.00,158.00,VWS V14.01,2013-03-11 13:52:00,
2013-03-11 09:53:00,47.4,34.6,29.85,ESE,123,0.0,0.0,61,0.00,,,0.00,157.00,VWS V14.01,2013-03-11 13:53:00,
2013-03-11 09:54:00,47.3,35.0,29.85,East,100,0.0,0.0,62,0.00,,,0.00,146.00,VWS V14.01,2013-03-11 13:54:00,
2013-03-11 09:55:00,47.6,34.8,29.85,SE,124,0.0,0.0,61,0.00,,,0.00,162.00,VWS V14.01,2013-03-11 13:55:00,
2013-03-11 09:56:00,47.6,34.8,29.85,ESE,123,0.0,0.0,61,0.00,,,0.00,146.00,VWS V14.01,2013-03-11 13:56:00,
2013-03-11 09:57:00,47.6,34.8,29.85,ESE,123,0.0,0.0,61,0.00,,,0.00,141.00,VWS V14.01,2013-03-11 13:57:00,
2013-03-11 09:58:00,47.7,34.9,29.85,ESE,123,0.0,0.0,61,0.00,,,0.00,146.00,VWS V14.01,2013-03-11 13:58:00,
2013-03-11 09:59:00,47.7,34.9,29.85,SE,126,0.0,0.0,61,0.00,,,0.00,143.00,VWS V14.01,2013-03-11 13:59:00,
2013-03-11 10:00:00,47.6,34.8,29.85,SE,124,0.0,0.0,61,0.00,,,0.00,162.00,VWS V14.01,2013-03-11 14:00:00,
2013-03-11 10:01:00,47.9,35.1,29.85,ESE,121,0.0,0.0,61,0.00,,,0.00,137.00,VWS V14.01,2013-03-11 14:01:00,
2013-03-11 10:02:00,47.9,35.1,29.85,South,171,0.0,0.0,61,0.00,,,0.00,134.00,VWS V14.01,2013-03-11 14:02:00,
2013-03-11 10:03:00,47.9,35.1,29.85,SSE,168,0.0,0.0,61,0.00,,,0.00,141.00,VWS V14.01,2013-03-11 14:03:00,
2013-03-11 10:04:00,47.9,35.1,29.85,North,0,0.0,0.0,61,0.00,,,0.00,153.00,VWS V14.01,2013-03-11 14:04:00,
2013-03-11 10:05:00,47.7,34.9,29.85,ESE,123,0.0,0.0,61,0.00,,,0.00,139.00,VWS V14.01,2013-03-11 14:05:00,
2013-03-11 10:06:00,48.0,35.2,29.85,ESE,109,0.0,0.0,61,0.00,,,0.00,137.00,VWS V14.01,2013-03-11 14:06:00,
2013-03-11 10:07:00,48.0,35.2,29.85,East,100,0.0,0.0,61,0.00,,,0.00,137.00,VWS V14.01,2013-03-11 14:07:00,
2013-03-11 10:08:00,48.0,35.2,29.85,North,0,0.0,0.0,61,0.00,,,0.00,125.00,VWS V14.01,2013-03-11 14:08:00,
2013-03-11 10:10:00,48.0,35.2,29.85,ESE,114,0.0,0.0,61,0.00,,,0.00,118.00,VWS V14.01,2013-03-11 14:10:00,
2013-03-11 10:11:00,47.9,35.1,29.85,North,0,0.0,0.0,61,0.00,,,0.00,153.00,VWS V14.01,2013-03-11 14:11:00,
2013-03-11 10:12:00,48.2,35.4,29.85,SSE,164,0.0,0.0,61,0.00,,,0.00,134.00,VWS V14.01,2013-03-11 14:12:00,
2013-03-11 10:13:00,48.2,35.4,29.85,SSE,164,0.0,0.0,61,0.00,,,0.00,150.00,VWS V14.01,2013-03-11 14:13:00,
2013-03-11 10:14:00,48.2,35.4,29.85,ESE,117,0.0,0.0,61,0.00,,,0.00,160.00,VWS V14.01,2013-03-11 14:14:00,
2013-03-11 10:15:00,48.2,35.4,29.85,SE,137,0.0,0.0,61,0.00,,,0.00,158.00,VWS V14.01,2013-03-11 14:15:00,
2013-03-11 10:16:00,48.2,35.0,29.85,ESE,109,0.0,0.0,60,0.00,,,0.00,187.00,VWS V14.01,2013-03-11 14:16:00,
2013-03-11 10:17:00,48.2,35.0,29.85,SE,126,0.0,0.0,60,0.00,,,0.00,187.00,VWS V14.01,2013-03-11 14:17:00,
2013-03-11 10:18:00,48.2,35.4,29.85,SE,126,0.0,0.0,61,0.00,,,0.00,187.00,VWS V14.01,2013-03-11 14:18:00,
2013-03-11 10:19:00,48.2,35.4,29.85,ESE,117,0.0,0.0,61,0.00,,,0.00,160.00,VWS V14.01,2013-03-11 14:19:00,
2013-03-11 10:20:00,48.3,35.5,29.85,SE,126,0.0,0.0,61,0.00,,,0.00,190.00,VWS V14.01,2013-03-11 14:20:00,
2013-03-11 10:21:00,48.3,35.1,29.85,SE,126,0.0,0.0,60,0.00,,,0.00,195.00,VWS V14.01,2013-03-11 14:21:00,
2013-03-11 10:22:00,48.3,35.5,29.85,SE,126,0.0,0.0,61,0.00,,,0.00,194.00,VWS V14.01,2013-03-11 14:22:00,
2013-03-11 10:23:00,48.5,35.7,29.85,SE,126,0.0,0.0,61,0.00,,,0.00,187.00,VWS V14.01,2013-03-11 14:23:00,
2013-03-11 10:24:00,48.5,35.3,29.85,SE,124,0.0,0.0,60,0.00,,,0.00,178.00,VWS V14.01,2013-03-11 14:24:00,
2013-03-11 10:25:00,48.3,35.5,29.85,SE,126,0.0,0.0,61,0.00,,,0.00,190.00,VWS V14.01,2013-03-11 14:25:00,
2013-03-11 10:26:00,48.5,35.3,29.85,ESE,103,0.0,0.0,60,0.00,,,0.00,165.00,VWS V14.01,2013-03-11 14:26:00,
2013-03-11 10:27:00,48.5,35.3,29.85,ESE,104,0.0,0.0,60,0.00,,,0.00,153.00,VWS V14.01,2013-03-11 14:27:00,
2013-03-11 10:28:00,48.5,35.3,29.85,ESE,110,0.0,0.0,60,0.00,,,0.00,151.00,VWS V14.01,2013-03-11 14:28:00,
2013-03-11 10:29:00,48.5,35.3,29.85,SE,127,0.0,0.0,60,0.00,,,0.00,148.00,VWS V14.01,2013-03-11 14:29:00,
2013-03-11 10:30:00,48.5,35.3,29.84,SE,127,0.0,0.0,60,0.00,,,0.00,164.00,VWS V14.01,2013-03-11 14:30:00,
2013-03-11 10:31:00,48.5,35.3,29.85,ESE,103,0.0,0.0,60,0.00,,,0.00,165.00,VWS V14.01,2013-03-11 14:31:00,
2013-03-11 10:32:00,48.5,35.3,29.84,ESE,117,0.0,0.0,60,0.00,,,0.00,179.00,VWS V14.01,2013-03-11 14:32:00,
2013-03-11 10:33:00,48.5,35.3,29.84,ESE,121,0.0,0.0,60,0.00,,,0.00,181.00,VWS V14.01,2013-03-11 14:33:00,
2013-03-11 10:34:00,48.6,35.4,29.84,ESE,121,0.0,0.0,60,0.00,,,0.00,181.00,VWS V14.01,2013-03-11 14:34:00,
2013-03-11 10:35:00,48.6,35.4,29.84,SE,126,0.0,0.0,60,0.00,,,0.00,183.00,VWS V14.01,2013-03-11 14:35:00,
2013-03-11 10:36:00,48.5,35.3,29.84,SE,127,0.0,0.0,60,0.00,,,0.00,181.00,VWS V14.01,2013-03-11 14:36:00,
2013-03-11 10:37:00,48.6,35.4,29.84,ESE,107,0.0,0.0,60,0.00,,,0.00,192.00,VWS V14.01,2013-03-11 14:37:00,
2013-03-11 10:38:00,48.6,35.4,29.84,ESE,109,0.0,0.0,60,0.00,,,0.00,181.00,VWS V14.01,2013-03-11 14:38:00,
2013-03-11 10:39:00,48.6,35.4,29.84,ESE,107,0.0,0.0,60,0.00,,,0.00,181.00,VWS V14.01,2013-03-11 14:39:00,
2013-03-11 10:40:00,48.6,34.9,29.84,ESE,109,0.0,0.0,59,0.00,,,0.00,181.00,VWS V14.01,2013-03-11 14:40:00,
2013-03-11 10:41:00,48.6,35.4,29.84,ESE,114,0.0,0.0,60,0.00,,,0.00,195.00,VWS V14.01,2013-03-11 14:41:00,
2013-03-11 10:42:00,48.6,34.9,29.84,ESE,107,0.0,0.0,59,0.00,,,0.00,174.00,VWS V14.01,2013-03-11 14:42:00,
2013-03-11 10:43:00,48.6,34.9,29.84,ESE,107,0.0,0.0,59,0.00,,,0.00,169.00,VWS V14.01,2013-03-11 14:43:00,
2013-03-11 10:44:00,48.6,34.9,29.84,North,0,0.0,0.0,59,0.00,,,0.00,171.00,VWS V14.01,2013-03-11 14:44:00,
2013-03-11 10:45:00,48.8,34.7,29.84,ESE,107,0.0,0.0,58,0.00,,,0.00,190.00,VWS V14.01,2013-03-11 14:45:00,
2013-03-11 10:46:00,48.6,34.9,29.84,ESE,107,0.0,0.0,59,0.00,,,0.00,176.00,VWS V14.01,2013-03-11 14:46:00,
2013-03-11 10:47:00,48.8,35.5,29.84,ESE,110,0.0,0.0,60,0.00,,,0.00,192.00,VWS V14.01,2013-03-11 14:47:00,
2013-03-11 10:48:00,48.8,35.5,29.84,ESE,110,0.0,0.0,60,0.00,,,0.00,195.00,VWS V14.01,2013-03-11 14:48:00,
2013-03-11 10:49:00,48.9,35.6,29.84,ESE,110,0.0,0.0,60,0.00,,,0.00,194.00,VWS V14.01,2013-03-11 14:49:00,
2013-03-11 10:50:00,48.9,35.2,29.84,ESE,114,0.0,0.0,59,0.00,,,0.00,195.00,VWS V14.01,2013-03-11 14:50:00,
2013-03-11 10:51:00,48.9,35.6,29.84,ESE,114,0.0,0.0,60,0.00,,,0.00,195.00,VWS V14.01,2013-03-11 14:51:00,
2013-03-11 10:52:00,49.1,35.4,29.84,ENE,62,0.0,0.0,59,0.00,,,0.00,199.00,VWS V14.01,2013-03-11 14:52:00,
2013-03-11 10:53:00,49.1,35.4,29.84,East,79,0.0,0.0,59,0.00,,,0.00,199.00,VWS V14.01,2013-03-11 14:53:00,
2013-03-11 10:54:00,49.1,35.4,29.84,East,79,0.0,0.0,59,0.00,,,0.00,204.00,VWS V14.01,2013-03-11 14:54:00,
2013-03-11 10:55:00,49.1,35.0,29.84,East,79,0.0,0.0,58,0.00,,,0.00,204.00,VWS V14.01,2013-03-11 14:55:00,
2013-03-11 10:56:00,48.9,35.6,29.84,ESE,114,0.0,0.0,60,0.00,,,0.00,195.00,VWS V14.01,2013-03-11 14:56:00,
2013-03-11 10:57:00,49.1,35.0,29.84,ESE,103,0.0,0.0,58,0.00,,,0.00,208.00,VWS V14.01,2013-03-11 14:57:00,
2013-03-11 10:58:00,49.1,35.0,29.84,East,100,0.0,0.0,58,0.00,,,0.00,208.00,VWS V14.01,2013-03-11 14:58:00,
2013-03-11 10:59:00,49.1,35.0,29.83,ENE,61,0.0,0.0,58,0.00,,,0.00,209.00,VWS V14.01,2013-03-11 14:59:00,
2013-03-11 11:00:00,49.1,34.5,29.83,ENE,71,0.0,0.0,57,0.00,,,0.00,211.00,VWS V14.01,2013-03-11 15:00:00,
2013-03-11 11:01:00,49.1,35.0,29.84,NE,56,0.0,0.0,58,0.00,,,0.00,206.00,VWS V14.01,2013-03-11 15:01:00,
2013-03-11 11:02:00,48.9,33.9,29.83,ESE,113,0.0,0.0,56,0.00,,,0.00,218.00,VWS V14.01,2013-03-11 15:02:00,
2013-03-11 11:03:00,48.9,33.9,29.83,ESE,109,0.0,0.0,56,0.00,,,0.00,218.00,VWS V14.01,2013-03-11 15:03:00,
2013-03-11 11:04:00,48.9,33.9,29.83,ESE,110,0.0,0.0,56,0.00,,,0.00,213.00,VWS V14.01,2013-03-11 15:04:00,
2013-03-11 11:05:00,48.8,33.8,29.83,ESE,109,0.0,0.0,56,0.00,,,0.00,216.00,VWS V14.01,2013-03-11 15:05:00,
2013-03-11 11:06:00,49.1,34.1,29.83,ESE,106,0.0,0.0,56,0.00,,,0.00,216.00,VWS V14.01,2013-03-11 15:06:00,
2013-03-11 11:07:00,48.8,34.3,29.83,ESE,107,0.0,0.0,57,0.00,,,0.00,236.00,VWS V14.01,2013-03-11 15:07:00,
2013-03-11 11:08:00,48.8,34.3,29.83,ESE,107,0.0,0.0,57,0.00,,,0.00,241.00,VWS V14.01,2013-03-11 15:08:00,
2013-03-11 11:09:00,48.8,34.3,29.83,NE,47,0.0,0.0,57,0.00,,,0.00,241.00,VWS V14.01,2013-03-11 15:09:00,
2013-03-11 11:10:00,48.8,34.3,29.83,NE,48,0.0,0.0,57,0.00,,,0.00,243.00,VWS V14.01,2013-03-11 15:10:00,
2013-03-11 11:11:00,48.8,34.3,29.83,ESE,107,0.0,0.0,57,0.00,,,0.00,232.00,VWS V14.01,2013-03-11 15:11:00,
2013-03-11 11:12:00,48.9,34.3,29.83,East,90,0.0,0.0,57,0.00,,,0.00,252.00,VWS V14.01,2013-03-11 15:12:00,
2013-03-11 11:13:00,48.9,33.9,29.83,ESE,113,0.0,0.0,56,0.00,,,0.00,253.00,VWS V14.01,2013-03-11 15:13:00,
2013-03-11 11:14:00,48.9,33.9,29.83,ESE,123,0.0,0.0,56,0.00,,,0.00,255.00,VWS V14.01,2013-03-11 15:14:00,
2013-03-11 11:15:00,48.9,33.5,29.83,ESE,106,0.0,0.0,55,0.00,,,0.00,255.00,VWS V14.01,2013-03-11 15:15:00,
2013-03-11 11:16:00,48.9,33.5,29.83,NE,51,0.0,0.0,55,0.00,,,0.00,253.00,VWS V14.01,2013-03-11 15:16:00,
2013-03-11 11:17:00,48.9,34.3,29.83,East,90,0.0,0.0,57,0.00,,,0.00,252.00,VWS V14.01,2013-03-11 15:17:00,
2013-03-11 11:18:00,48.9,33.9,29.83,ENE,58,0.0,0.0,56,0.00,,,0.00,255.00,VWS V14.01,2013-03-11 15:18:00,
2013-03-11 11:19:00,48.9,33.9,29.83,East,83,0.0,0.0,56,0.00,,,0.00,253.00,VWS V14.01,2013-03-11 15:19:00,
2013-03-11 11:20:00,49.1,33.7,29.83,ENE,71,0.0,0.0,55,0.00,,,0.00,253.00,VWS V14.01,2013-03-11 15:20:00,
2013-03-11 11:21:00,49.1,33.7,29.83,ENE,71,0.0,0.0,55,0.00,,,0.00,253.00,VWS V14.01,2013-03-11 15:21:00,
2013-03-11 11:22:00,49.2,34.2,29.83,East,86,0.0,0.0,56,0.00,,,0.00,255.00,VWS V14.01,2013-03-11 15:22:00,
2013-03-11 11:23:00,48.9,33.9,29.83,ENE,58,0.0,0.0,56,0.00,,,0.00,255.00,VWS V14.01,2013-03-11 15:23:00,
2013-03-11 11:24:00,49.2,33.7,29.83,NNE,16,0.0,0.0,55,0.00,,,0.00,245.00,VWS V14.01,2013-03-11 15:24:00,
2013-03-11 11:25:00,49.4,33.9,29.83,NNE,16,0.0,0.0,55,0.00,,,0.00,236.00,VWS V14.01,2013-03-11 15:25:00,
2013-03-11 11:26:00,49.5,34.0,29.83,NNE,17,0.0,0.0,55,0.00,,,0.00,215.00,VWS V14.01,2013-03-11 15:26:00,
2013-03-11 11:27:00,49.5,34.0,29.83,NNE,17,0.0,0.0,55,0.00,,,0.00,215.00,VWS V14.01,2013-03-11 15:27:00,
2013-03-11 11:28:00,49.5,34.0,29.83,NE,45,0.0,0.0,55,0.00,,,0.00,222.00,VWS V14.01,2013-03-11 15:28:00,
2013-03-11 11:29:00,49.2,33.7,29.83,NNE,16,0.0,0.0,55,0.00,,,0.00,245.00,VWS V14.01,2013-03-11 15:29:00,
2013-03-11 11:30:00,49.6,34.1,29.82,NE,48,0.0,0.0,55,0.00,,,0.00,215.00,VWS V14.01,2013-03-11 15:30:00,
2013-03-11 11:31:00,49.8,34.3,29.82,NE,48,0.0,0.0,55,0.00,,,0.00,208.00,VWS V14.01,2013-03-11 15:31:00,
2013-03-11 11:32:00,49.8,34.3,29.82,ENE,65,0.0,0.0,55,0.00,,,0.00,206.00,VWS V14.01,2013-03-11 15:32:00,
2013-03-11 11:33:00,49.8,34.3,29.82,ENE,65,0.0,0.0,55,0.00,,,0.00,204.00,VWS V14.01,2013-03-11 15:33:00,
2013-03-11 11:34:00,49.9,34.4,29.82,ENE,65,0.0,0.0,55,0.00,,,0.00,204.00,VWS V14.01,2013-03-11 15:34:00,
2013-03-11 11:35:00,49.6,34.1,29.82,NE,48,0.0,0.0,55,0.00,,,0.00,215.00,VWS V14.01,2013-03-11 15:35:00,
2013-03-11 11:36:00,49.9,34.4,29.82,ENE,64,0.0,0.0,55,0.00,,,0.00,211.00,VWS V14.01,2013-03-11 15:36:00,
2013-03-11 11:37:00,49.9,34.4,29.82,East,96,0.0,0.0,55,0.00,,,0.00,216.00,VWS V14.01,2013-03-11 15:37:00,
2013-03-11 11:38:00,49.9,34.4,29.82,East,96,0.0,0.0,55,0.00,,,0.00,229.00,VWS V14.01,2013-03-11 15:38:00,
2013-03-11 11:39:00,50.1,34.6,29.82,East,96,0.0,0.0,55,0.00,,,0.00,236.00,VWS V14.01,2013-03-11 15:39:00,
2013-03-11 11:40:00,49.9,34.4,29.82,ENE,65,0.0,0.0,55,0.00,,,0.00,206.00,VWS V14.01,2013-03-11 15:40:00,
2013-03-11 11:41:00,50.1,34.6,29.82,ESE,113,0.0,0.0,55,0.00,,,0.00,252.00,VWS V14.01,2013-03-11 15:41:00,
2013-03-11 11:42:00,50.1,35.0,29.82,ESE,114,0.0,0.0,56,0.00,,,0.00,257.00,VWS V14.01,2013-03-11 15:42:00,
2013-03-11 11:43:00,50.1,35.0,29.82,SE,124,0.0,0.0,56,0.00,,,0.00,266.00,VWS V14.01,2013-03-11 15:43:00,
2013-03-11 11:44:00,50.2,35.6,29.82,ESE,110,0.0,0.0,57,0.00,,,0.00,282.00,VWS V14.01,2013-03-11 15:44:00,
2013-03-11 11:45:00,50.2,36.0,29.82,SSE,154,0.0,0.0,58,0.00,,,0.00,292.00,VWS V14.01,2013-03-11 15:45:00,
2013-03-11 11:46:00,50.1,34.6,29.82,ESE,113,0.0,0.0,55,0.00,,,0.00,252.00,VWS V14.01,2013-03-11 15:46:00,
2013-03-11 11:47:00,50.5,36.7,29.82,SSE,150,0.0,0.0,59,0.00,,,0.00,308.00,VWS V14.01,2013-03-11 15:47:00,
2013-03-11 11:48:00,50.7,37.3,29.82,ESE,123,0.0,0.0,60,0.00,,,0.00,308.00,VWS V14.01,2013-03-11 15:48:00,
2013-03-11 11:49:00,50.8,37.8,29.82,SE,124,0.0,0.0,61,0.00,,,0.00,301.00,VWS V14.01,2013-03-11 15:49:00,
2013-03-11 11:50:00,50.8,37.8,29.82,SE,145,0.0,0.0,61,0.00,,,0.00,289.00,VWS V14.01,2013-03-11 15:50:00,
2013-03-11 11:51:00,50.4,36.6,29.82,ESE,106,0.0,0.0,59,0.00,,,0.00,299.00,VWS V14.01,2013-03-11 15:51:00,
2013-03-11 11:52:00,51.1,38.1,29.82,SSE,150,0.0,0.0,61,0.00,,,0.00,253.00,VWS V14.01,2013-03-11 15:52:00,
2013-03-11 11:53:00,51.1,38.1,29.82,ESE,102,0.0,0.0,61,0.00,,,0.00,245.00,VWS V14.01,2013-03-11 15:53:00,
2013-03-11 11:54:00,51.1,38.1,29.82,SE,140,0.0,0.0,61,0.00,,,0.00,243.00,VWS V14.01,2013-03-11 15:54:00,
2013-03-11 11:55:00,51.3,38.3,29.82,ESE,121,0.0,0.0,61,0.00,,,0.00,213.00,VWS V14.01,2013-03-11 15:55:00,
2013-03-11 11:56:00,51.4,38.4,29.82,ESE,107,0.0,0.0,61,0.00,,,0.00,190.00,VWS V14.01,2013-03-11 15:56:00,
2013-03-11 11:57:00,51.1,38.1,29.82,SSE,150,0.0,0.0,61,0.00,,,0.00,253.00,VWS V14.01,2013-03-11 15:57:00,
2013-03-11 11:58:00,51.6,38.2,29.82,SE,133,0.0,0.0,60,0.00,,,0.00,241.00,VWS V14.01,2013-03-11 15:58:00,
2013-03-11 11:59:00,51.6,38.2,29.82,SE,133,0.0,0.0,60,0.00,,,0.00,229.00,VWS V14.01,2013-03-11 15:59:00,
2013-03-11 12:00:00,51.6,38.2,29.81,ESE,117,0.0,0.0,60,0.00,,,0.00,211.00,VWS V14.01,2013-03-11 16:00:00,
2013-03-11 12:01:00,51.7,38.3,29.81,ESE,112,0.0,0.0,60,0.00,,,0.00,211.00,VWS V14.01,2013-03-11 16:01:00,
2013-03-11 12:02:00,51.7,38.3,29.81,ESE,123,0.0,0.0,60,0.00,,,0.00,201.00,VWS V14.01,2013-03-11 16:02:00,
2013-03-11 12:03:00,51.6,38.2,29.82,SE,133,0.0,0.0,60,0.00,,,0.00,241.00,VWS V14.01,2013-03-11 16:03:00,
2013-03-11 12:04:00,51.7,37.8,29.81,SSE,150,0.0,0.0,59,0.00,,,0.00,202.00,VWS V14.01,2013-03-11 16:04:00,
2013-03-11 12:05:00,51.9,38.0,29.81,ESE,119,0.0,0.0,59,0.00,,,0.00,185.00,VWS V14.01,2013-03-11 16:05:00,
2013-03-11 12:06:00,51.9,38.0,29.81,East,90,0.0,0.0,59,0.00,,,0.00,151.00,VWS V14.01,2013-03-11 16:06:00,
2013-03-11 12:07:00,51.9,38.0,29.81,SE,128,0.0,0.0,59,0.00,,,0.00,162.00,VWS V14.01,2013-03-11 16:07:00,
2013-03-11 12:08:00,51.9,38.0,29.81,ESE,113,0.0,0.0,59,0.00,,,0.00,164.00,VWS V14.01,2013-03-11 16:08:00,
2013-03-11 12:09:00,51.7,37.8,29.81,SSE,150,0.0,0.0,59,0.00,,,0.00,202.00,VWS V14.01,2013-03-11 16:09:00,
2013-03-11 12:10:00,52.0,39.4,29.81,ESE,109,0.0,0.0,62,0.00,,,0.00,150.00,VWS V14.01,2013-03-11 16:10:00,
2013-03-11 12:11:00,52.0,39.4,29.81,ESE,102,0.0,0.0,62,0.00,,,0.00,153.00,VWS V14.01,2013-03-11 16:11:00,
2013-03-11 12:12:00,52.0,39.4,29.81,ESE,112,0.0,0.0,62,0.00,,,0.00,132.00,VWS V14.01,2013-03-11 16:12:00,
2013-03-11 12:13:00,52.2,40.0,29.81,ESE,123,0.0,0.0,63,0.00,,,0.00,111.00,VWS V14.01,2013-03-11 16:13:00,
2013-03-11 12:14:00,51.9,39.3,29.81,ESE,112,0.0,0.0,62,0.00,,,0.00,148.00,VWS V14.01,2013-03-11 16:14:00,
2013-03-11 12:15:00,52.3,41.3,29.81,SE,144,0.0,0.0,66,0.00,,,0.00,99.00,VWS V14.01,2013-03-11 16:15:00,
2013-03-11 12:16:00,52.3,41.3,29.81,South,169,0.0,0.0,66,0.00,,,0.00,135.00,VWS V14.01,2013-03-11 16:16:00,
2013-03-11 12:17:00,52.5,41.5,29.81,SE,136,0.0,0.0,66,0.00,,,0.00,141.00,VWS V14.01,2013-03-11 16:17:00,
2013-03-11 12:18:00,52.5,41.5,29.81,ESE,112,0.0,0.0,66,0.00,,,0.00,137.00,VWS V14.01,2013-03-11 16:18:00,
2013-03-11 12:19:00,52.5,41.9,29.81,SE,131,0.0,0.0,67,0.00,,,0.00,137.00,VWS V14.01,2013-03-11 16:19:00,
2013-03-11 12:20:00,52.3,41.3,29.81,SE,144,0.0,0.0,66,0.00,,,0.00,99.00,VWS V14.01,2013-03-11 16:20:00,
2013-03-11 12:21:00,52.5,41.9,29.81,SE,140,0.0,0.0,67,0.00,,,0.00,123.00,VWS V14.01,2013-03-11 16:21:00,
2013-03-11 12:22:00,52.5,41.9,29.81,SSE,151,0.0,0.0,67,0.00,,,0.00,121.00,VWS V14.01,2013-03-11 16:22:00,
2013-03-11 12:23:00,52.5,41.9,29.81,SE,124,0.0,0.0,67,0.00,,,0.00,114.00,VWS V14.01,2013-03-11 16:23:00,
2013-03-11 12:24:00,52.5,41.9,29.81,SE,145,0.0,0.0,67,0.00,,,0.00,111.00,VWS V14.01,2013-03-11 16:24:00,
2013-03-11 12:25:00,52.5,41.9,29.81,SSE,150,0.0,0.0,67,0.00,,,0.00,121.00,VWS V14.01,2013-03-11 16:25:00,
2013-03-11 12:26:00,52.5,41.9,29.81,SE,140,0.0,0.0,67,0.00,,,0.00,123.00,VWS V14.01,2013-03-11 16:26:00,
2013-03-11 12:27:00,52.5,41.9,29.81,ESE,117,0.0,0.0,67,0.00,,,0.00,150.00,VWS V14.01,2013-03-11 16:27:00,
2013-03-11 12:28:00,52.5,41.9,29.81,East,100,0.0,0.0,67,0.00,,,0.00,158.00,VWS V14.01,2013-03-11 16:28:00,
2013-03-11 12:29:00,52.5,41.9,29.81,SSE,158,0.0,0.0,67,0.00,,,0.00,169.00,VWS V14.01,2013-03-11 16:29:00,
2013-03-11 12:30:00,52.5,41.9,29.79,SE,127,0.0,0.0,67,0.00,,,0.00,183.00,VWS V14.01,2013-03-11 16:30:00,
2013-03-11 12:31:00,52.5,41.9,29.79,SSE,160,0.0,0.0,67,0.00,,,0.00,202.00,VWS V14.01,2013-03-11 16:31:00,
2013-03-11 12:32:00,52.5,41.9,29.81,ESE,117,0.0,0.0,67,0.00,,,0.00,150.00,VWS V14.01,2013-03-11 16:32:00,
2013-03-11 12:33:00,52.5,41.9,29.79,SE,144,0.0,0.0,67,0.00,,,0.00,230.00,VWS V14.01,2013-03-11 16:33:00,
2013-03-11 12:34:00,52.6,42.0,29.79,SE,140,0.0,0.0,67,0.00,,,0.00,257.00,VWS V14.01,2013-03-11 16:34:00,
2013-03-11 12:35:00,52.6,42.0,29.79,SE,130,0.0,0.0,67,0.00,,,0.00,267.00,VWS V14.01,2013-03-11 16:35:00,
2013-03-11 12:36:00,52.6,42.0,29.79,SE,140,0.0,0.0,67,0.00,,,0.00,287.00,VWS V14.01,2013-03-11 16:36:00,
2013-03-11 12:37:00,52.5,41.9,29.79,SE,141,0.0,0.0,67,0.00,,,0.00,230.00,VWS V14.01,2013-03-11 16:37:00,
2013-03-11 12:38:00,52.8,42.2,29.79,South,175,0.0,0.0,67,0.00,,,0.00,297.00,VWS V14.01,2013-03-11 16:38:00,
2013-03-11 12:39:00,52.8,42.2,29.79,SE,127,0.0,0.0,67,0.00,,,0.00,306.00,VWS V14.01,2013-03-11 16:39:00,
2013-03-11 12:40:00,52.9,42.3,29.79,ESE,104,0.0,0.0,67,0.00,,,0.00,306.00,VWS V14.01,2013-03-11 16:40:00,
2013-03-11 12:41:00,52.9,42.3,29.79,ESE,103,0.0,0.0,67,0.00,,,0.00,299.00,VWS V14.01,2013-03-11 16:41:00,
2013-03-11 12:42:00,52.8,42.2,29.79,SSE,148,0.0,0.0,67,0.00,,,0.00,287.00,VWS V14.01,2013-03-11 16:42:00,
2013-03-11 12:43:00,53.1,41.7,29.79,ESE,120,0.0,0.0,65,0.00,,,0.00,278.00,VWS V14.01,2013-03-11 16:43:00,
2013-03-11 12:44:00,53.2,41.8,29.78,SE,124,0.0,0.0,65,0.00,,,0.00,271.00,VWS V14.01,2013-03-11 16:44:00,
2013-03-11 12:45:00,53.3,41.8,29.78,ESE,121,0.0,0.0,65,0.00,,,0.00,273.00,VWS V14.01,2013-03-11 16:45:00,
2013-03-11 12:46:00,53.3,41.8,29.78,SSE,157,0.0,0.0,65,0.00,,,0.00,236.00,VWS V14.01,2013-03-11 16:46:00,
2013-03-11 12:47:00,53.1,42.1,29.79,ESE,102,0.0,0.0,66,0.00,,,0.00,294.00,VWS V14.01,2013-03-11 16:47:00,
2013-03-11 12:48:00,53.5,42.4,29.78,ESE,114,0.0,0.0,66,0.00,,,0.00,183.00,VWS V14.01,2013-03-11 16:48:00,
2013-03-11 12:49:00,53.5,42.4,29.78,ESE,119,0.0,0.0,66,0.00,,,0.00,148.00,VWS V14.01,2013-03-11 16:49:00,
2013-03-11 12:50:00,53.5,42.8,29.78,ESE,121,0.0,0.0,67,0.00,,,0.00,130.00,VWS V14.01,2013-03-11 16:50:00,
2013-03-11 12:51:00,53.5,42.8,29.78,ESE,121,0.0,0.0,67,0.00,,,0.00,164.00,VWS V14.01,2013-03-11 16:51:00,
2013-03-11 12:52:00,53.5,42.0,29.78,ESE,106,0.0,0.0,65,0.00,,,0.00,197.00,VWS V14.01,2013-03-11 16:52:00,
2013-03-11 12:53:00,53.5,42.8,29.78,ESE,106,0.0,0.0,67,0.00,,,0.00,211.00,VWS V14.01,2013-03-11 16:53:00,
2013-03-11 12:54:00,53.5,42.8,29.78,SSE,151,0.0,0.0,67,0.00,,,0.00,234.00,VWS V14.01,2013-03-11 16:54:00,
2013-03-11 12:55:00,53.5,42.8,29.78,SE,138,0.0,0.0,67,0.00,,,0.00,199.00,VWS V14.01,2013-03-11 16:55:00,
2013-03-11 12:56:00,53.5,42.8,29.78,SE,143,0.0,0.0,67,0.00,,,0.00,197.00,VWS V14.01,2013-03-11 16:56:00,
2013-03-11 12:57:00,53.5,42.8,29.78,SE,138,0.0,0.0,67,0.00,,,0.00,274.00,VWS V14.01,2013-03-11 16:57:00,
2013-03-11 12:58:00,53.5,42.8,29.78,ESE,106,0.0,0.0,67,0.00,,,0.00,211.00,VWS V14.01,2013-03-11 16:58:00,
2013-03-11 12:59:00,53.6,43.3,29.78,SE,136,0.0,0.0,68,0.00,,,0.00,164.00,VWS V14.01,2013-03-11 16:59:00,
2013-03-11 13:00:00,53.6,43.3,29.78,ESE,107,0.0,0.0,68,0.00,,,0.00,171.00,VWS V14.01,2013-03-11 17:00:00,
2013-03-11 13:01:00,53.8,43.1,29.78,SE,133,0.0,0.0,67,0.00,,,0.00,176.00,VWS V14.01,2013-03-11 17:01:00,
2013-03-11 13:02:00,53.8,43.1,29.78,ESE,120,0.0,0.0,67,0.00,,,0.00,255.00,VWS V14.01,2013-03-11 17:02:00,
2013-03-11 13:03:00,53.5,43.2,29.78,SSE,155,0.0,0.0,68,0.00,,,0.00,274.00,VWS V14.01,2013-03-11 17:03:00,
2013-03-11 13:04:00,53.9,43.6,29.78,SE,131,0.0,0.0,68,0.00,,,0.00,278.00,VWS V14.01,2013-03-11 17:04:00,
2013-03-11 13:05:00,53.9,43.6,29.78,SE,127,0.0,0.0,68,0.00,,,0.00,278.00,VWS V14.01,2013-03-11 17:05:00,
2013-03-11 13:06:00,53.8,43.9,29.78,East,99,0.0,0.0,69,0.00,,,0.00,278.00,VWS V14.01,2013-03-11 17:06:00,
2013-03-11 13:07:00,53.8,43.9,29.78,SE,130,0.0,0.0,69,0.00,,,0.00,241.00,VWS V14.01,2013-03-11 17:07:00,
2013-03-11 13:08:00,53.8,43.5,29.78,ESE,106,0.0,0.0,68,0.00,,,0.00,257.00,VWS V14.01,2013-03-11 17:08:00,
2013-03-11 13:09:00,53.8,43.9,29.78,ESE,103,0.0,0.0,69,0.00,,,0.00,194.00,VWS V14.01,2013-03-11 17:09:00,
2013-03-11 13:10:00,53.6,43.7,29.78,SSE,151,0.0,0.0,69,0.00,,,0.00,194.00,VWS V14.01,2013-03-11 17:10:00,
2013-03-11 13:11:00,53.6,43.7,29.78,SE,138,0.0,0.0,69,0.00,,,0.00,134.00,VWS V14.01,2013-03-11 17:11:00,
2013-03-11 13:12:00,53.6,43.7,29.78,SSE,155,0.0,0.0,69,0.00,,,0.00,141.00,VWS V14.01,2013-03-11 17:12:00,
2013-03-11 13:13:00,53.8,43.9,29.78,SE,126,0.0,0.0,69,0.00,,,0.00,227.00,VWS V14.01,2013-03-11 17:13:00,
2013-03-11 13:14:00,53.5,43.6,29.78,SSE,165,0.0,0.0,69,0.00,,,0.00,134.00,VWS V14.01,2013-03-11 17:14:00,
2013-03-11 13:15:00,53.5,44.0,29.77,SE,124,0.0,0.0,70,0.00,,,0.00,128.00,VWS V14.01,2013-03-11 17:15:00,
2013-03-11 13:16:00,53.5,44.0,29.77,ESE,121,0.0,0.0,70,0.00,,,0.00,130.00,VWS V14.01,2013-03-11 17:16:00,
2013-03-11 13:17:00,53.5,44.0,29.77,East,92,0.0,0.0,70,0.00,,,0.00,125.00,VWS V14.01,2013-03-11 17:17:00,
2013-03-11 13:18:00,53.5,44.0,29.77,East,82,0.0,0.0,70,0.00,,,0.00,111.00,VWS V14.01,2013-03-11 17:18:00,
2013-03-11 13:19:00,53.5,43.6,29.78,SSE,165,0.0,0.0,69,0.00,,,0.00,134.00,VWS V14.01,2013-03-11 17:19:00,
2013-03-11 13:20:00,53.3,43.8,29.77,SE,136,0.0,0.0,70,0.00,,,0.00,93.00,VWS V14.01,2013-03-11 17:20:00,
2013-03-11 13:21:00,53.3,43.8,29.77,SSE,148,0.0,0.0,70,0.00,,,0.00,99.00,VWS V14.01,2013-03-11 17:21:00,
2013-03-11 13:22:00,53.3,43.8,29.77,SE,137,0.0,0.0,70,0.00,,,0.00,95.00,VWS V14.01,2013-03-11 17:22:00,
2013-03-11 13:23:00,53.3,43.8,29.77,East,92,0.0,0.0,70,0.00,,,0.00,107.00,VWS V14.01,2013-03-11 17:23:00,
2013-03-11 13:24:00,53.3,43.8,29.77,SE,131,0.0,0.0,70,0.00,,,0.00,127.00,VWS V14.01,2013-03-11 17:24:00,
2013-03-11 13:25:00,53.3,43.8,29.77,SE,136,0.0,0.0,70,0.00,,,0.00,93.00,VWS V14.01,2013-03-11 17:25:00,
2013-03-11 13:26:00,53.3,44.2,29.77,East,93,0.0,0.0,71,0.00,,,0.00,106.00,VWS V14.01,2013-03-11 17:26:00,
2013-03-11 13:27:00,53.2,44.0,29.77,SE,131,0.0,0.0,71,0.00,,,0.00,174.00,VWS V14.01,2013-03-11 17:27:00,
2013-03-11 13:28:00,53.2,44.0,29.77,SSE,168,0.0,0.0,71,0.00,,,0.00,188.00,VWS V14.01,2013-03-11 17:28:00,
2013-03-11 13:29:00,53.2,44.0,29.77,SE,133,0.0,0.0,71,0.00,,,0.00,148.00,VWS V14.01,2013-03-11 17:29:00,
2013-03-11 13:30:00,53.2,44.0,29.78,SSE,164,0.0,0.0,71,0.00,,,0.00,148.00,VWS V14.01,2013-03-11 17:30:00,
2013-03-11 13:31:00,53.3,44.2,29.77,East,93,0.0,0.0,71,0.00,,,0.00,106.00,VWS V14.01,2013-03-11 17:31:00,
2013-03-11 13:32:00,53.2,44.0,29.78,SE,145,0.0,0.0,71,0.00,,,0.00,157.00,VWS V14.01,2013-03-11 17:32:00,
2013-03-11 13:33:00,53.2,44.0,29.78,SSE,155,0.0,0.0,71,0.00,,,0.00,141.00,VWS V14.01,2013-03-11 17:33:00,
2013-03-11 13:34:00,53.2,44.0,29.78,SE,127,0.0,0.0,71,0.00,,,0.00,137.00,VWS V14.01,2013-03-11 17:34:00,
2013-03-11 13:35:00,53.2,44.0,29.78,East,99,0.0,0.0,71,0.00,,,0.00,135.00,VWS V14.01,2013-03-11 17:35:00,
2013-03-11 13:36:00,53.2,44.0,29.78,South,171,0.0,0.0,71,0.00,,,0.00,116.00,VWS V14.01,2013-03-11 17:36:00,
2013-03-11 13:37:00,53.2,44.0,29.78,SSE,160,0.0,0.0,71,0.00,,,0.00,132.00,VWS V14.01,2013-03-11 17:37:00,
2013-03-11 13:38:00,53.2,44.0,29.78,ESE,112,0.0,0.0,71,0.00,,,0.00,139.00,VWS V14.01,2013-03-11 17:38:00,
2013-03-11 13:39:00,53.2,44.0,29.78,SE,140,0.0,0.0,71,0.00,,,0.00,139.00,VWS V14.01,2013-03-11 17:39:00,
2013-03-11 13:40:00,53.2,44.0,29.78,ESE,119,0.0,0.0,71,0.00,,,0.00,99.00,VWS V14.01,2013-03-11 17:40:00,
2013-03-11 13:41:00,53.1,44.0,29.78,East,85,0.0,0.0,71,0.00,,,0.00,86.00,VWS V14.01,2013-03-11 17:41:00,
2013-03-11 13:42:00,53.2,44.0,29.78,SSE,160,0.0,0.0,71,0.00,,,0.00,132.00,VWS V14.01,2013-03-11 17:42:00,
2013-03-11 13:43:00,53.1,44.0,29.78,ESE,102,0.0,0.0,71,0.00,,,0.00,69.00,VWS V14.01,2013-03-11 17:43:00,
2013-03-11 13:44:00,53.1,44.0,29.78,SSE,157,0.0,0.0,71,0.00,,,0.00,69.00,VWS V14.01,2013-03-11 17:44:00,
2013-03-11 13:45:00,53.1,44.0,29.77,East,95,0.0,0.0,71,0.00,,,0.00,91.00,VWS V14.01,2013-03-11 17:45:00,
2013-03-11 13:46:00,52.9,43.8,29.77,SE,137,0.0,0.0,71,0.00,,,0.00,104.00,VWS V14.01,2013-03-11 17:46:00,
2013-03-11 13:47:00,53.1,44.0,29.78,ESE,121,0.0,0.0,71,0.00,,,0.00,72.00,VWS V14.01,2013-03-11 17:47:00,
2013-03-11 13:48:00,52.9,43.8,29.77,NE,55,0.0,0.0,71,0.00,,,0.00,91.00,VWS V14.01,2013-03-11 17:48:00,
2013-03-11 13:49:00,52.9,43.8,29.77,SE,145,0.0,0.0,71,0.00,,,0.00,95.00,VWS V14.01,2013-03-11 17:49:00,
2013-03-11 13:50:00,52.9,43.8,29.77,SSE,151,0.0,0.0,71,0.00,,,0.00,111.00,VWS V14.01,2013-03-11 17:50:00,
2013-03-11 13:51:00,52.9,43.8,29.77,ESE,121,0.0,0.0,71,0.00,,,0.00,100.00,VWS V14.01,2013-03-11 17:51:00,
2013-03-11 13:52:00,52.8,43.7,29.77,SSE,148,0.0,0.0,71,0.00,,,0.00,99.00,VWS V14.01,2013-03-11 17:52:00,
2013-03-11 13:53:00,52.9,43.8,29.77,NE,55,0.0,0.0,71,0.00,,,0.00,91.00,VWS V14.01,2013-03-11 17:53:00,
2013-03-11 13:54:00,52.9,43.8,29.77,ESE,123,0.0,0.0,71,0.00,,,0.00,125.00,VWS V14.01,2013-03-11 17:54:00,
2013-03-11 13:55:00,52.9,43.8,29.77,East,92,0.0,0.0,71,0.00,,,0.00,121.00,VWS V14.01,2013-03-11 17:55:00,
2013-03-11 13:56:00,52.9,43.8,29.77,ESE,119,0.0,0.0,71,0.00,,,0.00,88.00,VWS V14.01,2013-03-11 17:56:00,
2013-03-11 13:57:00,52.9,43.8,29.77,East,100,0.0,0.0,71,0.00,,,0.00,100.00,VWS V14.01,2013-03-11 17:57:00,
2013-03-11 13:58:00,52.9,43.8,29.77,SSE,160,0.0,0.0,71,0.00,,,0.00,100.00,VWS V14.01,2013-03-11 17:58:00,
2013-03-11 13:59:00,52.9,43.8,29.77,ESE,123,0.0,0.0,71,0.00,,,0.00,125.00,VWS V14.01,2013-03-11 17:59:00,
2013-03-11 14:00:00,52.9,43.8,29.77,ESE,119,0.0,0.0,71,0.00,,,0.00,109.00,VWS V14.01,2013-03-11 18:00:00,
2013-03-11 14:01:00,52.9,43.8,29.77,ESE,104,0.0,0.0,71,0.00,,,0.00,99.00,VWS V14.01,2013-03-11 18:01:00,
2013-03-11 14:02:00,52.9,43.8,29.77,ESE,114,0.0,0.0,71,0.00,,,0.00,118.00,VWS V14.01,2013-03-11 18:02:00,
2013-03-11 14:03:00,52.9,43.8,29.77,SE,140,0.0,0.0,71,0.00,,,0.00,120.00,VWS V14.01,2013-03-11 18:03:00,
2013-03-11 14:04:00,52.9,43.8,29.77,SE,144,0.0,0.0,71,0.00,,,0.00,127.00,VWS V14.01,2013-03-11 18:04:00,
2013-03-11 14:05:00,52.9,43.8,29.77,SSE,148,0.0,0.0,71,0.00,,,0.00,113.00,VWS V14.01,2013-03-11 18:05:00,
2013-03-11 14:06:00,52.9,43.8,29.77,ESE,102,0.0,0.0,71,0.00,,,0.00,99.00,VWS V14.01,2013-03-11 18:06:00,
2013-03-11 14:07:00,52.9,43.8,29.77,SE,145,0.0,0.0,71,0.00,,,0.00,106.00,VWS V14.01,2013-03-11 18:07:00,
2013-03-11 14:08:00,52.9,43.8,29.77,SE,126,0.0,0.0,71,0.00,,,0.00,106.00,VWS V14.01,2013-03-11 18:08:00,
2013-03-11 14:09:00,52.9,43.8,29.77,SE,126,0.0,0.0,71,0.00,,,0.00,104.00,VWS V14.01,2013-03-11 18:09:00,
2013-03-11 14:10:00,52.9,43.8,29.77,SSE,148,0.0,0.0,71,0.00,,,0.00,113.00,VWS V14.01,2013-03-11 18:10:00,
2013-03-11 14:11:00,52.9,43.8,29.77,ESE,116,0.0,0.0,71,0.00,,,0.00,90.00,VWS V14.01,2013-03-11 18:11:00,
2013-03-11 14:12:00,52.9,43.8,29.77,SE,141,0.0,0.0,71,0.00,,,0.00,95.00,VWS V14.01,2013-03-11 18:12:00,
2013-03-11 14:13:00,52.9,43.8,29.77,SSE,150,0.0,0.0,71,0.00,,,0.00,93.00,VWS V14.01,2013-03-11 18:13:00,
2013-03-11 14:14:00,52.9,43.8,29.77,South,171,0.0,0.0,71,0.00,,,0.00,91.00,VWS V14.01,2013-03-11 18:14:00,
2013-03-11 14:15:00,52.9,43.8,29.76,SSE,158,0.0,0.0,71,0.00,,,0.00,114.00,VWS V14.01,2013-03-11 18:15:00,
2013-03-11 14:16:00,52.9,43.8,29.77,ESE,116,0.0,0.0,71,0.00,,,0.00,90.00,VWS V14.01,2013-03-11 18:16:00,
2013-03-11 14:17:00,52.9,43.8,29.76,ESE,113,0.0,0.0,71,0.00,,,0.00,104.00,VWS V14.01,2013-03-11 18:17:00,
2013-03-11 14:18:00,52.9,43.8,29.76,ESE,117,0.0,0.0,71,0.00,,,0.00,109.00,VWS V14.01,2013-03-11 18:18:00,
2013-03-11 14:19:00,52.9,43.8,29.76,ESE,110,0.0,0.0,71,0.00,,,0.00,125.00,VWS V14.01,2013-03-11 18:19:00,
2013-03-11 14:20:00,52.9,43.8,29.76,ESE,110,0.0,0.0,71,0.00,,,0.00,134.00,VWS V14.01,2013-03-11 18:20:00,
2013-03-11 14:21:00,52.9,43.8,29.76,ESE,106,0.0,0.0,71,0.00,,,0.00,130.00,VWS V14.01,2013-03-11 18:21:00,
2013-03-11 14:22:00,52.9,43.8,29.76,ESE,113,0.0,0.0,71,0.00,,,0.00,104.00,VWS V14.01,2013-03-11 18:22:00,
2013-03-11 14:23:00,52.9,43.8,29.76,East,100,0.0,0.0,71,0.00,,,0.00,116.00,VWS V14.01,2013-03-11 18:23:00,
2013-03-11 14:24:00,52.9,43.8,29.76,East,100,0.0,0.0,71,0.00,,,0.00,109.00,VWS V14.01,2013-03-11 18:24:00,
2013-03-11 14:25:00,52.9,43.8,29.76,East,97,0.0,0.0,71,0.00,,,0.00,134.00,VWS V14.01,2013-03-11 18:25:00,
2013-03-11 14:26:00,52.8,43.7,29.76,SSE,167,0.0,0.0,71,0.00,,,0.00,169.00,VWS V14.01,2013-03-11 18:26:00,
2013-03-11 14:27:00,52.9,43.8,29.76,SE,143,0.0,0.0,71,0.00,,,0.00,109.00,VWS V14.01,2013-03-11 18:27:00,
2013-03-11 14:28:00,52.8,43.7,29.76,ESE,109,0.0,0.0,71,0.00,,,0.00,127.00,VWS V14.01,2013-03-11 18:28:00,
2013-03-11 14:29:00,52.8,43.7,29.76,ESE,117,0.0,0.0,71,0.00,,,0.00,151.00,VWS V14.01,2013-03-11 18:29:00,
2013-03-11 14:30:00,52.8,43.7,29.75,East,100,0.0,0.0,71,0.00,,,0.00,164.00,VWS V14.01,2013-03-11 18:30:00,
2013-03-11 14:31:00,52.8,43.7,29.75,ESE,113,0.0,0.0,71,0.00,,,0.00,141.00,VWS V14.01,2013-03-11 18:31:00,
2013-03-11 14:32:00,52.8,43.7,29.76,ESE,104,0.0,0.0,71,0.00,,,0.00,137.00,VWS V14.01,2013-03-11 18:32:00,
2013-03-11 14:33:00,52.8,43.7,29.75,East,93,0.0,0.0,71,0.00,,,0.00,139.00,VWS V14.01,2013-03-11 18:33:00,
2013-03-11 14:34:00,52.6,43.5,29.75,East,93,0.0,0.0,71,0.00,,,0.00,120.00,VWS V14.01,2013-03-11 18:34:00,
2013-03-11 14:35:00,52.6,43.8,29.75,East,96,0.0,0.0,72,0.00,,,0.00,116.00,VWS V14.01,2013-03-11 18:35:00,
2013-03-11 14:36:00,52.6,43.8,29.75,East,100,0.0,0.0,72,0.00,,,0.00,144.00,VWS V14.01,2013-03-11 18:36:00,
2013-03-11 14:37:00,52.6,43.8,29.75,East,93,0.0,0.0,72,0.00,,,0.00,187.00,VWS V14.01,2013-03-11 18:37:00,
2013-03-11 14:38:00,52.8,43.7,29.75,East,93,0.0,0.0,71,0.00,,,0.00,139.00,VWS V14.01,2013-03-11 18:38:00,
2013-03-11 14:39:00,52.6,43.8,29.75,SSE,161,0.0,0.0,72,0.00,,,0.00,183.00,VWS V14.01,2013-03-11 18:39:00,
2013-03-11 14:40:00,52.6,43.8,29.75,East,82,0.0,0.0,72,0.00,,,0.00,160.00,VWS V14.01,2013-03-11 18:40:00,
2013-03-11 14:41:00,52.6,43.8,29.75,East,95,0.0,0.0,72,0.00,,,0.00,174.00,VWS V14.01,2013-03-11 18:41:00,
2013-03-11 14:42:00,52.8,44.0,29.75,ESE,112,0.0,0.0,72,0.00,,,0.00,181.00,VWS V14.01,2013-03-11 18:42:00,
2013-03-11 14:43:00,52.6,43.8,29.75,East,99,0.0,0.0,72,0.00,,,0.00,209.00,VWS V14.01,2013-03-11 18:43:00,
2013-03-11 14:44:00,52.6,43.8,29.75,East,83,0.0,0.0,72,0.00,,,0.00,181.00,VWS V14.01,2013-03-11 18:44:00,
2013-03-11 14:45:00,52.6,43.8,29.74,ESE,103,0.0,0.0,72,0.00,,,0.00,178.00,VWS V14.01,2013-03-11 18:45:00,
2013-03-11 14:46:00,52.6,43.8,29.74,East,95,0.0,0.0,72,0.00,,,0.00,236.00,VWS V14.01,2013-03-11 18:46:00,
2013-03-11 14:47:00,52.6,43.8,29.74,ESE,104,0.0,0.0,72,0.00,,,0.00,236.00,VWS V14.01,2013-03-11 18:47:00,
2013-03-11 14:48:00,52.6,43.8,29.74,East,97,0.0,0.0,72,0.00,,,0.00,211.00,VWS V14.01,2013-03-11 18:48:00,
2013-03-11 14:49:00,52.6,43.8,29.75,East,83,0.0,0.0,72,0.00,,,0.00,181.00,VWS V14.01,2013-03-11 18:49:00,
2013-03-11 14:50:00,52.6,43.8,29.74,ESE,113,0.0,0.0,72,0.00,,,0.00,266.00,VWS V14.01,2013-03-11 18:50:00,
2013-03-11 14:51:00,52.6,43.8,29.74,ENE,76,0.0,0.0,72,0.00,,,0.00,282.00,VWS V14.01,2013-03-11 18:51:00,
2013-03-11 14:52:00,52.6,43.8,29.74,North,1,0.0,0.0,72,0.00,,,0.00,280.00,VWS V14.01,2013-03-11 18:52:00,
2013-03-11 14:53:00,52.8,44.0,29.74,SE,133,0.0,0.0,72,0.00,,,0.00,278.00,VWS V14.01,2013-03-11 18:53:00,
2013-03-11 14:54:00,52.6,43.8,29.74,ESE,110,0.0,0.0,72,0.00,,,0.00,248.00,VWS V14.01,2013-03-11 18:54:00,
2013-03-11 14:55:00,52.9,44.1,29.74,SSE,167,0.0,0.0,72,0.00,,,0.00,252.00,VWS V14.01,2013-03-11 18:55:00,
2013-03-11 14:56:00,52.9,44.1,29.74,ESE,107,0.0,0.0,72,0.00,,,0.00,253.00,VWS V14.01,2013-03-11 18:56:00,
2013-03-11 14:57:00,52.9,44.1,29.74,East,99,0.0,0.0,72,0.00,,,0.00,267.00,VWS V14.01,2013-03-11 18:57:00,
2013-03-11 14:58:00,53.1,44.3,29.74,East,80,0.0,0.0,72,0.00,,,0.00,274.00,VWS V14.01,2013-03-11 18:58:00,
2013-03-11 14:59:00,52.8,44.0,29.74,East,95,0.0,0.0,72,0.00,,,0.00,269.00,VWS V14.01,2013-03-11 18:59:00,
2013-03-11 15:00:00,53.1,44.0,29.73,ESE,121,0.0,0.0,71,0.00,,,0.00,282.00,VWS V14.01,2013-03-11 19:00:00,
2013-03-11 15:01:00,53.1,44.0,29.73,East,93,0.0,0.0,71,0.00,,,0.00,296.00,VWS V14.01,2013-03-11 19:01:00,
2013-03-11 15:02:00,53.1,44.0,29.73,ESE,116,0.0,0.0,71,0.00,,,0.00,294.00,VWS V14.01,2013-03-11 19:02:00,
2013-03-11 15:03:00,53.2,44.0,29.73,East,100,0.0,0.0,71,0.00,,,0.00,292.00,VWS V14.01,2013-03-11 19:03:00,
2013-03-11 15:04:00,53.2,44.4,29.73,East,85,0.0,0.0,72,0.00,,,0.00,290.00,VWS V14.01,2013-03-11 19:04:00,
2013-03-11 15:05:00,53.1,44.0,29.73,ESE,121,0.0,0.0,71,0.00,,,0.00,282.00,VWS V14.01,2013-03-11 19:05:00,
2013-03-11 15:06:00,53.2,44.4,29.73,East,90,0.0,0.0,72,0.00,,,0.00,301.00,VWS V14.01,2013-03-11 19:06:00,
2013-03-11 15:07:00,53.3,44.5,29.73,ESE,117,0.0,0.0,72,0.00,,,0.00,306.00,VWS V14.01,2013-03-11 19:07:00,
2013-03-11 15:08:00,53.3,44.5,29.73,ESE,107,0.0,0.0,72,0.00,,,0.00,304.00,VWS V14.01,2013-03-11 19:08:00,
2013-03-11 15:09:00,53.3,44.5,29.73,ESE,109,0.0,0.0,72,0.00,,,0.00,278.00,VWS V14.01,2013-03-11 19:09:00,
2013-03-11 15:10:00,53.2,44.4,29.73,ESE,121,0.0,0.0,72,0.00,,,0.00,290.00,VWS V14.01,2013-03-11 19:10:00,
2013-03-11 15:11:00,53.3,44.9,29.73,ESE,121,0.0,0.0,73,0.00,,,0.00,285.00,VWS V14.01,2013-03-11 19:11:00,
2013-03-11 15:12:00,53.3,44.9,29.73,East,90,0.0,0.0,73,0.00,,,0.00,306.00,VWS V14.01,2013-03-11 19:12:00,
2013-03-11 15:13:00,53.3,44.9,29.73,ESE,103,0.0,0.0,73,0.00,,,0.00,308.00,VWS V14.01,2013-03-11 19:13:00,
2013-03-11 15:14:00,53.3,44.9,29.73,SE,131,0.0,0.0,73,0.00,,,0.00,306.00,VWS V14.01,2013-03-11 19:14:00,
2013-03-11 15:15:00,53.3,44.9,29.73,SE,133,0.0,0.0,73,0.00,,,0.00,266.00,VWS V14.01,2013-03-11 19:15:00,
2013-03-11 15:16:00,53.3,45.2,29.72,ESE,104,0.0,0.0,74,0.00,,,0.00,311.00,VWS V14.01,2013-03-11 19:16:00,
2013-03-11 15:17:00,53.5,45.1,29.72,ESE,106,0.0,0.0,73,0.00,,,0.00,320.00,VWS V14.01,2013-03-11 19:17:00,
2013-03-11 15:18:00,53.5,45.1,29.72,ESE,112,0.0,0.0,73,0.00,,,0.00,313.00,VWS V14.01,2013-03-11 19:18:00,
2013-03-11 15:19:00,53.5,45.1,29.72,ESE,120,0.0,0.0,73,0.00,,,0.00,296.00,VWS V14.01,2013-03-11 19:19:00,
2013-03-11 15:20:00,53.3,44.9,29.72,ESE,104,0.0,0.0,73,0.00,,,0.00,304.00,VWS V14.01,2013-03-11 19:20:00,
2013-03-11 15:21:00,53.3,45.2,29.72,ESE,103,0.0,0.0,74,0.00,,,0.00,308.00,VWS V14.01,2013-03-11 19:21:00,
2013-03-11 15:22:00,53.3,45.2,29.72,East,89,0.0,0.0,74,0.00,,,0.00,299.00,VWS V14.01,2013-03-11 19:22:00,
2013-03-11 15:23:00,53.3,45.2,29.72,South,175,0.0,0.0,74,0.00,,,0.00,283.00,VWS V14.01,2013-03-11 19:23:00,
2013-03-11 15:24:00,53.3,45.2,29.72,East,100,0.0,0.0,74,0.00,,,0.00,264.00,VWS V14.01,2013-03-11 19:24:00,
2013-03-11 15:25:00,53.3,45.2,29.72,East,99,0.0,0.0,74,0.00,,,0.00,310.00,VWS V14.01,2013-03-11 19:25:00,
2013-03-11 15:26:00,53.3,45.2,29.72,East,95,0.0,0.0,74,0.00,,,0.00,220.00,VWS V14.01,2013-03-11 19:26:00,
2013-03-11 15:27:00,53.3,45.2,29.72,East,89,0.0,0.0,74,0.00,,,0.00,245.00,VWS V14.01,2013-03-11 19:27:00,
2013-03-11 15:28:00,53.3,45.2,29.72,SE,144,0.0,0.0,74,0.00,,,0.00,248.00,VWS V14.01,2013-03-11 19:28:00,
2013-03-11 15:29:00,53.3,45.2,29.70,East,96,0.0,0.0,74,0.00,,,0.00,246.00,VWS V14.01,2013-03-11 19:29:00,
2013-03-11 15:30:00,53.3,45.2,29.70,ESE,116,0.0,0.0,74,0.00,,,0.00,266.00,VWS V14.01,2013-03-11 19:30:00,
2013-03-11 15:31:00,53.3,45.2,29.70,East,100,0.0,0.0,74,0.00,,,0.00,303.00,VWS V14.01,2013-03-11 19:31:00,
2013-03-11 15:32:00,53.3,45.2,29.72,East,89,0.0,0.0,74,0.00,,,0.00,245.00,VWS V14.01,2013-03-11 19:32:00,
2013-03-11 15:33:00,53.3,45.2,29.70,ESE,119,0.0,0.0,74,0.00,,,0.00,303.00,VWS V14.01,2013-03-11 19:33:00,
2013-03-11 15:34:00,53.3,45.2,29.70,ESE,120,0.0,0.0,74,0.00,,,0.00,294.00,VWS V14.01,2013-03-11 19:34:00,
2013-03-11 15:35:00,53.2,45.1,29.70,SE,128,0.0,0.0,74,0.00,,,0.00,294.00,VWS V14.01,2013-03-11 19:35:00,
2013-03-11 15:36:00,53.2,45.5,29.70,SE,134,0.0,0.0,75,0.00,,,0.00,278.00,VWS V14.01,2013-03-11 19:36:00,
2013-03-11 15:37:00,53.3,45.2,29.70,ESE,103,0.0,0.0,74,0.00,,,0.00,303.00,VWS V14.01,2013-03-11 19:37:00,
2013-03-11 15:38:00,53.3,45.6,29.70,SE,126,0.0,0.0,75,0.00,,,0.00,248.00,VWS V14.01,2013-03-11 19:38:00,
2013-03-11 15:39:00,53.3,45.6,29.70,ESE,107,0.0,0.0,75,0.00,,,0.00,238.00,VWS V14.01,2013-03-11 19:39:00,
2013-03-11 15:40:00,53.3,45.6,29.70,ESE,110,0.0,0.0,75,0.00,,,0.00,238.00,VWS V14.01,2013-03-11 19:40:00,
2013-03-11 15:41:00,53.2,45.5,29.70,East,90,0.0,0.0,75,0.00,,,0.00,239.00,VWS V14.01,2013-03-11 19:41:00,
2013-03-11 15:42:00,53.3,45.6,29.70,East,99,0.0,0.0,75,0.00,,,0.00,262.00,VWS V14.01,2013-03-11 19:42:00,
2013-03-11 15:43:00,53.3,45.6,29.70,SE,128,0.0,0.0,75,0.00,,,0.00,236.00,VWS V14.01,2013-03-11 19:43:00,
2013-03-11 15:44:00,53.3,45.6,29.70,SSE,164,0.0,0.0,75,0.00,,,0.00,232.00,VWS V14.01,2013-03-11 19:44:00,
2013-03-11 15:45:00,53.3,45.2,29.69,ESE,117,0.0,0.0,74,0.00,,,0.00,225.00,VWS V14.01,2013-03-11 19:45:00,
2013-03-11 15:46:00,53.3,45.2,29.69,East,97,0.0,0.0,74,0.00,,,0.00,209.00,VWS V14.01,2013-03-11 19:46:00,
2013-03-11 15:47:00,53.3,45.2,29.69,ESE,106,0.0,0.0,74,0.00,,,0.00,183.00,VWS V14.01,2013-03-11 19:47:00,
2013-03-11 15:48:00,53.3,45.6,29.70,SE,128,0.0,0.0,75,0.00,,,0.00,236.00,VWS V14.01,2013-03-11 19:48:00,
2013-03-11 15:49:00,53.3,45.2,29.69,SE,145,0.0,0.0,74,0.00,,,0.00,164.00,VWS V14.01,2013-03-11 19:49:00,
2013-03-11 15:50:00,53.3,45.2,29.69,East,100,0.0,0.0,74,0.00,,,0.00,158.00,VWS V14.01,2013-03-11 19:50:00,
2013-03-11 15:51:00,53.3,45.2,29.69,ESE,104,0.0,0.0,74,0.00,,,0.00,169.00,VWS V14.01,2013-03-11 19:51:00,
2013-03-11 15:52:00,53.3,45.2,29.69,SE,127,0.0,0.0,74,0.00,,,0.00,183.00,VWS V14.01,2013-03-11 19:52:00,
2013-03-11 15:53:00,53.3,45.2,29.69,ESE,104,0.0,0.0,74,0.00,,,0.00,174.00,VWS V14.01,2013-03-11 19:53:00,
2013-03-11 15:54:00,53.3,45.2,29.69,ESE,116,0.0,0.0,74,0.00,,,0.00,188.00,VWS V14.01,2013-03-11 19:54:00,
2013-03-11 15:55:00,53.3,45.2,29.69,SE,131,0.0,0.0,74,0.00,,,0.00,181.00,VWS V14.01,2013-03-11 19:55:00,
2013-03-11 15:56:00,53.3,45.2,29.69,ESE,106,0.0,0.0,74,0.00,,,0.00,158.00,VWS V14.01,2013-03-11 19:56:00,
2013-03-11 15:57:00,53.3,45.2,29.69,ESE,103,0.0,0.0,74,0.00,,,0.00,141.00,VWS V14.01,2013-03-11 19:57:00,
2013-03-11 15:58:00,53.3,45.2,29.69,ESE,112,0.0,0.0,74,0.00,,,0.00,190.00,VWS V14.01,2013-03-11 19:58:00,
2013-03-11 15:59:00,53.3,45.2,29.69,ESE,113,0.0,0.0,74,0.00,,,0.00,116.00,VWS V14.01,2013-03-11 19:59:00,
2013-03-11 16:00:00,53.3,45.2,29.72,East,89,0.0,0.0,74,0.00,,,0.00,114.00,VWS V14.01,2013-03-11 20:00:00,
2013-03-11 16:01:00,53.3,45.2,29.72,SE,124,0.0,0.0,74,0.00,,,0.00,111.00,VWS V14.01,2013-03-11 20:01:00,
2013-03-11 16:02:00,53.3,45.2,29.72,SSE,150,0.0,0.0,74,0.00,,,0.00,102.00,VWS V14.01,2013-03-11 20:02:00,
2013-03-11 16:03:00,53.3,45.2,29.72,ESE,104,0.0,0.0,74,0.00,,,0.00,111.00,VWS V14.01,2013-03-11 20:03:00,
2013-03-11 16:04:00,53.3,45.2,29.69,ESE,113,0.0,0.0,74,0.00,,,0.00,116.00,VWS V14.01,2013-03-11 20:04:00,
2013-03-11 16:05:00,53.3,44.9,29.72,ESE,116,0.0,0.0,73,0.00,,,0.00,118.00,VWS V14.01,2013-03-11 20:05:00,
2013-03-11 16:06:00,53.3,44.9,29.72,East,89,0.0,0.0,73,0.00,,,0.00,116.00,VWS V14.01,2013-03-11 20:06:00,
2013-03-11 16:07:00,53.3,44.9,29.72,ESE,106,0.0,0.0,73,0.00,,,0.00,114.00,VWS V14.01,2013-03-11 20:07:00,
2013-03-11 16:08:00,53.3,44.9,29.72,ESE,116,0.0,0.0,73,0.00,,,0.00,118.00,VWS V14.01,2013-03-11 20:08:00,
2013-03-11 16:09:00,53.3,44.9,29.72,East,92,0.0,0.0,73,0.00,,,0.00,125.00,VWS V14.01,2013-03-11 20:09:00,
2013-03-11 16:10:00,53.3,44.9,29.72,ESE,116,0.0,0.0,73,0.00,,,0.00,118.00,VWS V14.01,2013-03-11 20:10:00,
2013-03-11 16:11:00,53.3,44.9,29.72,ESE,119,0.0,0.0,73,0.00,,,0.00,127.00,VWS V14.01,2013-03-11 20:11:00,
2013-03-11 16:12:00,53.3,44.9,29.72,ESE,113,0.0,0.0,73,0.00,,,0.00,127.00,VWS V14.01,2013-03-11 20:12:00,
2013-03-11 16:13:00,53.3,44.9,29.72,East,88,0.0,0.0,73,0.00,,,0.00,125.00,VWS V14.01,2013-03-11 20:13:00,
2013-03-11 16:14:00,53.3,44.9,29.72,East,86,0.0,0.0,73,0.00,,,0.00,121.00,VWS V14.01,2013-03-11 20:14:00,
2013-03-11 16:15:00,53.3,44.9,29.71,ESE,106,0.0,0.0,73,0.00,,,0.00,118.00,VWS V14.01,2013-03-11 20:15:00,
2013-03-11 16:16:00,53.3,44.9,29.72,ESE,119,0.0,0.0,73,0.00,,,0.00,127.00,VWS V14.01,2013-03-11 20:16:00,
2013-03-11 16:17:00,53.2,44.8,29.71,East,100,0.0,0.0,73,0.00,,,0.00,120.00,VWS V14.01,2013-03-11 20:17:00,
2013-03-11 16:18:00,53.2,44.8,29.71,ESE,107,0.0,0.0,73,0.00,,,0.00,120.00,VWS V14.01,2013-03-11 20:18:00,
2013-03-11 16:19:00,53.2,44.8,29.71,East,97,0.0,0.0,73,0.00,,,0.00,123.00,VWS V14.01,2013-03-11 20:19:00,
2013-03-11 16:20:00,53.2,44.8,29.71,ESE,102,0.0,0.0,73,0.00,,,0.00,123.00,VWS V14.01,2013-03-11 20:20:00,
2013-03-11 16:21:00,53.2,44.8,29.71,ESE,104,0.0,0.0,73,0.00,,,0.00,120.00,VWS V14.01,2013-03-11 20:21:00,
2013-03-11 16:22:00,53.2,44.8,29.71,SE,126,0.0,0.0,73,0.00,,,0.00,104.00,VWS V14.01,2013-03-11 20:22:00,
2013-03-11 16:23:00,53.2,44.8,29.71,ENE,64,0.0,0.0,73,0.00,,,0.00,93.00,VWS V14.01,2013-03-11 20:23:00,
2013-03-11 16:24:00,53.2,44.8,29.71,ESE,114,0.0,0.0,73,0.00,,,0.00,93.00,VWS V14.01,2013-03-11 20:24:00,
2013-03-11 16:25:00,53.2,44.8,29.71,East,99,0.0,0.0,73,0.00,,,0.00,107.00,VWS V14.01,2013-03-11 20:25:00,
2013-03-11 16:26:00,53.2,44.8,29.71,NNE,32,0.0,0.0,73,0.00,,,0.00,106.00,VWS V14.01,2013-03-11 20:26:00,
2013-03-11 16:27:00,53.2,44.8,29.71,SE,126,0.0,0.0,73,0.00,,,0.00,104.00,VWS V14.01,2013-03-11 20:27:00,
2013-03-11 16:28:00,53.2,44.8,29.71,East,96,0.0,0.0,73,0.00,,,0.00,120.00,VWS V14.01,2013-03-11 20:28:00,
2013-03-11 16:29:00,53.2,44.8,29.71,East,99,0.0,0.0,73,0.00,,,0.00,130.00,VWS V14.01,2013-03-11 20:29:00,
2013-03-11 16:30:00,53.2,44.8,29.70,East,93,0.0,0.0,73,0.00,,,0.00,151.00,VWS V14.01,2013-03-11 20:30:00,
2013-03-11 16:31:00,53.2,44.8,29.70,ESE,107,0.0,0.0,73,0.00,,,0.00,164.00,VWS V14.01,2013-03-11 20:31:00,
2013-03-11 16:32:00,53.2,44.8,29.71,SE,126,0.0,0.0,73,0.00,,,0.00,106.00,VWS V14.01,2013-03-11 20:32:00,
2013-03-11 16:33:00,53.2,45.1,29.70,ESE,112,0.0,0.0,74,0.00,,,0.00,157.00,VWS V14.01,2013-03-11 20:33:00,
2013-03-11 16:34:00,53.2,45.1,29.70,ESE,102,0.0,0.0,74,0.00,,,0.00,150.00,VWS V14.01,2013-03-11 20:34:00,
2013-03-11 16:35:00,53.2,45.1,29.70,ESE,106,0.0,0.0,74,0.00,,,0.00,144.00,VWS V14.01,2013-03-11 20:35:00,
2013-03-11 16:36:00,53.2,45.1,29.70,ESE,107,0.0,0.0,74,0.00,,,0.00,139.00,VWS V14.01,2013-03-11 20:36:00,
2013-03-11 16:37:00,53.2,45.1,29.70,ESE,110,0.0,0.0,74,0.00,,,0.00,157.00,VWS V14.01,2013-03-11 20:37:00,
2013-03-11 16:38:00,53.2,45.1,29.70,ESE,121,0.0,0.0,74,0.00,,,0.00,125.00,VWS V14.01,2013-03-11 20:38:00,
2013-03-11 16:39:00,53.2,45.1,29.70,ENE,64,0.0,0.0,74,0.00,,,0.00,121.00,VWS V14.01,2013-03-11 20:39:00,
2013-03-11 16:40:00,53.2,45.1,29.70,ESE,110,0.0,0.0,74,0.00,,,0.00,107.00,VWS V14.01,2013-03-11 20:40:00,
2013-03-11 16:41:00,53.3,45.2,29.70,East,89,0.0,0.0,74,0.00,,,0.00,86.00,VWS V14.01,2013-03-11 20:41:00,
2013-03-11 16:42:00,53.2,45.1,29.70,SE,124,0.0,0.0,74,0.00,,,0.00,125.00,VWS V14.01,2013-03-11 20:42:00,
2013-03-11 16:43:00,53.3,45.2,29.70,East,96,0.0,0.0,74,0.00,,,0.00,49.00,VWS V14.01,2013-03-11 20:43:00,
2013-03-11 16:44:00,53.3,45.2,29.70,ESE,109,0.0,0.0,74,0.00,,,0.00,49.00,VWS V14.01,2013-03-11 20:44:00,
2013-03-11 16:45:00,53.3,45.2,29.70,NE,49,0.0,0.0,74,0.00,,,0.00,42.00,VWS V14.01,2013-03-11 20:45:00,
2013-03-11 16:46:00,53.3,45.2,29.70,East,79,0.0,0.0,74,0.00,,,0.00,42.00,VWS V14.01,2013-03-11 20:46:00,
2013-03-11 16:47:00,53.3,45.2,29.70,SE,124,0.0,0.0,74,0.00,,,0.00,69.00,VWS V14.01,2013-03-11 20:47:00,
2013-03-11 16:48:00,53.3,45.2,29.70,ESE,113,0.0,0.0,74,0.00,,,0.00,39.00,VWS V14.01,2013-03-11 20:48:00,
2013-03-11 16:49:00,53.3,45.2,29.70,ESE,110,0.0,0.0,74,0.00,,,0.00,37.00,VWS V14.01,2013-03-11 20:49:00,
2013-03-11 16:50:00,53.2,45.1,29.70,East,97,0.0,0.0,74,0.00,,,0.00,39.00,VWS V14.01,2013-03-11 20:50:00,
2013-03-11 16:51:00,53.2,45.1,29.70,East,97,0.0,0.0,74,0.00,,,0.00,51.00,VWS V14.01,2013-03-11 20:51:00,
2013-03-11 16:52:00,53.2,45.1,29.70,SE,140,0.0,0.0,74,0.00,,,0.00,53.00,VWS V14.01,2013-03-11 20:52:00,
2013-03-11 16:53:00,53.3,45.2,29.70,ESE,113,0.0,0.0,74,0.00,,,0.00,39.00,VWS V14.01,2013-03-11 20:53:00,
2013-03-11 16:54:00,53.2,45.1,29.70,SE,126,0.0,0.0,74,0.00,,,0.00,84.00,VWS V14.01,2013-03-11 20:54:00,
2013-03-11 16:55:00,53.2,45.1,29.70,ESE,103,0.0,0.0,74,0.00,,,0.00,100.00,VWS V14.01,2013-03-11 20:55:00,
2013-03-11 16:56:00,53.2,45.1,29.70,ESE,103,0.0,0.0,74,0.00,,,0.00,106.00,VWS V14.01,2013-03-11 20:56:00,
2013-03-11 16:57:00,53.2,45.1,29.70,SE,126,0.0,0.0,74,0.00,,,0.00,106.00,VWS V14.01,2013-03-11 20:57:00,
2013-03-11 16:58:00,53.2,45.1,29.70,East,99,0.0,0.0,74,0.00,,,0.00,63.00,VWS V14.01,2013-03-11 20:58:00,
2013-03-11 16:59:00,53.2,45.5,29.70,NE,52,0.0,0.0,75,0.00,,,0.00,111.00,VWS V14.01,2013-03-11 20:59:00,
2013-03-11 17:00:00,53.2,45.5,29.69,ESE,102,0.0,0.0,75,0.00,,,0.00,104.00,VWS V14.01,2013-03-11 21:00:00,
2013-03-11 17:01:00,53.2,45.1,29.69,NNE,13,0.0,0.0,74,0.00,,,0.00,102.00,VWS V14.01,2013-03-11 21:01:00,
2013-03-11 17:02:00,53.2,45.5,29.69,East,86,0.0,0.0,75,0.00,,,0.00,102.00,VWS V14.01,2013-03-11 21:02:00,
2013-03-11 17:03:00,53.2,45.1,29.70,ESE,113,0.0,0.0,74,0.00,,,0.00,113.00,VWS V14.01,2013-03-11 21:03:00,
2013-03-11 17:04:00,53.2,45.5,29.69,NNE,21,0.0,0.0,75,0.00,,,0.00,99.00,VWS V14.01,2013-03-11 21:04:00,
2013-03-11 17:05:00,53.3,45.6,29.69,ENE,64,0.0,0.0,75,0.00,,,0.00,100.00,VWS V14.01,2013-03-11 21:05:00,
2013-03-11 17:06:00,53.3,45.6,29.69,SE,127,0.0,0.0,75,0.00,,,0.00,99.00,VWS V14.01,2013-03-11 21:06:00,
2013-03-11 17:07:00,53.3,45.6,29.69,NE,44,0.0,0.0,75,0.00,,,0.00,93.00,VWS V14.01,2013-03-11 21:07:00,
2013-03-11 17:08:00,53.2,45.5,29.69,ESE,109,0.0,0.0,75,0.00,,,0.00,99.00,VWS V14.01,2013-03-11 21:08:00,
2013-03-11 17:09:00,53.3,45.6,29.69,NE,44,0.0,0.0,75,0.00,,,0.00,97.00,VWS V14.01,2013-03-11 21:09:00,
2013-03-11 17:10:00,53.3,45.6,29.69,NE,55,0.0,0.0,75,0.00,,,0.00,97.00,VWS V14.01,2013-03-11 21:10:00,
2013-03-11 17:11:00,53.5,45.8,29.69,ESE,120,0.0,0.0,75,0.00,,,0.00,93.00,VWS V14.01,2013-03-11 21:11:00,
2013-03-11 17:12:00,53.5,45.8,29.69,NE,42,0.0,0.0,75,0.00,,,0.00,91.00,VWS V14.01,2013-03-11 21:12:00,
2013-03-11 17:13:00,53.5,45.8,29.69,East,83,0.0,0.0,75,0.00,,,0.00,88.00,VWS V14.01,2013-03-11 21:13:00,
2013-03-11 17:14:00,53.3,45.6,29.69,NE,44,0.0,0.0,75,0.00,,,0.00,97.00,VWS V14.01,2013-03-11 21:14:00,
2013-03-11 17:15:00,53.5,45.8,29.68,ESE,123,0.0,0.0,75,0.00,,,0.00,88.00,VWS V14.01,2013-03-11 21:15:00,
2013-03-11 17:16:00,53.5,45.8,29.68,East,92,0.0,0.0,75,0.00,,,0.00,83.00,VWS V14.01,2013-03-11 21:16:00,
2013-03-11 17:17:00,53.5,45.8,29.68,ENE,72,0.0,0.0,75,0.00,,,0.00,77.00,VWS V14.01,2013-03-11 21:17:00,
2013-03-11 17:18:00,53.5,45.8,29.68,NE,42,0.0,0.0,75,0.00,,,0.00,69.00,VWS V14.01,2013-03-11 21:18:00,
2013-03-11 17:19:00,53.5,45.8,29.69,SSE,158,0.0,0.0,75,0.00,,,0.00,88.00,VWS V14.01,2013-03-11 21:19:00,
2013-03-11 17:20:00,53.5,45.8,29.68,ESE,103,0.0,0.0,75,0.00,,,0.00,49.00,VWS V14.01,2013-03-11 21:20:00,
2013-03-11 17:21:00,53.5,45.8,29.68,ESE,106,0.0,0.0,75,0.00,,,0.00,48.00,VWS V14.01,2013-03-11 21:21:00,
2013-03-11 17:22:00,53.5,45.8,29.68,ESE,114,0.0,0.0,75,0.00,,,0.00,48.00,VWS V14.01,2013-03-11 21:22:00,
2013-03-11 17:23:00,53.5,45.8,29.68,ENE,58,0.0,0.0,75,0.00,,,0.00,44.00,VWS V14.01,2013-03-11 21:23:00,
2013-03-11 17:24:00,53.5,45.8,29.68,ESE,117,0.0,0.0,75,0.00,,,0.00,48.00,VWS V14.01,2013-03-11 21:24:00,
2013-03-11 17:25:00,53.5,45.8,29.68,ESE,103,0.0,0.0,75,0.00,,,0.00,49.00,VWS V14.01,2013-03-11 21:25:00,
2013-03-11 17:26:00,53.5,45.8,29.68,East,92,0.0,0.0,75,0.00,,,0.00,56.00,VWS V14.01,2013-03-11 21:26:00,
2013-03-11 17:27:00,53.5,45.8,29.68,ESE,102,0.0,0.0,75,0.00,,,0.00,55.00,VWS V14.01,2013-03-11 21:27:00,
2013-03-11 17:28:00,53.5,45.8,29.68,ESE,119,0.0,0.0,75,0.00,,,0.00,44.00,VWS V14.01,2013-03-11 21:28:00,
2013-03-11 17:29:00,53.5,45.8,29.68,East,93,0.0,0.0,75,0.00,,,0.00,39.00,VWS V14.01,2013-03-11 21:29:00,
2013-03-11 17:30:00,53.5,46.1,29.67,NE,45,0.0,0.0,76,0.00,,,0.00,37.00,VWS V14.01,2013-03-11 21:30:00,
2013-03-11 17:31:00,53.5,45.8,29.68,East,92,0.0,0.0,75,0.00,,,0.00,56.00,VWS V14.01,2013-03-11 21:31:00,
2013-03-11 17:32:00,53.5,46.1,29.67,ESE,112,0.0,0.0,76,0.00,,,0.00,32.00,VWS V14.01,2013-03-11 21:32:00,
2013-03-11 17:33:00,53.5,46.1,29.67,East,79,0.0,0.0,76,0.00,,,0.00,28.00,VWS V14.01,2013-03-11 21:33:00,
2013-03-11 17:34:00,53.5,46.1,29.67,ENE,66,0.0,0.0,76,0.00,,,0.00,30.00,VWS V14.01,2013-03-11 21:34:00,
2013-03-11 17:35:00,53.5,46.1,29.67,ENE,75,0.0,0.0,76,0.00,,,0.00,32.00,VWS V14.01,2013-03-11 21:35:00,
2013-03-11 17:36:00,53.5,46.1,29.67,ESE,109,0.0,0.0,76,0.00,,,0.00,26.00,VWS V14.01,2013-03-11 21:36:00,
2013-03-11 17:37:00,53.5,46.1,29.67,ESE,112,0.0,0.0,76,0.00,,,0.00,32.00,VWS V14.01,2013-03-11 21:37:00,
2013-03-11 17:38:00,53.5,46.1,29.67,ESE,106,0.0,0.0,76,0.00,,,0.00,21.00,VWS V14.01,2013-03-11 21:38:00,
2013-03-11 17:39:00,53.3,45.9,29.67,ESE,110,0.0,0.0,76,0.00,,,0.00,23.00,VWS V14.01,2013-03-11 21:39:00,
2013-03-11 17:40:00,53.3,45.9,29.67,ESE,110,0.0,0.0,76,0.00,,,0.00,23.00,VWS V14.01,2013-03-11 21:40:00,
2013-03-11 17:41:00,53.3,45.9,29.67,ESE,112,0.0,0.0,76,0.00,,,0.00,23.00,VWS V14.01,2013-03-11 21:41:00,
2013-03-11 17:42:00,53.5,46.1,29.67,East,99,0.0,0.0,76,0.00,,,0.00,23.00,VWS V14.01,2013-03-11 21:42:00,
2013-03-11 17:43:00,53.3,45.9,29.67,ESE,106,0.0,0.0,76,0.00,,,0.00,21.00,VWS V14.01,2013-03-11 21:43:00,
2013-03-11 17:44:00,53.3,45.9,29.67,East,99,0.0,0.0,76,0.00,,,0.00,21.00,VWS V14.01,2013-03-11 21:44:00,
2013-03-11 17:45:00,53.3,45.9,29.68,NE,54,0.0,0.0,76,0.00,,,0.00,21.00,VWS V14.01,2013-03-11 21:45:00,
2013-03-11 17:46:00,53.3,45.9,29.68,ENE,58,0.0,0.0,76,0.00,,,0.00,21.00,VWS V14.01,2013-03-11 21:46:00,
2013-03-11 17:47:00,53.3,45.9,29.67,ESE,112,0.0,0.0,76,0.00,,,0.00,23.00,VWS V14.01,2013-03-11 21:47:00,
2013-03-11 17:48:00,53.3,45.9,29.68,ESE,110,0.0,0.0,76,0.00,,,0.00,14.00,VWS V14.01,2013-03-11 21:48:00,
2013-03-11 17:49:00,53.3,45.9,29.68,ESE,119,0.0,0.0,76,0.00,,,0.00,14.00,VWS V14.01,2013-03-11 21:49:00,
2013-03-11 17:50:00,53.3,45.9,29.68,ESE,119,0.0,0.0,76,0.00,,,0.00,14.00,VWS V14.01,2013-03-11 21:50:00,
2013-03-11 17:51:00,53.3,46.3,29.68,ESE,119,0.0,0.0,77,0.00,,,0.00,14.00,VWS V14.01,2013-03-11 21:51:00,
2013-03-11 17:52:00,53.3,46.3,29.68,ESE,107,0.0,0.0,77,0.00,,,0.00,14.00,VWS V14.01,2013-03-11 21:52:00,
2013-03-11 17:53:00,53.3,45.9,29.68,ESE,110,0.0,0.0,76,0.00,,,0.00,14.00,VWS V14.01,2013-03-11 21:53:00,
2013-03-11 17:54:00,53.3,46.3,29.68,East,79,0.0,0.0,77,0.00,,,0.00,14.00,VWS V14.01,2013-03-11 21:54:00,
2013-03-11 17:55:00,53.2,46.2,29.68,East,79,0.0,0.0,77,0.00,,,0.00,14.00,VWS V14.01,2013-03-11 21:55:00,
2013-03-11 17:56:00,53.2,46.2,29.68,East,90,0.0,0.0,77,0.00,,,0.00,19.00,VWS V14.01,2013-03-11 21:56:00,
2013-03-11 17:57:00,53.2,46.2,29.68,East,99,0.0,0.0,77,0.00,,,0.00,19.00,VWS V14.01,2013-03-11 21:57:00,
2013-03-11 17:58:00,53.2,46.2,29.68,East,89,0.0,0.0,77,0.00,,,0.00,14.00,VWS V14.01,2013-03-11 21:58:00,
2013-03-11 17:59:00,53.2,46.2,29.68,ESE,104,0.0,0.0,77,0.00,,,0.00,19.00,VWS V14.01,2013-03-11 21:59:00,
2013-03-11 18:00:00,53.2,46.2,29.68,East,100,0.0,0.0,77,0.00,,,0.00,18.00,VWS V14.01,2013-03-11 22:00:00,
2013-03-11 18:01:00,53.2,46.2,29.68,ESE,103,0.0,0.0,77,0.00,,,0.00,18.00,VWS V14.01,2013-03-11 22:01:00,
2013-03-11 18:02:00,53.2,46.2,29.68,ESE,103,0.0,0.0,77,0.00,,,0.00,18.00,VWS V14.01,2013-03-11 22:02:00,
2013-03-11 18:03:00,53.2,46.2,29.68,NNE,27,0.0,0.0,77,0.00,,,0.00,19.00,VWS V14.01,2013-03-11 22:03:00,
2013-03-11 18:04:00,53.2,46.2,29.68,ESE,114,0.0,0.0,77,0.00,,,0.00,16.00,VWS V14.01,2013-03-11 22:04:00,
2013-03-11 18:05:00,53.2,46.2,29.68,NE,42,0.0,0.0,77,0.00,,,0.00,16.00,VWS V14.01,2013-03-11 22:05:00,
2013-03-11 18:06:00,53.2,46.2,29.68,ESE,109,0.0,0.0,77,0.00,,,0.00,16.00,VWS V14.01,2013-03-11 22:06:00,
2013-03-11 18:07:00,53.2,46.2,29.68,ENE,58,0.0,0.0,77,0.00,,,0.00,16.00,VWS V14.01,2013-03-11 22:07:00,
2013-03-11 18:08:00,53.2,46.2,29.68,East,90,0.0,0.0,77,0.00,,,0.00,18.00,VWS V14.01,2013-03-11 22:08:00,
2013-03-11 18:09:00,53.1,46.1,29.68,ENE,75,0.0,0.0,77,0.00,,,0.00,23.00,VWS V14.01,2013-03-11 22:09:00,
2013-03-11 18:10:00,53.1,46.1,29.68,NE,40,0.0,0.0,77,0.00,,,0.00,23.00,VWS V14.01,2013-03-11 22:10:00,
2013-03-11 18:11:00,53.1,46.1,29.68,NE,40,0.0,0.0,77,0.00,,,0.00,23.00,VWS V14.01,2013-03-11 22:11:00,
2013-03-11 18:12:00,53.1,46.4,29.68,ENE,64,0.0,0.0,78,0.00,,,0.00,30.00,VWS V14.01,2013-03-11 22:12:00,
2013-03-11 18:13:00,53.2,46.2,29.68,NE,54,0.0,0.0,77,0.00,,,0.00,23.00,VWS V14.01,2013-03-11 22:13:00,
2013-03-11 18:14:00,53.1,46.4,29.68,NE,42,0.0,0.0,78,0.00,,,0.00,30.00,VWS V14.01,2013-03-11 22:14:00,
2013-03-11 18:15:00,53.1,46.4,29.65,ENE,71,0.0,0.0,78,0.00,,,0.00,30.00,VWS V14.01,2013-03-11 22:15:00,
2013-03-11 18:16:00,52.9,46.2,29.65,NNE,30,0.0,0.0,78,0.00,,,0.00,30.00,VWS V14.01,2013-03-11 22:16:00,
2013-03-11 18:17:00,52.9,46.2,29.65,NNE,21,0.0,0.0,78,0.00,,,0.00,23.00,VWS V14.01,2013-03-11 22:17:00,
2013-03-11 18:18:00,53.1,46.4,29.68,NE,52,0.0,0.0,78,0.00,,,0.00,30.00,VWS V14.01,2013-03-11 22:18:00,
2013-03-11 18:19:00,52.9,46.2,29.65,NE,56,0.0,0.0,78,0.00,,,0.00,23.00,VWS V14.01,2013-03-11 22:19:00,
2013-03-11 18:20:00,52.9,46.2,29.65,NE,54,0.0,0.0,78,0.00,,,0.00,23.00,VWS V14.01,2013-03-11 22:20:00,
2013-03-11 18:22:00,52.9,46.2,29.65,ENE,75,0.0,0.0,78,0.00,,,0.00,9.00,VWS V14.01,2013-03-11 22:22:00,
2013-03-11 18:23:00,52.9,46.2,29.65,East,100,0.0,0.0,78,0.00,,,0.00,9.00,VWS V14.01,2013-03-11 22:23:00,
2013-03-11 18:24:00,52.9,46.2,29.65,NE,56,0.0,0.0,78,0.00,,,0.00,23.00,VWS V14.01,2013-03-11 22:24:00,
2013-03-11 18:25:00,52.9,46.2,29.65,ENE,58,0.0,0.0,78,0.00,,,0.00,5.00,VWS V14.01,2013-03-11 22:25:00,
2013-03-11 18:26:00,52.9,46.2,29.65,NE,51,0.0,0.0,78,0.00,,,0.00,5.00,VWS V14.01,2013-03-11 22:26:00,
2013-03-11 18:27:00,52.9,46.2,29.65,East,92,0.0,0.0,78,0.00,,,0.00,5.00,VWS V14.01,2013-03-11 22:27:00,
2013-03-11 18:28:00,52.9,46.2,29.65,ENE,62,0.0,0.0,78,0.00,,,0.00,5.00,VWS V14.01,2013-03-11 22:28:00,
2013-03-11 18:30:00,52.9,46.2,29.65,ENE,58,0.0,0.0,78,0.00,,,0.00,5.00,VWS V14.01,2013-03-11 22:30:00,
2013-03-11 18:31:00,52.9,46.2,29.67,NE,48,0.0,0.0,78,0.00,,,0.00,12.00,VWS V14.01,2013-03-11 22:31:00,
2013-03-11 18:32:00,52.9,46.2,29.67,ENE,65,0.0,0.0,78,0.00,,,0.00,12.00,VWS V14.01,2013-03-11 22:32:00,
2013-03-11 18:33:00,52.9,46.2,29.67,NE,52,0.0,0.0,78,0.00,,,0.00,12.00,VWS V14.01,2013-03-11 22:33:00,
2013-03-11 18:34:00,52.9,46.2,29.67,ENE,68,0.0,0.0,78,0.00,,,0.00,12.00,VWS V14.01,2013-03-11 22:34:00,
2013-03-11 18:35:00,52.9,46.2,29.67,ENE,66,0.0,0.0,78,0.00,,,0.00,12.00,VWS V14.01,2013-03-11 22:35:00,
2013-03-11 18:36:00,52.9,46.2,29.67,NE,48,0.0,0.0,78,0.00,,,0.00,12.00,VWS V14.01,2013-03-11 22:36:00,
2013-03-11 18:37:00,52.9,46.2,29.67,ENE,73,0.0,0.0,78,0.00,,,0.00,7.00,VWS V14.01,2013-03-11 22:37:00,
2013-03-11 18:38:00,52.9,46.2,29.67,ENE,59,0.0,0.0,78,0.00,,,0.00,7.00,VWS V14.01,2013-03-11 22:38:00,
2013-03-11 18:39:00,52.9,46.2,29.67,ENE,59,0.0,0.0,78,0.00,,,0.00,7.00,VWS V14.01,2013-03-11 22:39:00,
2013-03-11 18:40:00,52.9,46.2,29.67,ENE,59,0.0,0.0,78,0.00,,,0.00,7.00,VWS V14.01,2013-03-11 22:40:00,
2013-03-11 18:41:00,52.9,46.2,29.67,NE,54,0.0,0.0,78,0.00,,,0.00,7.00,VWS V14.01,2013-03-11 22:41:00,
2013-03-11 18:42:00,52.9,46.2,29.67,ENE,73,0.0,0.0,78,0.00,,,0.00,7.00,VWS V14.01,2013-03-11 22:42:00,
2013-03-11 18:43:00,52.9,46.2,29.67,ENE,73,0.0,0.0,78,0.00,,,0.00,0.00,VWS V14.01,2013-03-11 22:43:00,
2013-03-11 18:44:00,52.9,46.2,29.67,ESE,110,0.0,0.0,78,0.00,,,0.00,0.00,VWS V14.01,2013-03-11 22:44:00,
2013-03-11 18:45:00,52.9,46.2,29.67,East,100,0.0,0.0,78,0.00,,,0.00,0.00,VWS V14.01,2013-03-11 22:45:00,
2013-03-11 18:46:00,52.9,46.2,29.67,East,97,0.0,0.0,78,0.00,,,0.00,0.00,VWS V14.01,2013-03-11 22:46:00,
2013-03-11 18:47:00,52.9,46.2,29.67,NE,45,0.0,0.0,78,0.00,,,0.00,0.00,VWS V14.01,2013-03-11 22:47:00,
2013-03-11 18:48:00,52.9,46.2,29.67,ENE,73,0.0,0.0,78,0.00,,,0.00,0.00,VWS V14.01,2013-03-11 22:48:00,
2013-03-11 18:49:00,52.9,46.2,29.67,NE,35,0.0,0.0,78,0.00,,,0.00,0.00,VWS V14.01,2013-03-11 22:49:00,
2013-03-11 18:50:00,52.9,46.2,29.67,East,89,0.0,0.0,78,0.00,,,0.00,0.00,VWS V14.01,2013-03-11 22:50:00,
2013-03-11 18:51:00,52.9,46.2,29.67,NE,54,0.0,0.0,78,0.00,,,0.00,0.00,VWS V14.01,2013-03-11 22:51:00,
2013-03-11 18:52:00,52.9,46.2,29.67,ENE,71,0.0,0.0,78,0.00,,,0.00,0.00,VWS V14.01,2013-03-11 22:52:00,
2013-03-11 18:53:00,52.9,46.2,29.67,ENE,68,0.0,0.0,78,0.00,,,0.00,0.00,VWS V14.01,2013-03-11 22:53:00,
2013-03-11 18:54:00,52.9,46.2,29.67,NE,35,0.0,0.0,78,0.00,,,0.00,0.00,VWS V14.01,2013-03-11 22:54:00,
2013-03-11 18:55:00,52.9,46.2,29.67,ENE,59,0.0,0.0,78,0.00,,,0.00,0.00,VWS V14.01,2013-03-11 22:55:00,
2013-03-11 18:56:00,52.9,46.2,29.67,NE,40,0.0,0.0,78,0.00,,,0.00,0.00,VWS V14.01,2013-03-11 22:56:00,
2013-03-11 18:57:00,52.9,46.2,29.67,ENE,61,0.0,0.0,78,0.00,,,0.00,0.00,VWS V14.01,2013-03-11 22:57:00,
2013-03-11 18:58:00,52.9,46.2,29.67,NE,56,0.0,0.0,78,0.00,,,0.00,0.00,VWS V14.01,2013-03-11 22:58:00,
2013-03-11 18:59:00,52.9,46.2,29.67,SE,127,0.0,0.0,78,0.00,,,0.00,0.00,VWS V14.01,2013-03-11 22:59:00,
2013-03-11 19:00:00,52.9,46.2,29.66,NE,45,0.0,0.0,78,0.00,,,0.00,0.00,VWS V14.01,2013-03-11 23:00:00,
2013-03-11 19:01:00,52.9,46.2,29.66,ENE,58,0.0,0.0,78,0.00,,,0.00,0.00,VWS V14.01,2013-03-11 23:01:00,
2013-03-11 19:02:00,52.9,46.2,29.66,NE,49,0.0,0.0,78,0.00,,,0.00,0.00,VWS V14.01,2013-03-11 23:02:00,
2013-03-11 19:03:00,53.1,46.4,29.66,NE,49,0.0,0.0,78,0.00,,,0.00,0.00,VWS V14.01,2013-03-11 23:03:00,
2013-03-11 19:04:00,53.1,46.4,29.66,NE,49,0.0,0.0,78,0.00,,,0.00,0.00,VWS V14.01,2013-03-11 23:04:00,
2013-03-11 19:05:00,52.9,46.2,29.66,NE,45,0.0,0.0,78,0.00,,,0.00,0.00,VWS V14.01,2013-03-11 23:05:00,
2013-03-11 19:06:00,53.1,46.4,29.66,NE,37,0.0,0.0,78,0.00,,,0.00,0.00,VWS V14.01,2013-03-11 23:06:00,
2013-03-11 19:07:00,53.1,46.4,29.66,ESE,114,0.0,0.0,78,0.00,,,0.00,0.00,VWS V14.01,2013-03-11 23:07:00,
2013-03-11 19:08:00,53.1,46.4,29.66,NE,55,0.0,0.0,78,0.00,,,0.00,0.00,VWS V14.01,2013-03-11 23:08:00,
2013-03-11 19:09:00,53.1,46.4,29.66,ESE,102,0.0,0.0,78,0.00,,,0.00,0.00,VWS V14.01,2013-03-11 23:09:00,
2013-03-11 19:10:00,53.1,46.4,29.66,East,92,0.0,0.0,78,0.00,,,0.00,0.00,VWS V14.01,2013-03-11 23:10:00,
2013-03-11 19:11:00,53.1,46.4,29.66,NE,56,0.0,0.0,78,0.00,,,0.00,0.00,VWS V14.01,2013-03-11 23:11:00,
2013-03-11 19:12:00,53.1,46.4,29.66,East,88,0.0,0.0,78,0.00,,,0.00,0.00,VWS V14.01,2013-03-11 23:12:00,
2013-03-11 19:13:00,53.1,46.4,29.66,NE,38,0.0,0.0,78,0.00,,,0.00,0.00,VWS V14.01,2013-03-11 23:13:00,
2013-03-11 19:14:00,53.1,46.4,29.66,NE,38,0.0,0.0,78,0.00,,,0.00,0.00,VWS V14.01,2013-03-11 23:14:00,
2013-03-11 19:15:00,53.2,46.5,29.65,East,92,0.0,0.0,78,0.00,,,0.00,0.00,VWS V14.01,2013-03-11 23:15:00,
2013-03-11 19:16:00,53.2,46.5,29.65,ENE,58,0.0,0.0,78,0.00,,,0.00,0.00,VWS V14.01,2013-03-11 23:16:00,
2013-03-11 19:17:00,53.1,46.4,29.66,East,88,0.0,0.0,78,0.00,,,0.00,0.00,VWS V14.01,2013-03-11 23:17:00,
2013-03-11 19:18:00,53.2,46.5,29.65,NE,55,0.0,0.0,78,0.00,,,0.00,0.00,VWS V14.01,2013-03-11 23:18:00,
2013-03-11 19:19:00,53.2,46.5,29.65,NE,49,0.0,0.0,78,0.00,,,0.00,0.00,VWS V14.01,2013-03-11 23:19:00,
2013-03-11 19:20:00,53.2,46.5,29.65,ESE,116,0.0,0.0,78,0.00,,,0.00,0.00,VWS V14.01,2013-03-11 23:20:00,
2013-03-11 19:21:00,53.2,46.5,29.65,NNE,32,0.0,0.0,78,0.00,,,0.00,0.00,VWS V14.01,2013-03-11 23:21:00,
2013-03-11 19:22:00,53.2,46.5,29.65,East,92,0.0,0.0,78,0.00,,,0.00,0.00,VWS V14.01,2013-03-11 23:22:00,
2013-03-11 19:23:00,53.2,46.5,29.65,NE,55,0.0,0.0,78,0.00,,,0.00,0.00,VWS V14.01,2013-03-11 23:23:00,
2013-03-11 19:24:00,53.2,46.5,29.65,East,85,0.0,0.0,78,0.00,,,0.00,0.00,VWS V14.01,2013-03-11 23:24:00,
2013-03-11 19:25:00,53.2,46.5,29.65,ENE,72,0.0,0.0,78,0.00,,,0.00,0.00,VWS V14.01,2013-03-11 23:25:00,
2013-03-11 19:26:00,53.2,46.5,29.65,East,92,0.0,0.0,78,0.00,,,0.00,0.00,VWS V14.01,2013-03-11 23:26:00,
2013-03-11 19:27:00,53.2,46.9,29.65,ESE,107,0.0,0.0,79,0.00,,,0.00,0.00,VWS V14.01,2013-03-11 23:27:00,
2013-03-11 19:28:00,53.2,46.5,29.65,SE,141,0.0,0.0,78,0.00,,,0.00,0.00,VWS V14.01,2013-03-11 23:28:00,
2013-03-11 19:29:00,53.2,46.9,29.65,East,83,0.0,0.0,79,0.00,,,0.00,0.00,VWS V14.01,2013-03-11 23:29:00,
2013-03-11 19:30:00,53.2,46.9,29.66,NE,52,0.0,0.0,79,0.00,,,0.00,0.00,VWS V14.01,2013-03-11 23:30:00,
2013-03-11 19:31:00,53.2,46.9,29.66,NE,45,0.0,0.0,79,0.00,,,0.00,0.00,VWS V14.01,2013-03-11 23:31:00,
2013-03-11 19:32:00,53.2,46.9,29.66,ESE,117,0.0,0.0,79,0.00,,,0.00,0.00,VWS V14.01,2013-03-11 23:32:00,
2013-03-11 19:33:00,53.2,46.5,29.66,East,88,0.0,0.0,78,0.00,,,0.00,0.00,VWS V14.01,2013-03-11 23:33:00,
2013-03-11 19:34:00,53.2,46.9,29.65,East,83,0.0,0.0,79,0.00,,,0.00,0.00,VWS V14.01,2013-03-11 23:34:00,
2013-03-11 19:35:00,53.2,46.5,29.66,ENE,68,0.0,0.0,78,0.00,,,0.00,0.00,VWS V14.01,2013-03-11 23:35:00,
2013-03-11 19:36:00,53.2,46.5,29.66,NE,38,0.0,0.0,78,0.00,,,0.00,0.00,VWS V14.01,2013-03-11 23:36:00,
2013-03-11 19:37:00,53.2,46.5,29.66,ESE,123,0.0,0.0,78,0.00,,,0.00,0.00,VWS V14.01,2013-03-11 23:37:00,
2013-03-11 19:38:00,53.2,46.5,29.66,NE,56,0.0,0.0,78,0.00,,,0.00,0.00,VWS V14.01,2013-03-11 23:38:00,
2013-03-11 19:39:00,53.2,46.5,29.66,East,96,0.0,0.0,78,0.00,,,0.00,0.00,VWS V14.01,2013-03-11 23:39:00,
2013-03-11 19:40:00,53.2,46.5,29.66,SE,126,0.0,0.0,78,0.00,,,0.00,0.00,VWS V14.01,2013-03-11 23:40:00,
2013-03-11 19:41:00,53.3,46.6,29.66,ENE,68,0.0,0.0,78,0.00,,,0.00,0.00,VWS V14.01,2013-03-11 23:41:00,
2013-03-11 19:42:00,53.3,46.6,29.66,East,97,0.0,0.0,78,0.00,,,0.00,0.00,VWS V14.01,2013-03-11 23:42:00,
2013-03-11 19:43:00,53.3,46.6,29.66,ESE,107,0.0,0.0,78,0.00,,,0.00,0.00,VWS V14.01,2013-03-11 23:43:00,
2013-03-11 19:44:00,53.2,46.5,29.66,East,93,0.0,0.0,78,0.00,,,0.00,0.00,VWS V14.01,2013-03-11 23:44:00,
2013-03-11 19:45:00,53.3,46.6,29.65,NE,34,0.0,0.0,78,0.00,,,0.00,0.00,VWS V14.01,2013-03-11 23:45:00,
2013-03-11 19:46:00,53.3,46.6,29.65,ENE,61,0.0,0.0,78,0.00,,,0.00,0.00,VWS V14.01,2013-03-11 23:46:00,
2013-03-11 19:47:00,53.3,46.6,29.65,NNE,24,0.0,0.0,78,0.00,,,0.00,0.00,VWS V14.01,2013-03-11 23:47:00,
2013-03-11 19:48:00,53.3,46.6,29.65,NE,56,0.0,0.0,78,0.00,,,0.00,0.00,VWS V14.01,2013-03-11 23:48:00,
2013-03-11 19:49:00,53.3,46.6,29.65,East,96,0.0,0.0,78,0.00,,,0.00,0.00,VWS V14.01,2013-03-11 23:49:00,
2013-03-11 19:50:00,53.5,46.8,29.65,ENE,68,0.0,0.0,78,0.00,,,0.00,0.00,VWS V14.01,2013-03-11 23:50:00,
2013-03-11 19:51:00,53.3,46.6,29.65,ENE,62,0.0,0.0,78,0.00,,,0.00,0.00,VWS V14.01,2013-03-11 23:51:00,
2013-03-11 19:52:00,53.3,46.6,29.65,ESE,106,0.0,0.0,78,0.00,,,0.00,0.00,VWS V14.01,2013-03-11 23:52:00,
2013-03-11 19:53:00,53.3,46.6,29.65,ESE,104,0.0,0.0,78,0.00,,,0.00,0.00,VWS V14.01,2013-03-11 23:53:00,
2013-03-11 19:54:00,53.3,46.6,29.65,ENE,61,0.0,0.0,78,0.00,,,0.00,0.00,VWS V14.01,2013-03-11 23:54:00,
2013-03-11 19:55:00,53.5,46.8,29.65,ENE,68,0.0,0.0,78,0.00,,,0.00,0.00,VWS V14.01,2013-03-11 23:55:00,
2013-03-11 20:00:00,53.3,46.6,29.65,ESE,109,0.0,0.0,78,0.00,,,0.00,0.00,VWS V14.01,2013-03-12 00:00:00,
2013-03-11 20:01:00,53.5,47.2,29.64,East,83,0.0,0.0,79,0.00,,,0.00,0.00,VWS V14.01,2013-03-12 00:01:00,
2013-03-11 20:02:00,53.5,47.2,29.64,East,89,0.0,0.0,79,0.00,,,0.00,0.00,VWS V14.01,2013-03-12 00:02:00,
2013-03-11 20:03:00,53.5,47.2,29.64,NE,52,0.0,0.0,79,0.00,,,0.00,0.00,VWS V14.01,2013-03-12 00:03:00,
2013-03-11 20:04:00,53.5,47.2,29.64,East,97,0.0,0.0,79,0.00,,,0.00,0.00,VWS V14.01,2013-03-12 00:04:00,
2013-03-11 20:05:00,53.5,47.2,29.65,North,0,0.0,0.0,79,0.00,,,0.00,0.00,VWS V14.01,2013-03-12 00:05:00,
2013-03-11 20:14:00,53.6,47.3,29.64,NE,56,0.0,0.0,79,0.00,,,0.00,0.00,VWS V14.01,2013-03-12 00:14:00,
2013-03-11 20:19:00,53.6,47.3,29.64,SE,126,0.0,0.0,79,0.00,,,0.00,0.00,VWS V14.01,2013-03-12 00:19:00,
2013-03-11 20:25:00,53.6,47.3,29.64,ENE,71,0.0,0.0,79,0.00,,,0.00,0.00,VWS V14.01,2013-03-12 00:25:00,
2013-03-11 20:30:00,53.6,47.3,29.64,NE,52,0.0,0.0,79,0.00,,,0.00,0.00,VWS V14.01,2013-03-12 00:30:00,
2013-03-11 20:35:00,53.6,47.3,29.64,ESE,114,0.0,0.0,79,0.00,,,0.00,0.00,VWS V14.01,2013-03-12 00:35:00,
2013-03-11 20:40:00,53.6,47.6,29.64,NE,49,0.0,0.0,80,0.00,,,0.00,0.00,VWS V14.01,2013-03-12 00:40:00,
2013-03-11 20:46:00,53.8,47.8,29.64,East,95,0.0,0.0,80,0.00,,,0.00,0.00,VWS V14.01,2013-03-12 00:46:00,
2013-03-11 20:51:00,53.8,47.8,29.63,East,93,0.0,0.0,80,0.00,,,0.00,0.00,VWS V14.01,2013-03-12 00:51:00,
2013-03-11 20:56:00,53.9,47.9,29.63,ESE,103,0.0,0.0,80,0.00,,,0.00,0.00,VWS V14.01,2013-03-12 00:56:00,
2013-03-11 21:01:00,53.9,47.9,29.63,ESE,107,0.0,0.0,80,0.00,,,0.00,0.00,VWS V14.01,2013-03-12 01:01:00,
2013-03-11 21:07:00,53.9,48.2,29.63,ESE,123,0.0,0.0,81,0.00,,,0.00,0.00,VWS V14.01,2013-03-12 01:07:00,
2013-03-11 21:13:00,53.9,48.2,29.63,SE,130,0.0,0.0,81,0.00,,,0.00,0.00,VWS V14.01,2013-03-12 01:13:00,
2013-03-11 21:18:00,53.9,48.5,29.63,NE,49,0.0,0.0,82,0.00,,,0.00,0.00,VWS V14.01,2013-03-12 01:18:00,
2013-03-11 21:24:00,53.9,48.5,29.62,ESE,117,0.0,0.0,82,0.00,,,0.00,0.00,VWS V14.01,2013-03-12 01:24:00,
2013-03-11 21:29:00,53.9,48.5,29.62,ESE,121,0.0,0.0,82,0.00,,,0.00,0.00,VWS V14.01,2013-03-12 01:29:00,
2013-03-11 21:34:00,53.9,48.5,29.62,ESE,107,0.0,0.0,82,0.00,,,0.00,0.00,VWS V14.01,2013-03-12 01:34:00,
2013-03-11 21:40:00,54.1,48.7,29.62,ESE,123,0.0,0.0,82,0.00,,,0.00,0.00,VWS V14.01,2013-03-12 01:40:00,
2013-03-11 21:45:00,54.1,48.7,29.62,ESE,103,0.0,0.0,82,0.00,,,0.00,0.00,VWS V14.01,2013-03-12 01:45:00,
2013-03-11 21:51:00,54.1,49.1,29.63,ESE,104,0.0,0.0,83,0.00,,,0.00,0.00,VWS V14.01,2013-03-12 01:51:00,
2013-03-11 21:56:00,54.1,49.4,29.63,ESE,117,0.0,0.0,84,0.01,,,0.01,0.00,VWS V14.01,2013-03-12 01:56:00,
2013-03-11 22:01:00,53.9,49.2,29.63,SE,127,0.0,0.0,84,0.02,,,0.02,0.00,VWS V14.01,2013-03-12 02:01:00,
2013-03-11 22:07:00,53.8,49.4,29.62,SE,127,0.0,0.0,85,0.03,,,0.03,0.00,VWS V14.01,2013-03-12 02:07:00,
2013-03-11 22:13:00,53.6,49.5,29.62,SE,127,0.0,0.0,86,0.03,,,0.03,0.00,VWS V14.01,2013-03-12 02:13:00,
2013-03-11 22:19:00,53.5,49.7,29.62,SE,127,0.0,0.0,87,0.04,,,0.04,0.00,VWS V14.01,2013-03-12 02:19:00,
2013-03-11 22:25:00,53.3,49.5,29.62,SE,127,0.0,0.0,87,0.05,,,0.05,0.00,VWS V14.01,2013-03-12 02:25:00,
2013-03-11 22:31:00,53.2,49.7,29.62,SE,127,0.0,0.0,88,0.06,,,0.06,0.00,VWS V14.01,2013-03-12 02:31:00,
2013-03-11 22:37:00,53.2,49.7,29.62,SE,127,0.0,0.0,88,0.07,,,0.07,0.00,VWS V14.01,2013-03-12 02:37:00,
2013-03-11 22:43:00,53.1,50.0,29.62,SSE,147,0.0,0.0,89,0.08,,,0.08,0.00,VWS V14.01,2013-03-12 02:43:00,
2013-03-11 22:48:00,52.9,49.8,29.62,SE,144,0.0,0.0,89,0.10,,,0.10,0.00,VWS V14.01,2013-03-12 02:48:00,
2013-03-11 22:53:00,52.8,50.0,29.62,SE,144,0.0,0.0,90,0.12,,,0.12,0.00,VWS V14.01,2013-03-12 02:53:00,
2013-03-11 22:58:00,52.6,49.8,29.62,SE,144,0.0,0.0,90,0.14,,,0.15,0.00,VWS V14.01,2013-03-12 02:58:00,
2013-03-11 23:04:00,52.2,49.7,29.62,SE,144,0.0,0.0,91,0.14,,,0.16,0.00,VWS V14.01,2013-03-12 03:04:00,
2013-03-11 23:09:00,52.2,49.7,29.62,SE,144,0.0,0.0,91,0.14,,,0.17,0.00,VWS V14.01,2013-03-12 03:09:00,
2013-03-11 23:14:00,52.0,49.8,29.62,SE,144,0.0,0.0,92,0.15,,,0.18,0.00,VWS V14.01,2013-03-12 03:14:00,
2013-03-11 23:20:00,51.7,49.5,29.61,SE,144,0.0,0.0,92,0.16,,,0.20,0.00,VWS V14.01,2013-03-12 03:20:00,
2013-03-11 23:26:00,51.7,49.5,29.61,SE,144,0.0,0.0,92,0.16,,,0.21,0.00,VWS V14.01,2013-03-12 03:26:00,
2013-03-11 23:32:00,51.6,49.7,29.61,SE,144,0.0,0.0,93,0.15,,,0.21,0.00,VWS V14.01,2013-03-12 03:32:00,
2013-03-11 23:38:00,51.6,49.7,29.61,SE,144,0.0,0.0,93,0.15,,,0.22,0.00,VWS V14.01,2013-03-12 03:38:00,
2013-03-11 23:43:00,51.6,49.7,29.61,SE,144,0.0,0.0,93,0.14,,,0.22,0.00,VWS V14.01,2013-03-12 03:43:00,
2013-03-11 23:48:00,51.6,49.9,29.61,SE,144,0.0,0.0,94,0.13,,,0.23,0.00,VWS V14.01,2013-03-12 03:48:00,
2013-03-11 23:54:00,51.6,49.9,29.61,SE,144,0.0,0.0,94,0.12,,,0.24,0.00,VWS V14.01,2013-03-12 03:54:00,